<?xml version='1.0' encoding='UTF-8'?><gpx version="1.1" creator="JPX - https://github.com/jenetics/jpx" xmlns="http://www.topografix.com/GPX/1/1"><trk><trkseg><trkpt lat="43.6520155" lon="11.2720027"><ele>217.0</ele><time>2026-04-24T15:28:06.212Z</time></trkpt><trkpt lat="43.6519574" lon="11.2719643"><ele>217.0</ele><time>2026-04-24T15:28:11.212Z</time></trkpt><trkpt lat="43.651899" lon="11.2719059"><ele>217.0</ele><time>2026-04-24T15:28:14.212Z</time></trkpt><trkpt lat="43.6518536" lon="11.2718351"><ele>217.0</ele><time>2026-04-24T15:28:18.212Z</time></trkpt><trkpt lat="43.6518182" lon="11.2717517"><ele>217.0</ele><time>2026-04-24T15:28:24.211Z</time></trkpt><trkpt lat="43.651769" lon="11.2716739"><ele>217.0</ele><time>2026-04-24T15:28:29.212Z</time></trkpt><trkpt lat="43.6516926" lon="11.2716312"><ele>217.0</ele><time>2026-04-24T15:28:33.212Z</time></trkpt><trkpt lat="43.6516295" lon="11.271611"><ele>216.83333333333331</ele><time>2026-04-24T15:28:36.212Z</time></trkpt><trkpt lat="43.651554" lon="11.271602"><ele>216.66666666666666</ele><time>2026-04-24T15:28:40.212Z</time></trkpt><trkpt lat="43.6514744" lon="11.2715824"><ele>216.5</ele><time>2026-04-24T15:28:43.211Z</time></trkpt><trkpt lat="43.6513958" lon="11.2715505"><ele>216.33333333333331</ele><time>2026-04-24T15:28:46.212Z</time></trkpt><trkpt lat="43.6513261" lon="11.271493"><ele>216.16666666666666</ele><time>2026-04-24T15:28:50.211Z</time></trkpt><trkpt lat="43.6512502" lon="11.2714535"><ele>216.0</ele><time>2026-04-24T15:28:54.212Z</time></trkpt><trkpt lat="43.6511885" lon="11.2714053"><ele>213.28571428571428</ele><time>2026-04-24T15:28:57.212Z</time></trkpt><trkpt lat="43.6511232" lon="11.2713538"><ele>210.57142857142856</ele><time>2026-04-24T15:29:01.211Z</time></trkpt><trkpt lat="43.6510534" lon="11.2713141"><ele>207.85714285714286</ele><time>2026-04-24T15:29:05.212Z</time></trkpt><trkpt lat="43.6509906" lon="11.2712875"><ele>205.14285714285714</ele><time>2026-04-24T15:29:08.211Z</time></trkpt><trkpt lat="43.6509235" lon="11.271255"><ele>202.42857142857144</ele><time>2026-04-24T15:29:11.212Z</time></trkpt><trkpt lat="43.650872" lon="11.2712014"><ele>199.71428571428572</ele><time>2026-04-24T15:29:14.212Z</time></trkpt><trkpt lat="43.650812" lon="11.2711569"><ele>197.0</ele><time>2026-04-24T15:29:17.212Z</time></trkpt><trkpt lat="43.6507293" lon="11.2711258"><ele>197.00000000000003</ele><time>2026-04-24T15:29:21.212Z</time></trkpt><trkpt lat="43.6506639" lon="11.2711709"><ele>197.0</ele><time>2026-04-24T15:29:24.212Z</time></trkpt><trkpt lat="43.6506011" lon="11.2712293"><ele>197.0</ele><time>2026-04-24T15:29:28.212Z</time></trkpt><trkpt lat="43.6505236" lon="11.2712576"><ele>197.0</ele><time>2026-04-24T15:29:31.212Z</time></trkpt><trkpt lat="43.6504586" lon="11.2712446"><ele>197.00000000000003</ele><time>2026-04-24T15:29:34.212Z</time></trkpt><trkpt lat="43.6503927" lon="11.2712137"><ele>197.0</ele><time>2026-04-24T15:29:37.212Z</time></trkpt><trkpt lat="43.6503154" lon="11.2711624"><ele>196.0</ele><time>2026-04-24T15:29:40.212Z</time></trkpt><trkpt lat="43.6502444" lon="11.2711228"><ele>195.0</ele><time>2026-04-24T15:29:44.212Z</time></trkpt><trkpt lat="43.6501598" lon="11.2710904"><ele>194.0</ele><time>2026-04-24T15:29:48.211Z</time></trkpt><trkpt lat="43.6500971" lon="11.2710742"><ele>193.0</ele><time>2026-04-24T15:29:51.212Z</time></trkpt><trkpt lat="43.6500309" lon="11.2710444"><ele>192.0</ele><time>2026-04-24T15:29:54.212Z</time></trkpt><trkpt lat="43.6499807" lon="11.2709819"><ele>191.0</ele><time>2026-04-24T15:29:56.211Z</time></trkpt><trkpt lat="43.649954" lon="11.2708923"><ele>190.0</ele><time>2026-04-24T15:30:00.211Z</time></trkpt><trkpt lat="43.6499019" lon="11.2708095"><ele>190.0</ele><time>2026-04-24T15:30:05.212Z</time></trkpt><trkpt lat="43.6498376" lon="11.2707154"><ele>190.0</ele><time>2026-04-24T15:30:08.212Z</time></trkpt><trkpt lat="43.6497865" lon="11.2706221"><ele>190.0</ele><time>2026-04-24T15:30:10.212Z</time></trkpt><trkpt lat="43.6497421" lon="11.2705201"><ele>190.0</ele><time>2026-04-24T15:30:12.212Z</time></trkpt><trkpt lat="43.6496987" lon="11.2704159"><ele>190.0</ele><time>2026-04-24T15:30:14.212Z</time></trkpt><trkpt lat="43.6496516" lon="11.2703082"><ele>190.0</ele><time>2026-04-24T15:30:17.211Z</time></trkpt><trkpt lat="43.6496174" lon="11.2701886"><ele>188.42857142857144</ele><time>2026-04-24T15:30:20.212Z</time></trkpt><trkpt lat="43.6495923" lon="11.2701019"><ele>186.85714285714286</ele><time>2026-04-24T15:30:22.211Z</time></trkpt><trkpt lat="43.6495679" lon="11.2700056"><ele>185.28571428571428</ele><time>2026-04-24T15:30:25.211Z</time></trkpt><trkpt lat="43.6495387" lon="11.2699156"><ele>183.71428571428572</ele><time>2026-04-24T15:30:27.212Z</time></trkpt><trkpt lat="43.6494968" lon="11.2698301"><ele>182.14285714285714</ele><time>2026-04-24T15:30:31.212Z</time></trkpt><trkpt lat="43.6494502" lon="11.2697638"><ele>180.57142857142858</ele><time>2026-04-24T15:30:36.212Z</time></trkpt><trkpt lat="43.6493924" lon="11.2696852"><ele>179.0</ele><time>2026-04-24T15:30:40.212Z</time></trkpt><trkpt lat="43.6493648" lon="11.2695733"><ele>177.0</ele><time>2026-04-24T15:30:43.212Z</time></trkpt><trkpt lat="43.6493416" lon="11.2694868"><ele>175.0</ele><time>2026-04-24T15:30:46.211Z</time></trkpt><trkpt lat="43.6492794" lon="11.2694164"><ele>173.0</ele><time>2026-04-24T15:30:49.212Z</time></trkpt><trkpt lat="43.6492088" lon="11.269365"><ele>171.0</ele><time>2026-04-24T15:30:53.212Z</time></trkpt><trkpt lat="43.6491338" lon="11.2693179"><ele>169.0</ele><time>2026-04-24T15:30:57.211Z</time></trkpt><trkpt lat="43.6490597" lon="11.2692815"><ele>167.0</ele><time>2026-04-24T15:31:00.212Z</time></trkpt><trkpt lat="43.6489999" lon="11.2692208"><ele>167.0</ele><time>2026-04-24T15:31:05.211Z</time></trkpt><trkpt lat="43.6489706" lon="11.2691109"><ele>167.0</ele><time>2026-04-24T15:31:09.212Z</time></trkpt><trkpt lat="43.6489496" lon="11.2690147"><ele>167.0</ele><time>2026-04-24T15:31:14.212Z</time></trkpt><trkpt lat="43.6489191" lon="11.2689249"><ele>167.0</ele><time>2026-04-24T15:31:18.212Z</time></trkpt><trkpt lat="43.648891" lon="11.2688334"><ele>167.0</ele><time>2026-04-24T15:31:22.212Z</time></trkpt><trkpt lat="43.6488384" lon="11.2687634"><ele>167.0</ele><time>2026-04-24T15:31:26.211Z</time></trkpt><trkpt lat="43.6487767" lon="11.2687149"><ele>167.0</ele><time>2026-04-24T15:31:29.211Z</time></trkpt><trkpt lat="43.6487077" lon="11.2686657"><ele>166.5</ele><time>2026-04-24T15:31:33.212Z</time></trkpt><trkpt lat="43.6486357" lon="11.2686078"><ele>166.0</ele><time>2026-04-24T15:31:36.211Z</time></trkpt><trkpt lat="43.6485556" lon="11.2685653"><ele>165.5</ele><time>2026-04-24T15:31:39.212Z</time></trkpt><trkpt lat="43.6484907" lon="11.2685763"><ele>165.0</ele><time>2026-04-24T15:31:41.212Z</time></trkpt><trkpt lat="43.6484333" lon="11.268619"><ele>164.5</ele><time>2026-04-24T15:31:43.212Z</time></trkpt><trkpt lat="43.6483605" lon="11.2686912"><ele>164.0</ele><time>2026-04-24T15:31:46.212Z</time></trkpt><trkpt lat="43.6482979" lon="11.2687429"><ele>163.14285714285714</ele><time>2026-04-24T15:31:49.212Z</time></trkpt><trkpt lat="43.648228" lon="11.268786"><ele>162.28571428571428</ele><time>2026-04-24T15:31:54.212Z</time></trkpt><trkpt lat="43.6481809" lon="11.2688462"><ele>161.42857142857144</ele><time>2026-04-24T15:31:59.212Z</time></trkpt><trkpt lat="43.6481431" lon="11.2689475"><ele>160.57142857142856</ele><time>2026-04-24T15:32:04.212Z</time></trkpt><trkpt lat="43.6481162" lon="11.2690307"><ele>159.71428571428572</ele><time>2026-04-24T15:32:08.212Z</time></trkpt><trkpt lat="43.6480926" lon="11.2691199"><ele>158.85714285714286</ele><time>2026-04-24T15:32:12.212Z</time></trkpt><trkpt lat="43.6480676" lon="11.2692207"><ele>158.0</ele><time>2026-04-24T15:32:16.211Z</time></trkpt><trkpt lat="43.648062" lon="11.2693212"><ele>158.00000000000003</ele><time>2026-04-24T15:32:20.212Z</time></trkpt><trkpt lat="43.648058" lon="11.269414"><ele>158.0</ele><time>2026-04-24T15:32:25.212Z</time></trkpt><trkpt lat="43.6480546" lon="11.2695026"><ele>158.0</ele><time>2026-04-24T15:32:29.212Z</time></trkpt><trkpt lat="43.6480519" lon="11.2696161"><ele>158.0</ele><time>2026-04-24T15:32:33.212Z</time></trkpt><trkpt lat="43.6480145" lon="11.2696955"><ele>158.0</ele><time>2026-04-24T15:32:36.212Z</time></trkpt><trkpt lat="43.6479546" lon="11.2697466"><ele>158.00000000000003</ele><time>2026-04-24T15:32:39.211Z</time></trkpt><trkpt lat="43.6478964" lon="11.2697827"><ele>158.0</ele><time>2026-04-24T15:32:42.212Z</time></trkpt><trkpt lat="43.6478247" lon="11.2697812"><ele>159.85714285714286</ele><time>2026-04-24T15:32:46.211Z</time></trkpt><trkpt lat="43.6477494" lon="11.269774"><ele>161.71428571428572</ele><time>2026-04-24T15:32:50.212Z</time></trkpt><trkpt lat="43.64768" lon="11.2697583"><ele>163.57142857142856</ele><time>2026-04-24T15:32:54.212Z</time></trkpt><trkpt lat="43.6476174" lon="11.269712"><ele>165.42857142857144</ele><time>2026-04-24T15:32:58.212Z</time></trkpt><trkpt lat="43.6475798" lon="11.2696274"><ele>167.28571428571428</ele><time>2026-04-24T15:33:08.211Z</time></trkpt><trkpt lat="43.6475642" lon="11.2695379"><ele>169.14285714285714</ele><time>2026-04-24T15:33:12.212Z</time></trkpt><trkpt lat="43.6475525" lon="11.2694456"><ele>171.0</ele><time>2026-04-24T15:33:15.212Z</time></trkpt><trkpt lat="43.6475256" lon="11.2693393"><ele>171.0</ele><time>2026-04-24T15:33:18.212Z</time></trkpt><trkpt lat="43.6474851" lon="11.2692447"><ele>171.0</ele><time>2026-04-24T15:33:21.212Z</time></trkpt><trkpt lat="43.64744" lon="11.2691484"><ele>171.0</ele><time>2026-04-24T15:33:24.212Z</time></trkpt><trkpt lat="43.6473894" lon="11.2690672"><ele>171.0</ele><time>2026-04-24T15:33:26.212Z</time></trkpt><trkpt lat="43.6473392" lon="11.2689837"><ele>171.0</ele><time>2026-04-24T15:33:28.212Z</time></trkpt><trkpt lat="43.6472842" lon="11.2689376"><ele>171.0</ele><time>2026-04-24T15:33:30.212Z</time></trkpt><trkpt lat="43.6472247" lon="11.2688738"><ele>170.66666666666666</ele><time>2026-04-24T15:33:33.212Z</time></trkpt><trkpt lat="43.6471886" lon="11.2687752"><ele>170.33333333333334</ele><time>2026-04-24T15:33:36.212Z</time></trkpt><trkpt lat="43.6471484" lon="11.268691"><ele>170.0</ele><time>2026-04-24T15:33:38.212Z</time></trkpt><trkpt lat="43.6470664" lon="11.2685996"><ele>169.66666666666669</ele><time>2026-04-24T15:33:40.212Z</time></trkpt><trkpt lat="43.6470057" lon="11.2685242"><ele>169.33333333333334</ele><time>2026-04-24T15:33:42.211Z</time></trkpt><trkpt lat="43.6469324" lon="11.2684279"><ele>169.0</ele><time>2026-04-24T15:33:44.212Z</time></trkpt><trkpt lat="43.646875" lon="11.2683681"><ele>170.66666666666669</ele><time>2026-04-24T15:33:46.212Z</time></trkpt><trkpt lat="43.6468052" lon="11.2682912"><ele>172.33333333333334</ele><time>2026-04-24T15:33:49.212Z</time></trkpt><trkpt lat="43.6467204" lon="11.2682989"><ele>174.0</ele><time>2026-04-24T15:33:52.211Z</time></trkpt><trkpt lat="43.6466808" lon="11.2684248"><ele>175.66666666666666</ele><time>2026-04-24T15:33:55.211Z</time></trkpt><trkpt lat="43.6466669" lon="11.2685107"><ele>177.33333333333331</ele><time>2026-04-24T15:34:15.212Z</time></trkpt><trkpt lat="43.6466112" lon="11.268559"><ele>179.0</ele><time>2026-04-24T15:34:49.212Z</time></trkpt><trkpt lat="43.6465512" lon="11.2686072"><ele>179.0</ele><time>2026-04-24T15:34:52.212Z</time></trkpt><trkpt lat="43.6464769" lon="11.2686928"><ele>179.0</ele><time>2026-04-24T15:34:55.211Z</time></trkpt><trkpt lat="43.6464297" lon="11.2687631"><ele>179.0</ele><time>2026-04-24T15:34:57.212Z</time></trkpt><trkpt lat="43.6463809" lon="11.2688395"><ele>179.0</ele><time>2026-04-24T15:34:59.212Z</time></trkpt><trkpt lat="43.6463365" lon="11.2689096"><ele>179.0</ele><time>2026-04-24T15:35:01.211Z</time></trkpt><trkpt lat="43.6462821" lon="11.2690035"><ele>179.0</ele><time>2026-04-24T15:35:04.212Z</time></trkpt><trkpt lat="43.6462383" lon="11.2690666"><ele>179.5</ele><time>2026-04-24T15:35:06.212Z</time></trkpt><trkpt lat="43.6461868" lon="11.2691735"><ele>180.0</ele><time>2026-04-24T15:35:09.212Z</time></trkpt><trkpt lat="43.6461123" lon="11.2692779"><ele>180.5</ele><time>2026-04-24T15:35:12.212Z</time></trkpt><trkpt lat="43.6460388" lon="11.2693509"><ele>181.0</ele><time>2026-04-24T15:35:14.211Z</time></trkpt><trkpt lat="43.6459641" lon="11.2693967"><ele>181.5</ele><time>2026-04-24T15:35:16.211Z</time></trkpt><trkpt lat="43.6458914" lon="11.2694252"><ele>182.0</ele><time>2026-04-24T15:35:18.212Z</time></trkpt><trkpt lat="43.6458114" lon="11.2694469"><ele>182.83333333333331</ele><time>2026-04-24T15:35:20.211Z</time></trkpt><trkpt lat="43.6457464" lon="11.2694841"><ele>183.66666666666666</ele><time>2026-04-24T15:35:22.212Z</time></trkpt><trkpt lat="43.6456804" lon="11.269542"><ele>184.5</ele><time>2026-04-24T15:35:24.212Z</time></trkpt><trkpt lat="43.6456071" lon="11.2696197"><ele>185.33333333333334</ele><time>2026-04-24T15:35:26.211Z</time></trkpt><trkpt lat="43.6455359" lon="11.2697379"><ele>186.16666666666669</ele><time>2026-04-24T15:35:28.212Z</time></trkpt><trkpt lat="43.645483" lon="11.269832"><ele>187.0</ele><time>2026-04-24T15:35:30.211Z</time></trkpt><trkpt lat="43.6454316" lon="11.269945"><ele>188.16666666666669</ele><time>2026-04-24T15:35:32.212Z</time></trkpt><trkpt lat="43.6453935" lon="11.2700234"><ele>189.33333333333334</ele><time>2026-04-24T15:35:34.212Z</time></trkpt><trkpt lat="43.645325" lon="11.2701066"><ele>190.5</ele><time>2026-04-24T15:35:37.212Z</time></trkpt><trkpt lat="43.6452632" lon="11.2701563"><ele>191.66666666666669</ele><time>2026-04-24T15:35:39.211Z</time></trkpt><trkpt lat="43.6451876" lon="11.2701971"><ele>192.83333333333334</ele><time>2026-04-24T15:35:41.211Z</time></trkpt><trkpt lat="43.6451184" lon="11.270236"><ele>194.0</ele><time>2026-04-24T15:35:43.212Z</time></trkpt><trkpt lat="43.6450415" lon="11.2702552"><ele>194.00000000000003</ele><time>2026-04-24T15:35:45.212Z</time></trkpt><trkpt lat="43.6449662" lon="11.2702695"><ele>194.0</ele><time>2026-04-24T15:35:49.212Z</time></trkpt><trkpt lat="43.6448972" lon="11.2702914"><ele>194.0</ele><time>2026-04-24T15:35:52.212Z</time></trkpt><trkpt lat="43.6448274" lon="11.2703232"><ele>194.0</ele><time>2026-04-24T15:35:54.211Z</time></trkpt><trkpt lat="43.6447475" lon="11.2703801"><ele>194.00000000000003</ele><time>2026-04-24T15:35:56.212Z</time></trkpt><trkpt lat="43.6446818" lon="11.2704429"><ele>194.0</ele><time>2026-04-24T15:35:58.212Z</time></trkpt><trkpt lat="43.6446336" lon="11.2705029"><ele>194.0</ele><time>2026-04-24T15:36:19.212Z</time></trkpt><trkpt lat="43.6446097" lon="11.2705908"><ele>194.0</ele><time>2026-04-24T15:36:26.212Z</time></trkpt><trkpt lat="43.6445521" lon="11.2705538"><ele>194.0</ele><time>2026-04-24T15:36:37.211Z</time></trkpt><trkpt lat="43.6445906" lon="11.2704661"><ele>194.0</ele><time>2026-04-24T15:37:10.238Z</time></trkpt><trkpt lat="43.6446582" lon="11.2704178"><ele>194.0</ele><time>2026-04-24T15:38:42.212Z</time></trkpt><trkpt lat="43.644713" lon="11.2703738"><ele>194.0</ele><time>2026-04-24T15:38:47.221Z</time></trkpt><trkpt lat="43.6447903" lon="11.2703239"><ele>194.0</ele><time>2026-04-24T15:39:17.212Z</time></trkpt><trkpt lat="43.6448506" lon="11.2702817"><ele>194.00000000000003</ele><time>2026-04-24T15:39:19.212Z</time></trkpt><trkpt lat="43.644925" lon="11.2702632"><ele>194.0</ele><time>2026-04-24T15:39:21.211Z</time></trkpt><trkpt lat="43.6450059" lon="11.2702316"><ele>194.0</ele><time>2026-04-24T15:39:24.212Z</time></trkpt><trkpt lat="43.6450836" lon="11.2702222"><ele>194.0</ele><time>2026-04-24T15:39:26.212Z</time></trkpt><trkpt lat="43.6451756" lon="11.2701944"><ele>194.00000000000003</ele><time>2026-04-24T15:39:28.211Z</time></trkpt><trkpt lat="43.6452503" lon="11.2701594"><ele>194.0</ele><time>2026-04-24T15:39:30.212Z</time></trkpt><trkpt lat="43.645326" lon="11.2701968"><ele>194.00000000000003</ele><time>2026-04-24T15:39:33.212Z</time></trkpt><trkpt lat="43.6453214" lon="11.270311"><ele>194.0</ele><time>2026-04-24T15:39:36.211Z</time></trkpt><trkpt lat="43.6452973" lon="11.2703929"><ele>194.0</ele><time>2026-04-24T15:39:37.212Z</time></trkpt><trkpt lat="43.6452529" lon="11.2705259"><ele>194.0</ele><time>2026-04-24T15:39:39.212Z</time></trkpt><trkpt lat="43.6451893" lon="11.2706568"><ele>194.00000000000003</ele><time>2026-04-24T15:39:41.212Z</time></trkpt><trkpt lat="43.6451568" lon="11.2707419"><ele>194.0</ele><time>2026-04-24T15:39:42.212Z</time></trkpt><trkpt lat="43.6451045" lon="11.2709094"><ele>195.14285714285714</ele><time>2026-04-24T15:39:44.211Z</time></trkpt><trkpt lat="43.6450822" lon="11.2710009"><ele>196.2857142857143</ele><time>2026-04-24T15:39:45.212Z</time></trkpt><trkpt lat="43.6450674" lon="11.2710897"><ele>197.42857142857144</ele><time>2026-04-24T15:39:46.212Z</time></trkpt><trkpt lat="43.6450473" lon="11.2711822"><ele>198.57142857142856</ele><time>2026-04-24T15:39:47.212Z</time></trkpt><trkpt lat="43.6450441" lon="11.2712779"><ele>199.71428571428572</ele><time>2026-04-24T15:39:48.212Z</time></trkpt><trkpt lat="43.6450306" lon="11.2713676"><ele>200.85714285714286</ele><time>2026-04-24T15:39:49.212Z</time></trkpt><trkpt lat="43.6450055" lon="11.2714988"><ele>202.0</ele><time>2026-04-24T15:39:51.212Z</time></trkpt><trkpt lat="43.644983" lon="11.2716495"><ele>202.99999999999997</ele><time>2026-04-24T15:39:53.212Z</time></trkpt><trkpt lat="43.6449416" lon="11.2717927"><ele>204.0</ele><time>2026-04-24T15:39:55.212Z</time></trkpt><trkpt lat="43.644912" lon="11.2718711"><ele>205.0</ele><time>2026-04-24T15:39:56.212Z</time></trkpt><trkpt lat="43.6448792" lon="11.2719478"><ele>206.0</ele><time>2026-04-24T15:39:57.212Z</time></trkpt><trkpt lat="43.644851" lon="11.2720312"><ele>206.99999999999997</ele><time>2026-04-24T15:39:58.211Z</time></trkpt><trkpt lat="43.6448224" lon="11.2721138"><ele>208.0</ele><time>2026-04-24T15:39:59.212Z</time></trkpt><trkpt lat="43.6447839" lon="11.2722636"><ele>209.8</ele><time>2026-04-24T15:40:01.212Z</time></trkpt><trkpt lat="43.6447361" lon="11.2723881"><ele>211.60000000000002</ele><time>2026-04-24T15:40:03.212Z</time></trkpt><trkpt lat="43.6447103" lon="11.2725014"><ele>213.39999999999998</ele><time>2026-04-24T15:40:05.211Z</time></trkpt><trkpt lat="43.6446689" lon="11.2726156"><ele>215.2</ele><time>2026-04-24T15:40:07.212Z</time></trkpt><trkpt lat="43.6446299" lon="11.2727378"><ele>217.0</ele><time>2026-04-24T15:40:09.212Z</time></trkpt><trkpt lat="43.6445812" lon="11.2728735"><ele>217.0</ele><time>2026-04-24T15:40:11.212Z</time></trkpt><trkpt lat="43.6445348" lon="11.2729966"><ele>217.0</ele><time>2026-04-24T15:40:13.211Z</time></trkpt><trkpt lat="43.6444806" lon="11.2731219"><ele>217.0</ele><time>2026-04-24T15:40:15.212Z</time></trkpt><trkpt lat="43.6444091" lon="11.2732308"><ele>217.0</ele><time>2026-04-24T15:40:17.211Z</time></trkpt><trkpt lat="43.6443306" lon="11.2733234"><ele>217.0</ele><time>2026-04-24T15:40:19.212Z</time></trkpt><trkpt lat="43.6442863" lon="11.2734105"><ele>219.0</ele><time>2026-04-24T15:40:21.212Z</time></trkpt><trkpt lat="43.6443085" lon="11.2735262"><ele>221.0</ele><time>2026-04-24T15:40:25.212Z</time></trkpt><trkpt lat="43.644283" lon="11.2736169"><ele>223.0</ele><time>2026-04-24T15:40:27.212Z</time></trkpt><trkpt lat="43.6442229" lon="11.2737584"><ele>225.0</ele><time>2026-04-24T15:40:29.212Z</time></trkpt><trkpt lat="43.6441845" lon="11.2738741"><ele>227.0</ele><time>2026-04-24T15:40:31.212Z</time></trkpt><trkpt lat="43.6441626" lon="11.273983"><ele>228.66666666666669</ele><time>2026-04-24T15:40:33.211Z</time></trkpt><trkpt lat="43.6441529" lon="11.2741112"><ele>230.33333333333334</ele><time>2026-04-24T15:40:36.211Z</time></trkpt><trkpt lat="43.644122" lon="11.2742151"><ele>232.0</ele><time>2026-04-24T15:40:38.212Z</time></trkpt><trkpt lat="43.6440915" lon="11.2743065"><ele>233.66666666666669</ele><time>2026-04-24T15:40:40.212Z</time></trkpt><trkpt lat="43.6440575" lon="11.2743848"><ele>235.33333333333334</ele><time>2026-04-24T15:40:43.212Z</time></trkpt><trkpt lat="43.6440244" lon="11.2744913"><ele>237.0</ele><time>2026-04-24T15:40:46.211Z</time></trkpt><trkpt lat="43.6440043" lon="11.2745748"><ele>237.0</ele><time>2026-04-24T15:40:48.212Z</time></trkpt><trkpt lat="43.6439658" lon="11.2746737"><ele>237.0</ele><time>2026-04-24T15:40:51.212Z</time></trkpt><trkpt lat="43.6439244" lon="11.2747844"><ele>237.0</ele><time>2026-04-24T15:40:54.211Z</time></trkpt><trkpt lat="43.6438828" lon="11.2748941"><ele>237.0</ele><time>2026-04-24T15:40:56.212Z</time></trkpt><trkpt lat="43.6438293" lon="11.2750262"><ele>237.0</ele><time>2026-04-24T15:40:58.212Z</time></trkpt><trkpt lat="43.6437822" lon="11.2751672"><ele>236.99999999999997</ele><time>2026-04-24T15:41:00.212Z</time></trkpt><trkpt lat="43.6437473" lon="11.2752636"><ele>237.0</ele><time>2026-04-24T15:41:03.212Z</time></trkpt><trkpt lat="43.6437092" lon="11.2753633"><ele>236.99999999999997</ele><time>2026-04-24T15:41:06.212Z</time></trkpt><trkpt lat="43.6436758" lon="11.2754471"><ele>236.99999999999997</ele><time>2026-04-24T15:41:09.212Z</time></trkpt><trkpt lat="43.6436318" lon="11.2755192"><ele>237.0</ele><time>2026-04-24T15:41:12.211Z</time></trkpt><trkpt lat="43.6435651" lon="11.2755931"><ele>236.99999999999997</ele><time>2026-04-24T15:41:15.212Z</time></trkpt><trkpt lat="43.6435171" lon="11.275653"><ele>236.99999999999997</ele><time>2026-04-24T15:41:17.212Z</time></trkpt><trkpt lat="43.6434755" lon="11.2757204"><ele>236.99999999999997</ele><time>2026-04-24T15:41:19.212Z</time></trkpt><trkpt lat="43.6434258" lon="11.2757913"><ele>237.0</ele><time>2026-04-24T15:41:22.212Z</time></trkpt><trkpt lat="43.643373" lon="11.2758559"><ele>236.99999999999997</ele><time>2026-04-24T15:41:30.212Z</time></trkpt><trkpt lat="43.6433477" lon="11.2759413"><ele>236.99999999999997</ele><time>2026-04-24T15:41:34.212Z</time></trkpt><trkpt lat="43.6433163" lon="11.2760388"><ele>237.0</ele><time>2026-04-24T15:41:40.211Z</time></trkpt><trkpt lat="43.6432763" lon="11.2761225"><ele>236.99999999999997</ele><time>2026-04-24T15:41:43.212Z</time></trkpt><trkpt lat="43.6432162" lon="11.276204"><ele>236.99999999999997</ele><time>2026-04-24T15:41:46.212Z</time></trkpt><trkpt lat="43.6431591" lon="11.2763052"><ele>237.0</ele><time>2026-04-24T15:41:49.212Z</time></trkpt><trkpt lat="43.6431155" lon="11.2763986"><ele>237.0</ele><time>2026-04-24T15:41:52.212Z</time></trkpt><trkpt lat="43.6430841" lon="11.2764835"><ele>237.0</ele><time>2026-04-24T15:41:58.212Z</time></trkpt><trkpt lat="43.6430208" lon="11.2765658"><ele>237.0</ele><time>2026-04-24T15:42:01.211Z</time></trkpt><trkpt lat="43.6429361" lon="11.2765967"><ele>237.0</ele><time>2026-04-24T15:42:04.212Z</time></trkpt><trkpt lat="43.6428795" lon="11.276646"><ele>237.0</ele><time>2026-04-24T15:42:08.212Z</time></trkpt><trkpt lat="43.6428195" lon="11.2766976"><ele>238.0</ele><time>2026-04-24T15:42:20.212Z</time></trkpt><trkpt lat="43.6427665" lon="11.2767572"><ele>239.0</ele><time>2026-04-24T15:42:25.212Z</time></trkpt><trkpt lat="43.6427326" lon="11.2768483"><ele>240.0</ele><time>2026-04-24T15:42:30.212Z</time></trkpt><trkpt lat="43.6427037" lon="11.2769441"><ele>241.0</ele><time>2026-04-24T15:42:35.211Z</time></trkpt><trkpt lat="43.6426649" lon="11.2770318"><ele>242.0</ele><time>2026-04-24T15:42:40.211Z</time></trkpt><trkpt lat="43.6426289" lon="11.2771276"><ele>243.0</ele><time>2026-04-24T15:42:43.212Z</time></trkpt><trkpt lat="43.6425813" lon="11.2772395"><ele>243.33333333333334</ele><time>2026-04-24T15:42:46.212Z</time></trkpt><trkpt lat="43.642537" lon="11.2773284"><ele>243.66666666666669</ele><time>2026-04-24T15:42:49.211Z</time></trkpt><trkpt lat="43.6425071" lon="11.2774092"><ele>244.0</ele><time>2026-04-24T15:42:51.212Z</time></trkpt><trkpt lat="43.6424637" lon="11.2775075"><ele>244.33333333333334</ele><time>2026-04-24T15:42:54.212Z</time></trkpt><trkpt lat="43.6424319" lon="11.2776042"><ele>244.66666666666669</ele><time>2026-04-24T15:42:57.211Z</time></trkpt><trkpt lat="43.6424118" lon="11.2777157"><ele>245.0</ele><time>2026-04-24T15:43:00.212Z</time></trkpt><trkpt lat="43.6423818" lon="11.277803"><ele>245.0</ele><time>2026-04-24T15:43:03.212Z</time></trkpt><trkpt lat="43.6423755" lon="11.277892"><ele>245.0</ele><time>2026-04-24T15:43:05.212Z</time></trkpt><trkpt lat="43.6423902" lon="11.2780067"><ele>245.0</ele><time>2026-04-24T15:43:09.212Z</time></trkpt><trkpt lat="43.6423732" lon="11.2780961"><ele>245.0</ele><time>2026-04-24T15:43:13.212Z</time></trkpt><trkpt lat="43.6423404" lon="11.2781901"><ele>245.0</ele><time>2026-04-24T15:43:16.212Z</time></trkpt><trkpt lat="43.6423043" lon="11.2782749"><ele>245.0</ele><time>2026-04-24T15:43:19.212Z</time></trkpt><trkpt lat="43.6422688" lon="11.2783472"><ele>245.0</ele><time>2026-04-24T15:43:22.212Z</time></trkpt><trkpt lat="43.6422267" lon="11.2784426"><ele>243.71428571428572</ele><time>2026-04-24T15:43:25.212Z</time></trkpt><trkpt lat="43.6421929" lon="11.2785281"><ele>242.42857142857144</ele><time>2026-04-24T15:43:29.212Z</time></trkpt><trkpt lat="43.6421701" lon="11.2786132"><ele>241.14285714285714</ele><time>2026-04-24T15:43:32.212Z</time></trkpt><trkpt lat="43.6421468" lon="11.2787061"><ele>239.85714285714286</ele><time>2026-04-24T15:43:36.212Z</time></trkpt><trkpt lat="43.642114" lon="11.2788022"><ele>238.57142857142858</ele><time>2026-04-24T15:43:41.212Z</time></trkpt><trkpt lat="43.6421021" lon="11.2789152"><ele>237.28571428571428</ele><time>2026-04-24T15:43:44.212Z</time></trkpt><trkpt lat="43.6421107" lon="11.2790191"><ele>236.0</ele><time>2026-04-24T15:43:46.212Z</time></trkpt><trkpt lat="43.6421418" lon="11.2791394"><ele>235.60000000000002</ele><time>2026-04-24T15:43:48.211Z</time></trkpt><trkpt lat="43.6421663" lon="11.2792658"><ele>235.20000000000002</ele><time>2026-04-24T15:43:50.212Z</time></trkpt><trkpt lat="43.6421911" lon="11.2793879"><ele>234.79999999999998</ele><time>2026-04-24T15:43:52.212Z</time></trkpt><trkpt lat="43.6422168" lon="11.2795241"><ele>234.39999999999998</ele><time>2026-04-24T15:43:54.212Z</time></trkpt><trkpt lat="43.6422446" lon="11.2796655"><ele>234.0</ele><time>2026-04-24T15:43:56.212Z</time></trkpt><trkpt lat="43.6422738" lon="11.2798095"><ele>234.0</ele><time>2026-04-24T15:43:58.212Z</time></trkpt><trkpt lat="43.642298" lon="11.2799538"><ele>233.99999999999997</ele><time>2026-04-24T15:44:00.212Z</time></trkpt><trkpt lat="43.6423167" lon="11.2800833"><ele>233.99999999999997</ele><time>2026-04-24T15:44:02.212Z</time></trkpt><trkpt lat="43.6423295" lon="11.2801952"><ele>234.0</ele><time>2026-04-24T15:44:04.212Z</time></trkpt><trkpt lat="43.6423569" lon="11.2803116"><ele>234.0</ele><time>2026-04-24T15:44:06.212Z</time></trkpt><trkpt lat="43.6423795" lon="11.280441"><ele>234.0</ele><time>2026-04-24T15:44:08.211Z</time></trkpt><trkpt lat="43.6423955" lon="11.2805583"><ele>234.0</ele><time>2026-04-24T15:44:10.212Z</time></trkpt><trkpt lat="43.6424203" lon="11.2806754"><ele>234.0</ele><time>2026-04-24T15:44:12.212Z</time></trkpt><trkpt lat="43.6424484" lon="11.280798"><ele>234.0</ele><time>2026-04-24T15:44:14.211Z</time></trkpt><trkpt lat="43.642465" lon="11.2809097"><ele>234.0</ele><time>2026-04-24T15:44:16.212Z</time></trkpt><trkpt lat="43.6424797" lon="11.2810061"><ele>234.0</ele><time>2026-04-24T15:44:18.212Z</time></trkpt><trkpt lat="43.6425016" lon="11.2810955"><ele>234.83333333333334</ele><time>2026-04-24T15:44:20.211Z</time></trkpt><trkpt lat="43.6425206" lon="11.2811808"><ele>235.66666666666669</ele><time>2026-04-24T15:44:22.212Z</time></trkpt><trkpt lat="43.642535" lon="11.2812717"><ele>236.5</ele><time>2026-04-24T15:44:24.212Z</time></trkpt><trkpt lat="43.6425479" lon="11.2813632"><ele>237.33333333333334</ele><time>2026-04-24T15:44:26.212Z</time></trkpt><trkpt lat="43.6425665" lon="11.2814618"><ele>238.16666666666669</ele><time>2026-04-24T15:44:28.212Z</time></trkpt><trkpt lat="43.6425913" lon="11.2815787"><ele>239.0</ele><time>2026-04-24T15:44:30.212Z</time></trkpt><trkpt lat="43.6426125" lon="11.2817102"><ele>240.16666666666669</ele><time>2026-04-24T15:44:32.211Z</time></trkpt><trkpt lat="43.6426281" lon="11.2818351"><ele>241.33333333333334</ele><time>2026-04-24T15:44:34.212Z</time></trkpt><trkpt lat="43.6426288" lon="11.281937"><ele>242.5</ele><time>2026-04-24T15:44:36.212Z</time></trkpt><trkpt lat="43.6426222" lon="11.2820421"><ele>243.66666666666669</ele><time>2026-04-24T15:44:38.212Z</time></trkpt><trkpt lat="43.6426098" lon="11.28215"><ele>244.83333333333334</ele><time>2026-04-24T15:44:40.212Z</time></trkpt><trkpt lat="43.6425872" lon="11.2822607"><ele>246.0</ele><time>2026-04-24T15:44:42.212Z</time></trkpt><trkpt lat="43.642521" lon="11.2823562"><ele>247.0</ele><time>2026-04-24T15:44:44.212Z</time></trkpt><trkpt lat="43.6424669" lon="11.2824513"><ele>248.00000000000003</ele><time>2026-04-24T15:44:46.212Z</time></trkpt><trkpt lat="43.6424029" lon="11.2825528"><ele>249.00000000000003</ele><time>2026-04-24T15:44:48.212Z</time></trkpt><trkpt lat="43.6423275" lon="11.2826488"><ele>250.0</ele><time>2026-04-24T15:44:50.212Z</time></trkpt><trkpt lat="43.6422445" lon="11.2827493"><ele>251.0</ele><time>2026-04-24T15:44:52.211Z</time></trkpt><trkpt lat="43.6421672" lon="11.2828562"><ele>251.0</ele><time>2026-04-24T15:44:54.212Z</time></trkpt><trkpt lat="43.6420951" lon="11.2829609"><ele>251.00000000000003</ele><time>2026-04-24T15:44:56.212Z</time></trkpt><trkpt lat="43.642025" lon="11.2830675"><ele>251.00000000000003</ele><time>2026-04-24T15:44:58.212Z</time></trkpt><trkpt lat="43.6419989" lon="11.2831995"><ele>251.0</ele><time>2026-04-24T15:45:00.212Z</time></trkpt><trkpt lat="43.6419975" lon="11.2833412"><ele>251.0</ele><time>2026-04-24T15:45:02.212Z</time></trkpt><trkpt lat="43.6420006" lon="11.2834835"><ele>251.20000000000002</ele><time>2026-04-24T15:45:04.212Z</time></trkpt><trkpt lat="43.6420073" lon="11.2836349"><ele>251.40000000000003</ele><time>2026-04-24T15:45:06.212Z</time></trkpt><trkpt lat="43.6420169" lon="11.2837918"><ele>251.6</ele><time>2026-04-24T15:45:08.211Z</time></trkpt><trkpt lat="43.6420271" lon="11.2839504"><ele>251.8</ele><time>2026-04-24T15:45:10.212Z</time></trkpt><trkpt lat="43.6420298" lon="11.2840401"><ele>252.0</ele><time>2026-04-24T15:45:11.212Z</time></trkpt><trkpt lat="43.6420288" lon="11.2841871"><ele>251.0</ele><time>2026-04-24T15:45:13.212Z</time></trkpt><trkpt lat="43.6420254" lon="11.2843107"><ele>250.0</ele><time>2026-04-24T15:45:23.212Z</time></trkpt><trkpt lat="43.6420194" lon="11.2844227"><ele>249.0</ele><time>2026-04-24T15:45:25.212Z</time></trkpt><trkpt lat="43.6420025" lon="11.2845744"><ele>248.0</ele><time>2026-04-24T15:45:27.212Z</time></trkpt><trkpt lat="43.6419889" lon="11.28471"><ele>247.0</ele><time>2026-04-24T15:45:29.212Z</time></trkpt><trkpt lat="43.6419719" lon="11.2848397"><ele>246.75</ele><time>2026-04-24T15:45:31.212Z</time></trkpt><trkpt lat="43.641959" lon="11.284996"><ele>246.5</ele><time>2026-04-24T15:45:33.212Z</time></trkpt><trkpt lat="43.6419592" lon="11.2851634"><ele>246.25</ele><time>2026-04-24T15:45:35.212Z</time></trkpt><trkpt lat="43.6419739" lon="11.2853237"><ele>246.0</ele><time>2026-04-24T15:45:37.212Z</time></trkpt><trkpt lat="43.6419931" lon="11.2854932"><ele>246.00000000000003</ele><time>2026-04-24T15:45:39.211Z</time></trkpt><trkpt lat="43.6419983" lon="11.2855843"><ele>246.0</ele><time>2026-04-24T15:45:40.212Z</time></trkpt><trkpt lat="43.6420092" lon="11.2856722"><ele>246.00000000000003</ele><time>2026-04-24T15:45:41.211Z</time></trkpt><trkpt lat="43.6420162" lon="11.28576"><ele>246.00000000000003</ele><time>2026-04-24T15:45:42.212Z</time></trkpt><trkpt lat="43.6420287" lon="11.2858502"><ele>246.0</ele><time>2026-04-24T15:45:43.212Z</time></trkpt><trkpt lat="43.6420405" lon="11.2859422"><ele>246.00000000000003</ele><time>2026-04-24T15:45:44.212Z</time></trkpt><trkpt lat="43.6420497" lon="11.2860314"><ele>246.00000000000003</ele><time>2026-04-24T15:45:45.212Z</time></trkpt><trkpt lat="43.642059" lon="11.2861218"><ele>246.5714285714286</ele><time>2026-04-24T15:45:46.211Z</time></trkpt><trkpt lat="43.6420688" lon="11.2862134"><ele>247.14285714285717</ele><time>2026-04-24T15:45:47.212Z</time></trkpt><trkpt lat="43.6420833" lon="11.2863072"><ele>247.71428571428572</ele><time>2026-04-24T15:45:48.212Z</time></trkpt><trkpt lat="43.642095" lon="11.2863963"><ele>248.2857142857143</ele><time>2026-04-24T15:45:49.212Z</time></trkpt><trkpt lat="43.6421086" lon="11.2864915"><ele>248.8571428571429</ele><time>2026-04-24T15:45:50.212Z</time></trkpt><trkpt lat="43.6421229" lon="11.286582"><ele>249.42857142857142</ele><time>2026-04-24T15:45:51.212Z</time></trkpt><trkpt lat="43.6421345" lon="11.2866721"><ele>250.0</ele><time>2026-04-24T15:45:52.211Z</time></trkpt><trkpt lat="43.6421477" lon="11.2867641"><ele>250.42857142857142</ele><time>2026-04-24T15:45:53.211Z</time></trkpt><trkpt lat="43.642171" lon="11.2868638"><ele>250.8571428571429</ele><time>2026-04-24T15:45:54.211Z</time></trkpt><trkpt lat="43.6421832" lon="11.2869546"><ele>251.2857142857143</ele><time>2026-04-24T15:45:55.212Z</time></trkpt><trkpt lat="43.6421952" lon="11.2870444"><ele>251.71428571428572</ele><time>2026-04-24T15:45:56.211Z</time></trkpt><trkpt lat="43.6422081" lon="11.2871355"><ele>252.14285714285717</ele><time>2026-04-24T15:45:57.211Z</time></trkpt><trkpt lat="43.6422213" lon="11.2872245"><ele>252.5714285714286</ele><time>2026-04-24T15:45:58.212Z</time></trkpt><trkpt lat="43.642234" lon="11.2873127"><ele>253.00000000000003</ele><time>2026-04-24T15:45:59.212Z</time></trkpt><trkpt lat="43.6422465" lon="11.2874042"><ele>253.33333333333331</ele><time>2026-04-24T15:46:00.212Z</time></trkpt><trkpt lat="43.6422597" lon="11.2874949"><ele>253.66666666666666</ele><time>2026-04-24T15:46:01.212Z</time></trkpt><trkpt lat="43.6422689" lon="11.2875828"><ele>254.0</ele><time>2026-04-24T15:46:02.212Z</time></trkpt><trkpt lat="43.6422805" lon="11.2876776"><ele>254.33333333333331</ele><time>2026-04-24T15:46:03.211Z</time></trkpt><trkpt lat="43.6422931" lon="11.2877654"><ele>254.66666666666666</ele><time>2026-04-24T15:46:04.212Z</time></trkpt><trkpt lat="43.6423068" lon="11.2878515"><ele>255.0</ele><time>2026-04-24T15:46:05.212Z</time></trkpt><trkpt lat="43.6423319" lon="11.2880259"><ele>255.71428571428572</ele><time>2026-04-24T15:46:07.212Z</time></trkpt><trkpt lat="43.6423433" lon="11.2881222"><ele>256.42857142857144</ele><time>2026-04-24T15:46:08.212Z</time></trkpt><trkpt lat="43.6423553" lon="11.2882166"><ele>257.14285714285717</ele><time>2026-04-24T15:46:09.212Z</time></trkpt><trkpt lat="43.642368" lon="11.2883027"><ele>257.8571428571429</ele><time>2026-04-24T15:46:10.212Z</time></trkpt><trkpt lat="43.6423814" lon="11.2883944"><ele>258.57142857142856</ele><time>2026-04-24T15:46:11.212Z</time></trkpt><trkpt lat="43.6423924" lon="11.2884958"><ele>259.28571428571433</ele><time>2026-04-24T15:46:12.212Z</time></trkpt><trkpt lat="43.6424045" lon="11.2885901"><ele>260.0</ele><time>2026-04-24T15:46:13.211Z</time></trkpt><trkpt lat="43.6424172" lon="11.2886927"><ele>260.00000000000006</ele><time>2026-04-24T15:46:14.212Z</time></trkpt><trkpt lat="43.6424323" lon="11.2887869"><ele>260.0</ele><time>2026-04-24T15:46:15.212Z</time></trkpt><trkpt lat="43.6424449" lon="11.2888795"><ele>260.0</ele><time>2026-04-24T15:46:16.212Z</time></trkpt><trkpt lat="43.642459" lon="11.2889812"><ele>260.0</ele><time>2026-04-24T15:46:17.212Z</time></trkpt><trkpt lat="43.6424726" lon="11.2890775"><ele>260.0</ele><time>2026-04-24T15:46:18.211Z</time></trkpt><trkpt lat="43.6424847" lon="11.2891753"><ele>260.00000000000006</ele><time>2026-04-24T15:46:19.212Z</time></trkpt><trkpt lat="43.6424957" lon="11.2892715"><ele>260.0</ele><time>2026-04-24T15:46:20.212Z</time></trkpt><trkpt lat="43.6425109" lon="11.2893674"><ele>260.5714285714286</ele><time>2026-04-24T15:46:21.212Z</time></trkpt><trkpt lat="43.6425193" lon="11.2894659"><ele>261.14285714285717</ele><time>2026-04-24T15:46:22.211Z</time></trkpt><trkpt lat="43.6425326" lon="11.2895616"><ele>261.7142857142857</ele><time>2026-04-24T15:46:23.212Z</time></trkpt><trkpt lat="43.6425431" lon="11.2896549"><ele>262.28571428571433</ele><time>2026-04-24T15:46:24.212Z</time></trkpt><trkpt lat="43.6425555" lon="11.28975"><ele>262.8571428571429</ele><time>2026-04-24T15:46:25.212Z</time></trkpt><trkpt lat="43.6425687" lon="11.2898421"><ele>263.42857142857144</ele><time>2026-04-24T15:46:26.212Z</time></trkpt><trkpt lat="43.6425839" lon="11.2899363"><ele>264.0</ele><time>2026-04-24T15:46:27.212Z</time></trkpt><trkpt lat="43.6426092" lon="11.2901059"><ele>264.59999999999997</ele><time>2026-04-24T15:46:29.211Z</time></trkpt><trkpt lat="43.6426281" lon="11.2902712"><ele>265.2</ele><time>2026-04-24T15:46:31.212Z</time></trkpt><trkpt lat="43.6426675" lon="11.2904215"><ele>265.79999999999995</ele><time>2026-04-24T15:46:33.211Z</time></trkpt><trkpt lat="43.6427164" lon="11.2905793"><ele>266.4</ele><time>2026-04-24T15:46:35.212Z</time></trkpt><trkpt lat="43.6427498" lon="11.2906609"><ele>267.0</ele><time>2026-04-24T15:46:36.212Z</time></trkpt><trkpt lat="43.6427799" lon="11.2907442"><ele>266.42857142857144</ele><time>2026-04-24T15:46:37.212Z</time></trkpt><trkpt lat="43.6428115" lon="11.290834"><ele>265.8571428571429</ele><time>2026-04-24T15:46:38.212Z</time></trkpt><trkpt lat="43.6428472" lon="11.2909167"><ele>265.2857142857143</ele><time>2026-04-24T15:46:39.212Z</time></trkpt><trkpt lat="43.6428783" lon="11.2910012"><ele>264.7142857142857</ele><time>2026-04-24T15:46:40.212Z</time></trkpt><trkpt lat="43.6429129" lon="11.2910907"><ele>264.1428571428571</ele><time>2026-04-24T15:46:41.212Z</time></trkpt><trkpt lat="43.6429464" lon="11.2911858"><ele>263.57142857142856</ele><time>2026-04-24T15:46:42.212Z</time></trkpt><trkpt lat="43.6429807" lon="11.2912784"><ele>263.0</ele><time>2026-04-24T15:46:43.212Z</time></trkpt><trkpt lat="43.6430183" lon="11.2913686"><ele>264.2857142857143</ele><time>2026-04-24T15:46:44.212Z</time></trkpt><trkpt lat="43.643058" lon="11.2914547"><ele>265.57142857142856</ele><time>2026-04-24T15:46:45.212Z</time></trkpt><trkpt lat="43.643111" lon="11.2915339"><ele>266.85714285714283</ele><time>2026-04-24T15:46:46.212Z</time></trkpt><trkpt lat="43.6431623" lon="11.2916056"><ele>268.1428571428571</ele><time>2026-04-24T15:46:47.212Z</time></trkpt><trkpt lat="43.6432161" lon="11.2916743"><ele>269.42857142857144</ele><time>2026-04-24T15:46:48.212Z</time></trkpt><trkpt lat="43.6432664" lon="11.2917417"><ele>270.71428571428567</ele><time>2026-04-24T15:46:49.212Z</time></trkpt><trkpt lat="43.6433176" lon="11.291816"><ele>272.0</ele><time>2026-04-24T15:46:50.212Z</time></trkpt><trkpt lat="43.643368" lon="11.291882"><ele>271.99999999999994</ele><time>2026-04-24T15:46:51.212Z</time></trkpt><trkpt lat="43.6434162" lon="11.2919499"><ele>272.0</ele><time>2026-04-24T15:46:52.212Z</time></trkpt><trkpt lat="43.6434667" lon="11.2920131"><ele>272.0</ele><time>2026-04-24T15:46:53.212Z</time></trkpt><trkpt lat="43.6435117" lon="11.2920813"><ele>272.0</ele><time>2026-04-24T15:46:54.212Z</time></trkpt><trkpt lat="43.6435593" lon="11.292148"><ele>272.0</ele><time>2026-04-24T15:46:55.212Z</time></trkpt><trkpt lat="43.6436078" lon="11.2922111"><ele>271.99999999999994</ele><time>2026-04-24T15:46:56.212Z</time></trkpt><trkpt lat="43.6436609" lon="11.2922668"><ele>272.0</ele><time>2026-04-24T15:46:57.212Z</time></trkpt><trkpt lat="43.6437272" lon="11.2923141"><ele>272.33333333333337</ele><time>2026-04-24T15:46:58.212Z</time></trkpt><trkpt lat="43.6437965" lon="11.2923669"><ele>272.6666666666667</ele><time>2026-04-24T15:46:59.212Z</time></trkpt><trkpt lat="43.6438672" lon="11.2924111"><ele>273.0</ele><time>2026-04-24T15:47:00.212Z</time></trkpt><trkpt lat="43.6439353" lon="11.2924513"><ele>273.3333333333333</ele><time>2026-04-24T15:47:01.212Z</time></trkpt><trkpt lat="43.6440074" lon="11.2924931"><ele>273.66666666666663</ele><time>2026-04-24T15:47:02.211Z</time></trkpt><trkpt lat="43.6440771" lon="11.29253"><ele>274.0</ele><time>2026-04-24T15:47:03.212Z</time></trkpt><trkpt lat="43.6441464" lon="11.2925551"><ele>274.00000000000006</ele><time>2026-04-24T15:47:04.211Z</time></trkpt><trkpt lat="43.6442125" lon="11.292583"><ele>274.0</ele><time>2026-04-24T15:47:05.212Z</time></trkpt><trkpt lat="43.6442763" lon="11.2926135"><ele>274.0</ele><time>2026-04-24T15:47:06.211Z</time></trkpt><trkpt lat="43.6443433" lon="11.2926394"><ele>274.0</ele><time>2026-04-24T15:47:07.212Z</time></trkpt><trkpt lat="43.6444081" lon="11.2926667"><ele>274.0</ele><time>2026-04-24T15:47:08.211Z</time></trkpt><trkpt lat="43.6444735" lon="11.2926941"><ele>274.00000000000006</ele><time>2026-04-24T15:47:09.212Z</time></trkpt><trkpt lat="43.6445405" lon="11.2927175"><ele>274.0</ele><time>2026-04-24T15:47:10.212Z</time></trkpt><trkpt lat="43.6446641" lon="11.2927542"><ele>273.66666666666663</ele><time>2026-04-24T15:47:12.212Z</time></trkpt><trkpt lat="43.6447849" lon="11.2927811"><ele>273.3333333333333</ele><time>2026-04-24T15:47:14.212Z</time></trkpt><trkpt lat="43.6448511" lon="11.2928025"><ele>273.0</ele><time>2026-04-24T15:47:15.212Z</time></trkpt><trkpt lat="43.644925" lon="11.2928288"><ele>272.6666666666667</ele><time>2026-04-24T15:47:16.212Z</time></trkpt><trkpt lat="43.6450068" lon="11.2928604"><ele>272.33333333333337</ele><time>2026-04-24T15:47:17.212Z</time></trkpt><trkpt lat="43.6450751" lon="11.2929097"><ele>272.0</ele><time>2026-04-24T15:47:18.212Z</time></trkpt><trkpt lat="43.645141" lon="11.292944"><ele>272.0</ele><time>2026-04-24T15:47:19.212Z</time></trkpt><trkpt lat="43.6452028" lon="11.2929794"><ele>272.0</ele><time>2026-04-24T15:47:20.211Z</time></trkpt><trkpt lat="43.6452615" lon="11.2930261"><ele>272.0</ele><time>2026-04-24T15:47:21.212Z</time></trkpt><trkpt lat="43.6453216" lon="11.2930633"><ele>272.0</ele><time>2026-04-24T15:47:22.212Z</time></trkpt><trkpt lat="43.6453837" lon="11.2931061"><ele>272.0</ele><time>2026-04-24T15:47:23.212Z</time></trkpt><trkpt lat="43.6454765" lon="11.2932142"><ele>272.0</ele><time>2026-04-24T15:47:25.211Z</time></trkpt><trkpt lat="43.6455724" lon="11.2933223"><ele>272.0</ele><time>2026-04-24T15:47:27.212Z</time></trkpt><trkpt lat="43.6456306" lon="11.2933799"><ele>272.0</ele><time>2026-04-24T15:47:28.212Z</time></trkpt><trkpt lat="43.6456794" lon="11.2934379"><ele>272.0</ele><time>2026-04-24T15:47:29.212Z</time></trkpt><trkpt lat="43.6457277" lon="11.2935018"><ele>272.0</ele><time>2026-04-24T15:47:30.212Z</time></trkpt><trkpt lat="43.6458173" lon="11.2936342"><ele>272.0</ele><time>2026-04-24T15:47:32.212Z</time></trkpt><trkpt lat="43.6459056" lon="11.2937581"><ele>272.0</ele><time>2026-04-24T15:47:34.211Z</time></trkpt><trkpt lat="43.6459469" lon="11.2938244"><ele>272.0</ele><time>2026-04-24T15:47:35.211Z</time></trkpt><trkpt lat="43.6459866" lon="11.2938951"><ele>272.0</ele><time>2026-04-24T15:47:36.212Z</time></trkpt><trkpt lat="43.6460599" lon="11.2940095"><ele>272.0</ele><time>2026-04-24T15:47:38.212Z</time></trkpt><trkpt lat="43.6461517" lon="11.2941258"><ele>272.0</ele><time>2026-04-24T15:47:40.212Z</time></trkpt><trkpt lat="43.646246" lon="11.2942303"><ele>270.8</ele><time>2026-04-24T15:47:42.211Z</time></trkpt><trkpt lat="43.6463552" lon="11.294285"><ele>269.6</ele><time>2026-04-24T15:47:44.212Z</time></trkpt><trkpt lat="43.6464164" lon="11.2943084"><ele>268.40000000000003</ele><time>2026-04-24T15:47:45.212Z</time></trkpt><trkpt lat="43.646548" lon="11.2943178"><ele>267.2</ele><time>2026-04-24T15:47:47.212Z</time></trkpt><trkpt lat="43.6466132" lon="11.2943203"><ele>266.0</ele><time>2026-04-24T15:47:48.212Z</time></trkpt><trkpt lat="43.6467258" lon="11.2943203"><ele>266.0</ele><time>2026-04-24T15:47:50.211Z</time></trkpt><trkpt lat="43.6468459" lon="11.2943422"><ele>266.0</ele><time>2026-04-24T15:47:52.212Z</time></trkpt><trkpt lat="43.6469154" lon="11.2943482"><ele>266.0</ele><time>2026-04-24T15:47:53.212Z</time></trkpt><trkpt lat="43.6469834" lon="11.2943528"><ele>266.0</ele><time>2026-04-24T15:47:54.212Z</time></trkpt><trkpt lat="43.6470457" lon="11.2943401"><ele>266.0</ele><time>2026-04-24T15:47:55.211Z</time></trkpt><trkpt lat="43.6471623" lon="11.294354"><ele>266.0</ele><time>2026-04-24T15:47:57.211Z</time></trkpt><trkpt lat="43.6471881" lon="11.2944576"><ele>265.6</ele><time>2026-04-24T15:48:08.211Z</time></trkpt><trkpt lat="43.6471581" lon="11.2945407"><ele>265.20000000000005</ele><time>2026-04-24T15:48:10.211Z</time></trkpt><trkpt lat="43.6470971" lon="11.2946439"><ele>264.79999999999995</ele><time>2026-04-24T15:48:12.212Z</time></trkpt><trkpt lat="43.6470589" lon="11.2947539"><ele>264.4</ele><time>2026-04-24T15:48:14.212Z</time></trkpt><trkpt lat="43.6470173" lon="11.2948761"><ele>264.0</ele><time>2026-04-24T15:48:16.212Z</time></trkpt><trkpt lat="43.6469711" lon="11.2950083"><ele>265.5</ele><time>2026-04-24T15:48:18.212Z</time></trkpt><trkpt lat="43.6469154" lon="11.2951654"><ele>267.0</ele><time>2026-04-24T15:48:20.211Z</time></trkpt><trkpt lat="43.6468867" lon="11.2952495"><ele>268.5</ele><time>2026-04-24T15:48:21.212Z</time></trkpt><trkpt lat="43.6468568" lon="11.2953309"><ele>270.0</ele><time>2026-04-24T15:48:22.212Z</time></trkpt><trkpt lat="43.6468295" lon="11.2954163"><ele>271.5</ele><time>2026-04-24T15:48:23.211Z</time></trkpt><trkpt lat="43.6468014" lon="11.2955"><ele>273.0</ele><time>2026-04-24T15:48:24.212Z</time></trkpt><trkpt lat="43.6467488" lon="11.2956472"><ele>274.0</ele><time>2026-04-24T15:48:26.212Z</time></trkpt><trkpt lat="43.646698" lon="11.2957987"><ele>275.0</ele><time>2026-04-24T15:48:28.211Z</time></trkpt><trkpt lat="43.6466623" lon="11.2959192"><ele>276.0</ele><time>2026-04-24T15:48:30.212Z</time></trkpt><trkpt lat="43.6466228" lon="11.2960618"><ele>277.0</ele><time>2026-04-24T15:48:32.212Z</time></trkpt><trkpt lat="43.6465919" lon="11.2961384"><ele>278.0</ele><time>2026-04-24T15:48:33.211Z</time></trkpt><trkpt lat="43.6465482" lon="11.2962789"><ele>278.0</ele><time>2026-04-24T15:48:35.212Z</time></trkpt><trkpt lat="43.646486" lon="11.296419"><ele>278.0</ele><time>2026-04-24T15:48:37.212Z</time></trkpt><trkpt lat="43.64644" lon="11.2964791"><ele>278.0</ele><time>2026-04-24T15:48:38.212Z</time></trkpt><trkpt lat="43.6463847" lon="11.2965374"><ele>278.0</ele><time>2026-04-24T15:48:39.212Z</time></trkpt><trkpt lat="43.6462784" lon="11.2966346"><ele>278.0</ele><time>2026-04-24T15:48:41.212Z</time></trkpt><trkpt lat="43.6462197" lon="11.296686"><ele>278.0</ele><time>2026-04-24T15:48:42.212Z</time></trkpt><trkpt lat="43.6461687" lon="11.2967391"><ele>278.85714285714283</ele><time>2026-04-24T15:48:43.212Z</time></trkpt><trkpt lat="43.6461133" lon="11.2967884"><ele>279.7142857142857</ele><time>2026-04-24T15:48:44.212Z</time></trkpt><trkpt lat="43.6460613" lon="11.2968421"><ele>280.57142857142856</ele><time>2026-04-24T15:48:45.212Z</time></trkpt><trkpt lat="43.6460093" lon="11.2969063"><ele>281.42857142857144</ele><time>2026-04-24T15:48:46.212Z</time></trkpt><trkpt lat="43.645963" lon="11.2969791"><ele>282.2857142857143</ele><time>2026-04-24T15:48:47.211Z</time></trkpt><trkpt lat="43.6459226" lon="11.2970566"><ele>283.1428571428571</ele><time>2026-04-24T15:48:48.212Z</time></trkpt><trkpt lat="43.6458851" lon="11.2971276"><ele>284.0</ele><time>2026-04-24T15:48:49.212Z</time></trkpt><trkpt lat="43.6458481" lon="11.2972105"><ele>282.7142857142857</ele><time>2026-04-24T15:48:50.211Z</time></trkpt><trkpt lat="43.6458066" lon="11.2973008"><ele>281.4285714285714</ele><time>2026-04-24T15:48:51.211Z</time></trkpt><trkpt lat="43.6457754" lon="11.2973858"><ele>280.1428571428571</ele><time>2026-04-24T15:48:52.212Z</time></trkpt><trkpt lat="43.6457432" lon="11.2974728"><ele>278.85714285714283</ele><time>2026-04-24T15:48:53.212Z</time></trkpt><trkpt lat="43.6457099" lon="11.2975555"><ele>277.57142857142856</ele><time>2026-04-24T15:48:54.211Z</time></trkpt><trkpt lat="43.6456748" lon="11.2976358"><ele>276.2857142857143</ele><time>2026-04-24T15:48:55.212Z</time></trkpt><trkpt lat="43.6456327" lon="11.2977109"><ele>275.0</ele><time>2026-04-24T15:48:56.212Z</time></trkpt><trkpt lat="43.6455907" lon="11.2977988"><ele>275.0</ele><time>2026-04-24T15:48:57.211Z</time></trkpt><trkpt lat="43.6455609" lon="11.2978832"><ele>275.0</ele><time>2026-04-24T15:48:58.212Z</time></trkpt><trkpt lat="43.6455259" lon="11.2979615"><ele>275.0</ele><time>2026-04-24T15:48:59.212Z</time></trkpt><trkpt lat="43.6454903" lon="11.2980381"><ele>275.0</ele><time>2026-04-24T15:49:00.212Z</time></trkpt><trkpt lat="43.645452" lon="11.2981093"><ele>275.0</ele><time>2026-04-24T15:49:01.212Z</time></trkpt><trkpt lat="43.645419" lon="11.2981856"><ele>275.0</ele><time>2026-04-24T15:49:02.212Z</time></trkpt><trkpt lat="43.6453823" lon="11.2982647"><ele>275.0</ele><time>2026-04-24T15:49:03.212Z</time></trkpt><trkpt lat="43.6453444" lon="11.2983449"><ele>275.1666666666667</ele><time>2026-04-24T15:49:04.212Z</time></trkpt><trkpt lat="43.6453027" lon="11.2984214"><ele>275.33333333333337</ele><time>2026-04-24T15:49:05.212Z</time></trkpt><trkpt lat="43.6452634" lon="11.2984905"><ele>275.5</ele><time>2026-04-24T15:49:06.212Z</time></trkpt><trkpt lat="43.6451983" lon="11.2986416"><ele>275.6666666666667</ele><time>2026-04-24T15:49:08.212Z</time></trkpt><trkpt lat="43.6451681" lon="11.2987218"><ele>275.8333333333333</ele><time>2026-04-24T15:49:09.212Z</time></trkpt><trkpt lat="43.6451195" lon="11.2988645"><ele>276.0</ele><time>2026-04-24T15:49:11.212Z</time></trkpt><trkpt lat="43.64508" lon="11.298994"><ele>275.6</ele><time>2026-04-24T15:49:13.212Z</time></trkpt><trkpt lat="43.6450462" lon="11.299121"><ele>275.20000000000005</ele><time>2026-04-24T15:49:15.212Z</time></trkpt><trkpt lat="43.6450284" lon="11.2992482"><ele>274.79999999999995</ele><time>2026-04-24T15:49:17.212Z</time></trkpt><trkpt lat="43.6450213" lon="11.2993773"><ele>274.4</ele><time>2026-04-24T15:49:19.212Z</time></trkpt><trkpt lat="43.6450318" lon="11.2995091"><ele>274.0</ele><time>2026-04-24T15:49:21.212Z</time></trkpt><trkpt lat="43.6450652" lon="11.2996456"><ele>274.4</ele><time>2026-04-24T15:49:23.212Z</time></trkpt><trkpt lat="43.6451071" lon="11.2997943"><ele>274.79999999999995</ele><time>2026-04-24T15:49:25.212Z</time></trkpt><trkpt lat="43.6451567" lon="11.2999336"><ele>275.20000000000005</ele><time>2026-04-24T15:49:27.212Z</time></trkpt><trkpt lat="43.6452163" lon="11.30006"><ele>275.6</ele><time>2026-04-24T15:49:29.212Z</time></trkpt><trkpt lat="43.645285" lon="11.3001828"><ele>276.0</ele><time>2026-04-24T15:49:31.211Z</time></trkpt><trkpt lat="43.6453568" lon="11.3003126"><ele>274.25</ele><time>2026-04-24T15:49:33.212Z</time></trkpt><trkpt lat="43.6454233" lon="11.3004464"><ele>272.5</ele><time>2026-04-24T15:49:35.212Z</time></trkpt><trkpt lat="43.6454938" lon="11.3005697"><ele>270.75</ele><time>2026-04-24T15:49:37.211Z</time></trkpt><trkpt lat="43.645562" lon="11.3007053"><ele>269.0</ele><time>2026-04-24T15:49:39.212Z</time></trkpt><trkpt lat="43.6456213" lon="11.3008429"><ele>269.0</ele><time>2026-04-24T15:49:41.212Z</time></trkpt><trkpt lat="43.6456737" lon="11.3009653"><ele>269.0</ele><time>2026-04-24T15:49:43.212Z</time></trkpt><trkpt lat="43.6457066" lon="11.3010848"><ele>269.0</ele><time>2026-04-24T15:49:45.212Z</time></trkpt><trkpt lat="43.6457373" lon="11.3012202"><ele>269.0</ele><time>2026-04-24T15:49:47.212Z</time></trkpt><trkpt lat="43.6457586" lon="11.3013749"><ele>269.0</ele><time>2026-04-24T15:49:49.212Z</time></trkpt><trkpt lat="43.645783" lon="11.3015338"><ele>268.59999999999997</ele><time>2026-04-24T15:49:51.212Z</time></trkpt><trkpt lat="43.6458104" lon="11.3016858"><ele>268.2</ele><time>2026-04-24T15:49:53.212Z</time></trkpt><trkpt lat="43.645833" lon="11.3018335"><ele>267.79999999999995</ele><time>2026-04-24T15:49:55.212Z</time></trkpt><trkpt lat="43.6458559" lon="11.3019988"><ele>267.4</ele><time>2026-04-24T15:49:57.212Z</time></trkpt><trkpt lat="43.6458645" lon="11.3021424"><ele>267.0</ele><time>2026-04-24T15:49:59.212Z</time></trkpt><trkpt lat="43.6458722" lon="11.3023058"><ele>266.25</ele><time>2026-04-24T15:50:01.212Z</time></trkpt><trkpt lat="43.6458764" lon="11.3024641"><ele>265.5</ele><time>2026-04-24T15:50:03.211Z</time></trkpt><trkpt lat="43.6458699" lon="11.3026285"><ele>264.75</ele><time>2026-04-24T15:50:05.212Z</time></trkpt><trkpt lat="43.6458722" lon="11.3028001"><ele>264.0</ele><time>2026-04-24T15:50:07.212Z</time></trkpt><trkpt lat="43.6458727" lon="11.3029744"><ele>263.0</ele><time>2026-04-24T15:50:09.212Z</time></trkpt><trkpt lat="43.6458735" lon="11.3031454"><ele>262.0</ele><time>2026-04-24T15:50:11.212Z</time></trkpt><trkpt lat="43.6458762" lon="11.3032355"><ele>261.0</ele><time>2026-04-24T15:50:12.212Z</time></trkpt><trkpt lat="43.6458815" lon="11.3033264"><ele>260.0</ele><time>2026-04-24T15:50:13.212Z</time></trkpt><trkpt lat="43.6458844" lon="11.3034174"><ele>259.0</ele><time>2026-04-24T15:50:14.212Z</time></trkpt><trkpt lat="43.6458833" lon="11.3035116"><ele>258.0</ele><time>2026-04-24T15:50:15.212Z</time></trkpt><trkpt lat="43.6458806" lon="11.3036642"><ele>258.0</ele><time>2026-04-24T15:50:17.212Z</time></trkpt><trkpt lat="43.6458738" lon="11.3038205"><ele>258.0</ele><time>2026-04-24T15:50:19.212Z</time></trkpt><trkpt lat="43.6458701" lon="11.303964"><ele>258.0</ele><time>2026-04-24T15:50:21.212Z</time></trkpt><trkpt lat="43.6458731" lon="11.3041098"><ele>258.0</ele><time>2026-04-24T15:50:23.212Z</time></trkpt><trkpt lat="43.6458806" lon="11.3042674"><ele>258.0</ele><time>2026-04-24T15:50:25.212Z</time></trkpt><trkpt lat="43.6458819" lon="11.3044295"><ele>257.8</ele><time>2026-04-24T15:50:27.212Z</time></trkpt><trkpt lat="43.6458827" lon="11.3045922"><ele>257.6</ele><time>2026-04-24T15:50:29.211Z</time></trkpt><trkpt lat="43.645886" lon="11.3047535"><ele>257.4</ele><time>2026-04-24T15:50:31.212Z</time></trkpt><trkpt lat="43.6458897" lon="11.3049169"><ele>257.2</ele><time>2026-04-24T15:50:33.212Z</time></trkpt><trkpt lat="43.6458904" lon="11.3050047"><ele>257.0</ele><time>2026-04-24T15:50:34.212Z</time></trkpt><trkpt lat="43.6458903" lon="11.3051591"><ele>258.0</ele><time>2026-04-24T15:50:36.211Z</time></trkpt><trkpt lat="43.6458953" lon="11.3053149"><ele>259.0</ele><time>2026-04-24T15:50:38.212Z</time></trkpt><trkpt lat="43.6458957" lon="11.3054728"><ele>260.0</ele><time>2026-04-24T15:50:40.212Z</time></trkpt><trkpt lat="43.645908" lon="11.3056362"><ele>261.0</ele><time>2026-04-24T15:50:42.212Z</time></trkpt><trkpt lat="43.6459202" lon="11.305797"><ele>261.40000000000003</ele><time>2026-04-24T15:50:44.211Z</time></trkpt><trkpt lat="43.6459238" lon="11.3058852"><ele>261.8</ele><time>2026-04-24T15:50:45.212Z</time></trkpt><trkpt lat="43.6459281" lon="11.3060295"><ele>262.20000000000005</ele><time>2026-04-24T15:50:47.212Z</time></trkpt><trkpt lat="43.6459246" lon="11.3061647"><ele>262.6</ele><time>2026-04-24T15:50:49.212Z</time></trkpt><trkpt lat="43.6459184" lon="11.3062989"><ele>263.0</ele><time>2026-04-24T15:50:51.211Z</time></trkpt><trkpt lat="43.6458977" lon="11.3064391"><ele>263.2</ele><time>2026-04-24T15:50:53.212Z</time></trkpt><trkpt lat="43.645852" lon="11.3065664"><ele>263.4</ele><time>2026-04-24T15:50:55.212Z</time></trkpt><trkpt lat="43.6457895" lon="11.3066937"><ele>263.59999999999997</ele><time>2026-04-24T15:50:57.212Z</time></trkpt><trkpt lat="43.6457483" lon="11.3067628"><ele>263.8</ele><time>2026-04-24T15:50:58.212Z</time></trkpt><trkpt lat="43.6456634" lon="11.3068825"><ele>264.0</ele><time>2026-04-24T15:51:00.212Z</time></trkpt><trkpt lat="43.6455729" lon="11.3070102"><ele>264.0</ele><time>2026-04-24T15:51:02.212Z</time></trkpt><trkpt lat="43.645524" lon="11.307076"><ele>264.0</ele><time>2026-04-24T15:51:03.212Z</time></trkpt><trkpt lat="43.6454726" lon="11.3071457"><ele>264.0</ele><time>2026-04-24T15:51:04.212Z</time></trkpt><trkpt lat="43.6454246" lon="11.3072113"><ele>264.0</ele><time>2026-04-24T15:51:05.212Z</time></trkpt><trkpt lat="43.6453765" lon="11.3072783"><ele>264.0</ele><time>2026-04-24T15:51:06.212Z</time></trkpt><trkpt lat="43.6453305" lon="11.3073469"><ele>264.0</ele><time>2026-04-24T15:51:07.212Z</time></trkpt><trkpt lat="43.6452829" lon="11.3074131"><ele>264.0</ele><time>2026-04-24T15:51:08.212Z</time></trkpt><trkpt lat="43.6452329" lon="11.3074789"><ele>263.0</ele><time>2026-04-24T15:51:09.212Z</time></trkpt><trkpt lat="43.6451865" lon="11.3075446"><ele>262.0</ele><time>2026-04-24T15:51:10.212Z</time></trkpt><trkpt lat="43.6451392" lon="11.3076101"><ele>261.0</ele><time>2026-04-24T15:51:11.212Z</time></trkpt><trkpt lat="43.6450906" lon="11.3076745"><ele>260.0</ele><time>2026-04-24T15:51:12.212Z</time></trkpt><trkpt lat="43.6450426" lon="11.30774"><ele>259.0</ele><time>2026-04-24T15:51:13.212Z</time></trkpt><trkpt lat="43.644994" lon="11.307811"><ele>258.0</ele><time>2026-04-24T15:51:14.212Z</time></trkpt><trkpt lat="43.6449465" lon="11.3078806"><ele>257.0</ele><time>2026-04-24T15:51:15.212Z</time></trkpt><trkpt lat="43.6448966" lon="11.3079538"><ele>257.0</ele><time>2026-04-24T15:51:16.211Z</time></trkpt><trkpt lat="43.6448487" lon="11.3080271"><ele>257.0</ele><time>2026-04-24T15:51:17.212Z</time></trkpt><trkpt lat="43.6448002" lon="11.3081019"><ele>257.0</ele><time>2026-04-24T15:51:18.212Z</time></trkpt><trkpt lat="43.6447486" lon="11.308175"><ele>257.0</ele><time>2026-04-24T15:51:19.212Z</time></trkpt><trkpt lat="43.6447014" lon="11.3082461"><ele>257.0</ele><time>2026-04-24T15:51:20.212Z</time></trkpt><trkpt lat="43.6446505" lon="11.3083228"><ele>257.0</ele><time>2026-04-24T15:51:21.212Z</time></trkpt><trkpt lat="43.6446047" lon="11.3083893"><ele>257.0</ele><time>2026-04-24T15:51:22.211Z</time></trkpt><trkpt lat="43.6445614" lon="11.3084544"><ele>256.6</ele><time>2026-04-24T15:51:23.212Z</time></trkpt><trkpt lat="43.6444841" lon="11.3085624"><ele>256.2</ele><time>2026-04-24T15:51:25.212Z</time></trkpt><trkpt lat="43.644399" lon="11.3086794"><ele>255.8</ele><time>2026-04-24T15:51:27.212Z</time></trkpt><trkpt lat="43.64432" lon="11.3087946"><ele>255.4</ele><time>2026-04-24T15:51:29.212Z</time></trkpt><trkpt lat="43.6442726" lon="11.3088565"><ele>255.0</ele><time>2026-04-24T15:51:30.211Z</time></trkpt><trkpt lat="43.6442256" lon="11.3089187"><ele>253.8</ele><time>2026-04-24T15:51:31.212Z</time></trkpt><trkpt lat="43.6441368" lon="11.3090422"><ele>252.6</ele><time>2026-04-24T15:51:33.211Z</time></trkpt><trkpt lat="43.644092" lon="11.3091103"><ele>251.39999999999998</ele><time>2026-04-24T15:51:34.212Z</time></trkpt><trkpt lat="43.6440466" lon="11.3091766"><ele>250.2</ele><time>2026-04-24T15:51:35.212Z</time></trkpt><trkpt lat="43.6439683" lon="11.3092925"><ele>249.0</ele><time>2026-04-24T15:51:37.212Z</time></trkpt><trkpt lat="43.6438885" lon="11.3093997"><ele>249.0</ele><time>2026-04-24T15:51:39.212Z</time></trkpt><trkpt lat="43.6438152" lon="11.3095021"><ele>249.0</ele><time>2026-04-24T15:51:41.211Z</time></trkpt><trkpt lat="43.6437354" lon="11.3096117"><ele>249.0</ele><time>2026-04-24T15:51:43.212Z</time></trkpt><trkpt lat="43.6436905" lon="11.3096755"><ele>249.0</ele><time>2026-04-24T15:51:44.212Z</time></trkpt><trkpt lat="43.6436445" lon="11.3097379"><ele>249.0</ele><time>2026-04-24T15:51:45.212Z</time></trkpt><trkpt lat="43.6436013" lon="11.3098093"><ele>249.0</ele><time>2026-04-24T15:51:46.211Z</time></trkpt><trkpt lat="43.6435541" lon="11.3098792"><ele>249.42857142857142</ele><time>2026-04-24T15:51:47.212Z</time></trkpt><trkpt lat="43.6435071" lon="11.3099547"><ele>249.85714285714283</ele><time>2026-04-24T15:51:48.212Z</time></trkpt><trkpt lat="43.6434569" lon="11.310031"><ele>250.28571428571428</ele><time>2026-04-24T15:51:49.212Z</time></trkpt><trkpt lat="43.6434085" lon="11.3101066"><ele>250.71428571428572</ele><time>2026-04-24T15:51:50.212Z</time></trkpt><trkpt lat="43.6433624" lon="11.3101769"><ele>251.14285714285714</ele><time>2026-04-24T15:51:51.212Z</time></trkpt><trkpt lat="43.6433145" lon="11.3102415"><ele>251.57142857142856</ele><time>2026-04-24T15:51:52.212Z</time></trkpt><trkpt lat="43.6432641" lon="11.3103116"><ele>252.0</ele><time>2026-04-24T15:51:53.211Z</time></trkpt><trkpt lat="43.6432142" lon="11.3103891"><ele>252.0</ele><time>2026-04-24T15:51:54.212Z</time></trkpt><trkpt lat="43.6431646" lon="11.3104689"><ele>252.0</ele><time>2026-04-24T15:51:55.212Z</time></trkpt><trkpt lat="43.6431102" lon="11.3105506"><ele>252.0</ele><time>2026-04-24T15:51:56.211Z</time></trkpt><trkpt lat="43.6430498" lon="11.3106223"><ele>252.0</ele><time>2026-04-24T15:51:57.212Z</time></trkpt><trkpt lat="43.6429933" lon="11.3106974"><ele>252.0</ele><time>2026-04-24T15:51:58.212Z</time></trkpt><trkpt lat="43.6429381" lon="11.310777"><ele>252.0</ele><time>2026-04-24T15:51:59.212Z</time></trkpt><trkpt lat="43.6428806" lon="11.310854"><ele>252.83333333333334</ele><time>2026-04-24T15:52:00.212Z</time></trkpt><trkpt lat="43.64282" lon="11.310934"><ele>253.66666666666669</ele><time>2026-04-24T15:52:01.211Z</time></trkpt><trkpt lat="43.6427586" lon="11.3110103"><ele>254.5</ele><time>2026-04-24T15:52:02.212Z</time></trkpt><trkpt lat="43.6427034" lon="11.3110967"><ele>255.33333333333334</ele><time>2026-04-24T15:52:03.212Z</time></trkpt><trkpt lat="43.6426452" lon="11.3111732"><ele>256.1666666666667</ele><time>2026-04-24T15:52:04.212Z</time></trkpt><trkpt lat="43.6425905" lon="11.3112565"><ele>257.0</ele><time>2026-04-24T15:52:05.212Z</time></trkpt><trkpt lat="43.6425324" lon="11.3113394"><ele>257.5</ele><time>2026-04-24T15:52:06.212Z</time></trkpt><trkpt lat="43.6424823" lon="11.3114192"><ele>258.0</ele><time>2026-04-24T15:52:07.212Z</time></trkpt><trkpt lat="43.642431" lon="11.3115029"><ele>258.5</ele><time>2026-04-24T15:52:08.212Z</time></trkpt><trkpt lat="43.6423775" lon="11.3115845"><ele>259.0</ele><time>2026-04-24T15:52:09.212Z</time></trkpt><trkpt lat="43.6423311" lon="11.3116641"><ele>259.5</ele><time>2026-04-24T15:52:10.212Z</time></trkpt><trkpt lat="43.6422816" lon="11.3117489"><ele>260.0</ele><time>2026-04-24T15:52:11.212Z</time></trkpt><trkpt lat="43.6422424" lon="11.3118252"><ele>260.0</ele><time>2026-04-24T15:52:12.212Z</time></trkpt><trkpt lat="43.6422128" lon="11.3119645"><ele>260.0</ele><time>2026-04-24T15:52:14.212Z</time></trkpt><trkpt lat="43.642203" lon="11.3121248"><ele>260.0</ele><time>2026-04-24T15:52:16.212Z</time></trkpt><trkpt lat="43.642212" lon="11.3122192"><ele>260.0</ele><time>2026-04-24T15:52:17.211Z</time></trkpt><trkpt lat="43.6422185" lon="11.312393"><ele>260.0</ele><time>2026-04-24T15:52:19.212Z</time></trkpt><trkpt lat="43.6422347" lon="11.3125185"><ele>259.8</ele><time>2026-04-24T15:52:21.212Z</time></trkpt><trkpt lat="43.6422495" lon="11.3126078"><ele>259.6</ele><time>2026-04-24T15:52:27.212Z</time></trkpt><trkpt lat="43.6423635" lon="11.3126732"><ele>259.4</ele><time>2026-04-24T15:52:30.212Z</time></trkpt><trkpt lat="43.6424338" lon="11.3126714"><ele>259.2</ele><time>2026-04-24T15:52:31.212Z</time></trkpt><trkpt lat="43.6425163" lon="11.312668"><ele>259.0</ele><time>2026-04-24T15:52:32.211Z</time></trkpt><trkpt lat="43.6426477" lon="11.3126531"><ele>259.0</ele><time>2026-04-24T15:52:34.212Z</time></trkpt><trkpt lat="43.642778" lon="11.3126272"><ele>259.0</ele><time>2026-04-24T15:52:35.212Z</time></trkpt><trkpt lat="43.6428896" lon="11.3126096"><ele>259.0</ele><time>2026-04-24T15:52:36.212Z</time></trkpt><trkpt lat="43.6430107" lon="11.3125872"><ele>259.0</ele><time>2026-04-24T15:52:37.212Z</time></trkpt><trkpt lat="43.6431589" lon="11.3125385"><ele>257.75</ele><time>2026-04-24T15:52:38.212Z</time></trkpt><trkpt lat="43.6432864" lon="11.3125184"><ele>256.5</ele><time>2026-04-24T15:52:39.211Z</time></trkpt><trkpt lat="43.643439" lon="11.3124826"><ele>255.25</ele><time>2026-04-24T15:52:40.212Z</time></trkpt><trkpt lat="43.6435816" lon="11.3124592"><ele>254.0</ele><time>2026-04-24T15:52:41.211Z</time></trkpt><trkpt lat="43.6437274" lon="11.312436"><ele>253.75</ele><time>2026-04-24T15:52:42.212Z</time></trkpt><trkpt lat="43.643873" lon="11.3124172"><ele>253.5</ele><time>2026-04-24T15:52:43.212Z</time></trkpt><trkpt lat="43.6440163" lon="11.3123904"><ele>253.25</ele><time>2026-04-24T15:52:44.212Z</time></trkpt><trkpt lat="43.644168" lon="11.3123671"><ele>253.0</ele><time>2026-04-24T15:52:45.212Z</time></trkpt><trkpt lat="43.6443231" lon="11.312348"><ele>251.75</ele><time>2026-04-24T15:52:46.212Z</time></trkpt><trkpt lat="43.6444642" lon="11.3123197"><ele>250.5</ele><time>2026-04-24T15:52:47.212Z</time></trkpt><trkpt lat="43.644607" lon="11.3122877"><ele>249.25</ele><time>2026-04-24T15:52:48.212Z</time></trkpt><trkpt lat="43.6447497" lon="11.3122558"><ele>248.0</ele><time>2026-04-24T15:52:49.212Z</time></trkpt><trkpt lat="43.6448909" lon="11.3122288"><ele>246.75</ele><time>2026-04-24T15:52:50.212Z</time></trkpt><trkpt lat="43.645039" lon="11.3122062"><ele>245.5</ele><time>2026-04-24T15:52:51.212Z</time></trkpt><trkpt lat="43.6451847" lon="11.3121808"><ele>244.25</ele><time>2026-04-24T15:52:52.211Z</time></trkpt><trkpt lat="43.6453314" lon="11.3121602"><ele>243.0</ele><time>2026-04-24T15:52:53.212Z</time></trkpt><trkpt lat="43.6454781" lon="11.312116"><ele>243.0</ele><time>2026-04-24T15:52:54.212Z</time></trkpt><trkpt lat="43.6456126" lon="11.3120689"><ele>243.0</ele><time>2026-04-24T15:52:55.212Z</time></trkpt><trkpt lat="43.6457477" lon="11.3120163"><ele>243.0</ele><time>2026-04-24T15:52:56.212Z</time></trkpt><trkpt lat="43.6458706" lon="11.3119432"><ele>243.0</ele><time>2026-04-24T15:52:57.212Z</time></trkpt><trkpt lat="43.6459905" lon="11.3118679"><ele>243.0</ele><time>2026-04-24T15:52:58.212Z</time></trkpt><trkpt lat="43.6461211" lon="11.3118105"><ele>243.0</ele><time>2026-04-24T15:52:59.212Z</time></trkpt><trkpt lat="43.6462483" lon="11.3117516"><ele>243.0</ele><time>2026-04-24T15:53:00.211Z</time></trkpt><trkpt lat="43.6463849" lon="11.3116925"><ele>243.0</ele><time>2026-04-24T15:53:01.212Z</time></trkpt><trkpt lat="43.6465198" lon="11.3116487"><ele>243.5</ele><time>2026-04-24T15:53:02.212Z</time></trkpt><trkpt lat="43.646653" lon="11.3115964"><ele>244.0</ele><time>2026-04-24T15:53:03.211Z</time></trkpt><trkpt lat="43.6467836" lon="11.3115609"><ele>244.5</ele><time>2026-04-24T15:53:04.212Z</time></trkpt><trkpt lat="43.6469146" lon="11.3115254"><ele>245.0</ele><time>2026-04-24T15:53:05.212Z</time></trkpt><trkpt lat="43.6470522" lon="11.3114816"><ele>245.75</ele><time>2026-04-24T15:53:06.212Z</time></trkpt><trkpt lat="43.647181" lon="11.3114373"><ele>246.5</ele><time>2026-04-24T15:53:07.211Z</time></trkpt><trkpt lat="43.6473123" lon="11.3113913"><ele>247.25</ele><time>2026-04-24T15:53:08.212Z</time></trkpt><trkpt lat="43.6474435" lon="11.311344"><ele>248.0</ele><time>2026-04-24T15:53:09.212Z</time></trkpt><trkpt lat="43.6475803" lon="11.3113016"><ele>245.0</ele><time>2026-04-24T15:53:10.212Z</time></trkpt><trkpt lat="43.647716" lon="11.3112572"><ele>242.0</ele><time>2026-04-24T15:53:11.211Z</time></trkpt><trkpt lat="43.6478398" lon="11.311217"><ele>239.0</ele><time>2026-04-24T15:53:12.212Z</time></trkpt><trkpt lat="43.648004" lon="11.3111881"><ele>236.0</ele><time>2026-04-24T15:53:13.212Z</time></trkpt><trkpt lat="43.6481525" lon="11.3111529"><ele>234.66666666666669</ele><time>2026-04-24T15:53:14.212Z</time></trkpt><trkpt lat="43.6483099" lon="11.3111288"><ele>233.33333333333331</ele><time>2026-04-24T15:53:15.212Z</time></trkpt><trkpt lat="43.6484593" lon="11.3110925"><ele>232.0</ele><time>2026-04-24T15:53:16.212Z</time></trkpt><trkpt lat="43.6486124" lon="11.311061"><ele>230.66666666666666</ele><time>2026-04-24T15:53:17.212Z</time></trkpt><trkpt lat="43.6487654" lon="11.3110197"><ele>229.33333333333331</ele><time>2026-04-24T15:53:18.212Z</time></trkpt><trkpt lat="43.6489179" lon="11.3109856"><ele>228.0</ele><time>2026-04-24T15:53:19.212Z</time></trkpt><trkpt lat="43.6490609" lon="11.3109575"><ele>228.0</ele><time>2026-04-24T15:53:20.212Z</time></trkpt><trkpt lat="43.649195" lon="11.3109406"><ele>228.0</ele><time>2026-04-24T15:53:21.212Z</time></trkpt><trkpt lat="43.6493339" lon="11.3109006"><ele>228.0</ele><time>2026-04-24T15:53:22.212Z</time></trkpt><trkpt lat="43.6494591" lon="11.3108608"><ele>228.0</ele><time>2026-04-24T15:53:23.212Z</time></trkpt><trkpt lat="43.6495811" lon="11.3108032"><ele>227.5</ele><time>2026-04-24T15:53:24.211Z</time></trkpt><trkpt lat="43.6497013" lon="11.3107272"><ele>227.0</ele><time>2026-04-24T15:53:25.212Z</time></trkpt><trkpt lat="43.6498177" lon="11.3106348"><ele>226.5</ele><time>2026-04-24T15:53:26.211Z</time></trkpt><trkpt lat="43.6499321" lon="11.3105389"><ele>226.0</ele><time>2026-04-24T15:53:27.211Z</time></trkpt><trkpt lat="43.6500422" lon="11.3104358"><ele>225.0</ele><time>2026-04-24T15:53:28.212Z</time></trkpt><trkpt lat="43.6501571" lon="11.3103295"><ele>224.0</ele><time>2026-04-24T15:53:29.212Z</time></trkpt><trkpt lat="43.6502772" lon="11.3102254"><ele>223.0</ele><time>2026-04-24T15:53:30.212Z</time></trkpt><trkpt lat="43.6503892" lon="11.3101247"><ele>222.0</ele><time>2026-04-24T15:53:31.212Z</time></trkpt><trkpt lat="43.6505022" lon="11.3100143"><ele>221.5</ele><time>2026-04-24T15:53:32.212Z</time></trkpt><trkpt lat="43.6506151" lon="11.3099044"><ele>221.0</ele><time>2026-04-24T15:53:33.211Z</time></trkpt><trkpt lat="43.650728" lon="11.3097923"><ele>220.5</ele><time>2026-04-24T15:53:34.212Z</time></trkpt><trkpt lat="43.6508498" lon="11.3096794"><ele>220.0</ele><time>2026-04-24T15:53:35.211Z</time></trkpt><trkpt lat="43.6509571" lon="11.3095643"><ele>219.5</ele><time>2026-04-24T15:53:36.211Z</time></trkpt><trkpt lat="43.6510754" lon="11.3094587"><ele>219.0</ele><time>2026-04-24T15:53:37.212Z</time></trkpt><trkpt lat="43.6511965" lon="11.3093438"><ele>218.5</ele><time>2026-04-24T15:53:38.212Z</time></trkpt><trkpt lat="43.6513176" lon="11.3092306"><ele>218.0</ele><time>2026-04-24T15:53:39.212Z</time></trkpt><trkpt lat="43.6514341" lon="11.3091173"><ele>217.25</ele><time>2026-04-24T15:53:40.211Z</time></trkpt><trkpt lat="43.6515481" lon="11.3090033"><ele>216.5</ele><time>2026-04-24T15:53:41.212Z</time></trkpt><trkpt lat="43.6516647" lon="11.308894"><ele>215.75</ele><time>2026-04-24T15:53:42.212Z</time></trkpt><trkpt lat="43.6517694" lon="11.3087678"><ele>215.0</ele><time>2026-04-24T15:53:43.212Z</time></trkpt><trkpt lat="43.6518791" lon="11.3086227"><ele>214.75</ele><time>2026-04-24T15:53:44.212Z</time></trkpt><trkpt lat="43.6519708" lon="11.3084843"><ele>214.5</ele><time>2026-04-24T15:53:45.212Z</time></trkpt><trkpt lat="43.6520559" lon="11.3083445"><ele>214.25</ele><time>2026-04-24T15:53:46.212Z</time></trkpt><trkpt lat="43.6521363" lon="11.3081851"><ele>214.0</ele><time>2026-04-24T15:53:47.212Z</time></trkpt><trkpt lat="43.6522087" lon="11.3080201"><ele>213.75</ele><time>2026-04-24T15:53:48.211Z</time></trkpt><trkpt lat="43.6522815" lon="11.3078566"><ele>213.5</ele><time>2026-04-24T15:53:49.212Z</time></trkpt><trkpt lat="43.6523459" lon="11.3076674"><ele>213.25</ele><time>2026-04-24T15:53:50.212Z</time></trkpt><trkpt lat="43.6524046" lon="11.3075077"><ele>213.0</ele><time>2026-04-24T15:53:51.212Z</time></trkpt><trkpt lat="43.6524641" lon="11.3073308"><ele>212.25</ele><time>2026-04-24T15:53:52.211Z</time></trkpt><trkpt lat="43.6525283" lon="11.3071612"><ele>211.5</ele><time>2026-04-24T15:53:53.212Z</time></trkpt><trkpt lat="43.6525877" lon="11.3069939"><ele>210.75</ele><time>2026-04-24T15:53:54.211Z</time></trkpt><trkpt lat="43.6526421" lon="11.3068187"><ele>210.0</ele><time>2026-04-24T15:53:55.211Z</time></trkpt><trkpt lat="43.6526997" lon="11.3066509"><ele>210.0</ele><time>2026-04-24T15:53:56.212Z</time></trkpt><trkpt lat="43.6527573" lon="11.3064745"><ele>210.0</ele><time>2026-04-24T15:53:57.212Z</time></trkpt><trkpt lat="43.652818" lon="11.3062953"><ele>210.0</ele><time>2026-04-24T15:53:58.212Z</time></trkpt><trkpt lat="43.652876" lon="11.3061169"><ele>210.0</ele><time>2026-04-24T15:53:59.212Z</time></trkpt><trkpt lat="43.6529377" lon="11.3059465"><ele>209.5</ele><time>2026-04-24T15:54:00.212Z</time></trkpt><trkpt lat="43.6530002" lon="11.3057693"><ele>209.0</ele><time>2026-04-24T15:54:01.212Z</time></trkpt><trkpt lat="43.6530617" lon="11.3055868"><ele>208.5</ele><time>2026-04-24T15:54:02.212Z</time></trkpt><trkpt lat="43.6531236" lon="11.3053919"><ele>208.0</ele><time>2026-04-24T15:54:03.212Z</time></trkpt><trkpt lat="43.6531895" lon="11.305201"><ele>208.0</ele><time>2026-04-24T15:54:04.212Z</time></trkpt><trkpt lat="43.6532547" lon="11.3049936"><ele>208.0</ele><time>2026-04-24T15:54:05.212Z</time></trkpt><trkpt lat="43.653322" lon="11.3047803"><ele>208.0</ele><time>2026-04-24T15:54:06.212Z</time></trkpt><trkpt lat="43.6533767" lon="11.3045641"><ele>205.66666666666666</ele><time>2026-04-24T15:54:07.211Z</time></trkpt><trkpt lat="43.6534348" lon="11.304339"><ele>203.33333333333331</ele><time>2026-04-24T15:54:08.212Z</time></trkpt><trkpt lat="43.6534853" lon="11.304116"><ele>201.0</ele><time>2026-04-24T15:54:09.212Z</time></trkpt><trkpt lat="43.6535321" lon="11.3038901"><ele>200.0</ele><time>2026-04-24T15:54:10.212Z</time></trkpt><trkpt lat="43.6535777" lon="11.3036553"><ele>199.0</ele><time>2026-04-24T15:54:11.212Z</time></trkpt><trkpt lat="43.6536199" lon="11.3034085"><ele>198.0</ele><time>2026-04-24T15:54:12.212Z</time></trkpt><trkpt lat="43.6536608" lon="11.3031688"><ele>204.33333333333331</ele><time>2026-04-24T15:54:13.212Z</time></trkpt><trkpt lat="43.6537015" lon="11.3029459"><ele>210.66666666666666</ele><time>2026-04-24T15:54:14.211Z</time></trkpt><trkpt lat="43.6537348" lon="11.3027069"><ele>217.0</ele><time>2026-04-24T15:54:15.212Z</time></trkpt><trkpt lat="43.6537682" lon="11.3024838"><ele>217.0</ele><time>2026-04-24T15:54:16.212Z</time></trkpt><trkpt lat="43.6537994" lon="11.3022582"><ele>217.0</ele><time>2026-04-24T15:54:17.212Z</time></trkpt><trkpt lat="43.6538324" lon="11.3020362"><ele>217.0</ele><time>2026-04-24T15:54:18.212Z</time></trkpt><trkpt lat="43.6538682" lon="11.3018282"><ele>216.33333333333331</ele><time>2026-04-24T15:54:19.212Z</time></trkpt><trkpt lat="43.6539018" lon="11.3016031"><ele>215.66666666666669</ele><time>2026-04-24T15:54:20.212Z</time></trkpt><trkpt lat="43.653939" lon="11.3013837"><ele>215.0</ele><time>2026-04-24T15:54:21.212Z</time></trkpt><trkpt lat="43.6539938" lon="11.3011828"><ele>214.25</ele><time>2026-04-24T15:54:22.212Z</time></trkpt><trkpt lat="43.6540607" lon="11.3010021"><ele>213.5</ele><time>2026-04-24T15:54:23.212Z</time></trkpt><trkpt lat="43.6541357" lon="11.3008294"><ele>212.75</ele><time>2026-04-24T15:54:24.212Z</time></trkpt><trkpt lat="43.6542272" lon="11.3006845"><ele>212.0</ele><time>2026-04-24T15:54:25.212Z</time></trkpt><trkpt lat="43.6543258" lon="11.3005384"><ele>210.33333333333334</ele><time>2026-04-24T15:54:26.212Z</time></trkpt><trkpt lat="43.6544334" lon="11.3003827"><ele>208.66666666666669</ele><time>2026-04-24T15:54:27.212Z</time></trkpt><trkpt lat="43.6545418" lon="11.3002152"><ele>207.0</ele><time>2026-04-24T15:54:28.212Z</time></trkpt><trkpt lat="43.6546601" lon="11.3000204"><ele>207.66666666666669</ele><time>2026-04-24T15:54:29.212Z</time></trkpt><trkpt lat="43.6547918" lon="11.2998563"><ele>208.33333333333334</ele><time>2026-04-24T15:54:30.212Z</time></trkpt><trkpt lat="43.6549239" lon="11.29968"><ele>209.0</ele><time>2026-04-24T15:54:31.212Z</time></trkpt><trkpt lat="43.6550592" lon="11.2994986"><ele>209.0</ele><time>2026-04-24T15:54:32.212Z</time></trkpt><trkpt lat="43.6551861" lon="11.2992959"><ele>209.0</ele><time>2026-04-24T15:54:33.212Z</time></trkpt><trkpt lat="43.6553306" lon="11.299137"><ele>209.0</ele><time>2026-04-24T15:54:34.212Z</time></trkpt><trkpt lat="43.6554599" lon="11.2989665"><ele>208.33333333333334</ele><time>2026-04-24T15:54:35.212Z</time></trkpt><trkpt lat="43.6555902" lon="11.2987995"><ele>207.66666666666669</ele><time>2026-04-24T15:54:36.212Z</time></trkpt><trkpt lat="43.6557224" lon="11.2986437"><ele>207.0</ele><time>2026-04-24T15:54:37.211Z</time></trkpt><trkpt lat="43.6558524" lon="11.2984882"><ele>207.0</ele><time>2026-04-24T15:54:38.211Z</time></trkpt><trkpt lat="43.6559708" lon="11.2983258"><ele>207.0</ele><time>2026-04-24T15:54:39.212Z</time></trkpt><trkpt lat="43.6560869" lon="11.2981593"><ele>207.0</ele><time>2026-04-24T15:54:40.212Z</time></trkpt><trkpt lat="43.656197" lon="11.2979813"><ele>211.66666666666669</ele><time>2026-04-24T15:54:41.212Z</time></trkpt><trkpt lat="43.6563029" lon="11.297803"><ele>216.33333333333334</ele><time>2026-04-24T15:54:42.212Z</time></trkpt><trkpt lat="43.6564065" lon="11.2976185"><ele>221.0</ele><time>2026-04-24T15:54:43.212Z</time></trkpt><trkpt lat="43.6564946" lon="11.2974287"><ele>221.33333333333334</ele><time>2026-04-24T15:54:44.212Z</time></trkpt><trkpt lat="43.6565778" lon="11.2972365"><ele>221.66666666666669</ele><time>2026-04-24T15:54:45.212Z</time></trkpt><trkpt lat="43.656658" lon="11.2970421"><ele>222.0</ele><time>2026-04-24T15:54:46.211Z</time></trkpt><trkpt lat="43.6567331" lon="11.2968474"><ele>222.0</ele><time>2026-04-24T15:54:47.211Z</time></trkpt><trkpt lat="43.6568068" lon="11.2966524"><ele>222.0</ele><time>2026-04-24T15:54:48.212Z</time></trkpt><trkpt lat="43.656878" lon="11.2964571"><ele>222.0</ele><time>2026-04-24T15:54:49.212Z</time></trkpt><trkpt lat="43.6569569" lon="11.296271"><ele>225.66666666666669</ele><time>2026-04-24T15:54:50.212Z</time></trkpt><trkpt lat="43.6570336" lon="11.2960888"><ele>229.33333333333334</ele><time>2026-04-24T15:54:51.212Z</time></trkpt><trkpt lat="43.657115" lon="11.2959094"><ele>233.0</ele><time>2026-04-24T15:54:52.211Z</time></trkpt><trkpt lat="43.6572046" lon="11.2957321"><ele>233.0</ele><time>2026-04-24T15:54:53.212Z</time></trkpt><trkpt lat="43.6573011" lon="11.2955576"><ele>233.0</ele><time>2026-04-24T15:54:54.212Z</time></trkpt><trkpt lat="43.6574064" lon="11.2953895"><ele>233.0</ele><time>2026-04-24T15:54:55.212Z</time></trkpt><trkpt lat="43.6575129" lon="11.2952503"><ele>233.0</ele><time>2026-04-24T15:54:56.212Z</time></trkpt><trkpt lat="43.6576349" lon="11.2951185"><ele>233.0</ele><time>2026-04-24T15:54:57.212Z</time></trkpt><trkpt lat="43.6577614" lon="11.2949766"><ele>233.0</ele><time>2026-04-24T15:54:58.212Z</time></trkpt><trkpt lat="43.657891" lon="11.2948381"><ele>233.33333333333334</ele><time>2026-04-24T15:54:59.212Z</time></trkpt><trkpt lat="43.6580326" lon="11.2947138"><ele>233.66666666666669</ele><time>2026-04-24T15:55:00.211Z</time></trkpt><trkpt lat="43.6581771" lon="11.2945881"><ele>234.0</ele><time>2026-04-24T15:55:01.212Z</time></trkpt><trkpt lat="43.6583216" lon="11.294469"><ele>234.0</ele><time>2026-04-24T15:55:02.212Z</time></trkpt><trkpt lat="43.6584579" lon="11.2943652"><ele>234.0</ele><time>2026-04-24T15:55:03.212Z</time></trkpt><trkpt lat="43.6585817" lon="11.2942592"><ele>234.0</ele><time>2026-04-24T15:55:04.211Z</time></trkpt><trkpt lat="43.6587019" lon="11.2941701"><ele>234.0</ele><time>2026-04-24T15:55:05.212Z</time></trkpt><trkpt lat="43.6588085" lon="11.2940933"><ele>233.39999999999998</ele><time>2026-04-24T15:55:06.212Z</time></trkpt><trkpt lat="43.6589137" lon="11.2940121"><ele>232.79999999999998</ele><time>2026-04-24T15:55:07.212Z</time></trkpt><trkpt lat="43.6590049" lon="11.2939447"><ele>232.20000000000002</ele><time>2026-04-24T15:55:08.212Z</time></trkpt><trkpt lat="43.6590864" lon="11.2938815"><ele>231.60000000000002</ele><time>2026-04-24T15:55:09.212Z</time></trkpt><trkpt lat="43.6591624" lon="11.2938239"><ele>231.0</ele><time>2026-04-24T15:55:10.212Z</time></trkpt><trkpt lat="43.6592392" lon="11.2937689"><ele>230.66666666666666</ele><time>2026-04-24T15:55:11.212Z</time></trkpt><trkpt lat="43.6593154" lon="11.2937216"><ele>230.33333333333331</ele><time>2026-04-24T15:55:12.211Z</time></trkpt><trkpt lat="43.6593827" lon="11.2936616"><ele>230.0</ele><time>2026-04-24T15:55:13.212Z</time></trkpt><trkpt lat="43.6594209" lon="11.2935853"><ele>229.66666666666666</ele><time>2026-04-24T15:55:14.212Z</time></trkpt><trkpt lat="43.659455" lon="11.293495"><ele>229.33333333333331</ele><time>2026-04-24T15:55:15.212Z</time></trkpt><trkpt lat="43.6594974" lon="11.2933811"><ele>229.0</ele><time>2026-04-24T15:55:16.211Z</time></trkpt><trkpt lat="43.6595472" lon="11.293255"><ele>229.0</ele><time>2026-04-24T15:55:17.212Z</time></trkpt><trkpt lat="43.6596183" lon="11.2931385"><ele>229.0</ele><time>2026-04-24T15:55:18.212Z</time></trkpt><trkpt lat="43.6597048" lon="11.2930213"><ele>229.0</ele><time>2026-04-24T15:55:19.211Z</time></trkpt><trkpt lat="43.6598031" lon="11.2929139"><ele>229.0</ele><time>2026-04-24T15:55:20.212Z</time></trkpt><trkpt lat="43.6599059" lon="11.2928169"><ele>228.0</ele><time>2026-04-24T15:55:21.211Z</time></trkpt><trkpt lat="43.6600321" lon="11.2926985"><ele>227.0</ele><time>2026-04-24T15:55:22.212Z</time></trkpt><trkpt lat="43.6601579" lon="11.2926054"><ele>226.0</ele><time>2026-04-24T15:55:23.212Z</time></trkpt><trkpt lat="43.6602952" lon="11.2925287"><ele>225.0</ele><time>2026-04-24T15:55:24.211Z</time></trkpt><trkpt lat="43.6604479" lon="11.2924784"><ele>225.0</ele><time>2026-04-24T15:55:25.212Z</time></trkpt><trkpt lat="43.6606062" lon="11.2924504"><ele>225.0</ele><time>2026-04-24T15:55:26.212Z</time></trkpt><trkpt lat="43.660777" lon="11.2924375"><ele>225.0</ele><time>2026-04-24T15:55:27.212Z</time></trkpt><trkpt lat="43.660939" lon="11.2924587"><ele>225.0</ele><time>2026-04-24T15:55:28.211Z</time></trkpt><trkpt lat="43.6611059" lon="11.2925109"><ele>225.0</ele><time>2026-04-24T15:55:29.212Z</time></trkpt><trkpt lat="43.6612716" lon="11.2925816"><ele>225.0</ele><time>2026-04-24T15:55:30.212Z</time></trkpt><trkpt lat="43.6614334" lon="11.2926825"><ele>225.33333333333331</ele><time>2026-04-24T15:55:31.212Z</time></trkpt><trkpt lat="43.6615875" lon="11.2927969"><ele>225.66666666666666</ele><time>2026-04-24T15:55:32.211Z</time></trkpt><trkpt lat="43.6617427" lon="11.2929242"><ele>226.0</ele><time>2026-04-24T15:55:33.212Z</time></trkpt><trkpt lat="43.6619058" lon="11.2930396"><ele>228.0</ele><time>2026-04-24T15:55:34.212Z</time></trkpt><trkpt lat="43.6620783" lon="11.2931309"><ele>230.0</ele><time>2026-04-24T15:55:35.212Z</time></trkpt><trkpt lat="43.6622582" lon="11.2932026"><ele>232.0</ele><time>2026-04-24T15:55:36.212Z</time></trkpt><trkpt lat="43.6624389" lon="11.2932614"><ele>232.0</ele><time>2026-04-24T15:55:37.211Z</time></trkpt><trkpt lat="43.662622" lon="11.2933047"><ele>232.0</ele><time>2026-04-24T15:55:38.211Z</time></trkpt><trkpt lat="43.6628087" lon="11.2933207"><ele>232.0</ele><time>2026-04-24T15:55:39.212Z</time></trkpt><trkpt lat="43.662999" lon="11.2933428"><ele>233.5</ele><time>2026-04-24T15:55:40.212Z</time></trkpt><trkpt lat="43.66315" lon="11.2933181"><ele>235.0</ele><time>2026-04-24T15:55:41.212Z</time></trkpt><trkpt lat="43.6632971" lon="11.2932996"><ele>236.5</ele><time>2026-04-24T15:55:42.212Z</time></trkpt><trkpt lat="43.6634361" lon="11.2932968"><ele>238.0</ele><time>2026-04-24T15:55:43.212Z</time></trkpt><trkpt lat="43.6635697" lon="11.293315"><ele>239.2</ele><time>2026-04-24T15:55:44.212Z</time></trkpt><trkpt lat="43.6636912" lon="11.2933463"><ele>240.4</ele><time>2026-04-24T15:55:45.212Z</time></trkpt><trkpt lat="43.6638045" lon="11.2933895"><ele>241.59999999999997</ele><time>2026-04-24T15:55:46.212Z</time></trkpt><trkpt lat="43.6638952" lon="11.2934435"><ele>242.79999999999998</ele><time>2026-04-24T15:55:47.211Z</time></trkpt><trkpt lat="43.6639692" lon="11.2935038"><ele>244.0</ele><time>2026-04-24T15:55:48.212Z</time></trkpt><trkpt lat="43.6640294" lon="11.2935765"><ele>243.99999999999997</ele><time>2026-04-24T15:55:49.212Z</time></trkpt><trkpt lat="43.6640875" lon="11.2936536"><ele>244.0</ele><time>2026-04-24T15:55:50.212Z</time></trkpt><trkpt lat="43.6641531" lon="11.2937133"><ele>244.0</ele><time>2026-04-24T15:55:51.211Z</time></trkpt><trkpt lat="43.6642327" lon="11.293739"><ele>244.0</ele><time>2026-04-24T15:55:52.212Z</time></trkpt><trkpt lat="43.6643246" lon="11.2937112"><ele>243.99999999999997</ele><time>2026-04-24T15:55:53.212Z</time></trkpt><trkpt lat="43.6644188" lon="11.2936635"><ele>244.0</ele><time>2026-04-24T15:55:54.212Z</time></trkpt><trkpt lat="43.6645274" lon="11.2936069"><ele>243.75</ele><time>2026-04-24T15:55:55.212Z</time></trkpt><trkpt lat="43.6646459" lon="11.2935571"><ele>243.5</ele><time>2026-04-24T15:55:56.211Z</time></trkpt><trkpt lat="43.6647763" lon="11.2935128"><ele>243.25</ele><time>2026-04-24T15:55:57.212Z</time></trkpt><trkpt lat="43.664908" lon="11.2934761"><ele>243.0</ele><time>2026-04-24T15:55:58.211Z</time></trkpt><trkpt lat="43.6650461" lon="11.2934464"><ele>243.0</ele><time>2026-04-24T15:55:59.212Z</time></trkpt><trkpt lat="43.665191" lon="11.293421"><ele>243.0</ele><time>2026-04-24T15:56:00.212Z</time></trkpt><trkpt lat="43.6653251" lon="11.2933987"><ele>243.0</ele><time>2026-04-24T15:56:01.212Z</time></trkpt><trkpt lat="43.6654501" lon="11.2933805"><ele>243.0</ele><time>2026-04-24T15:56:02.211Z</time></trkpt><trkpt lat="43.665566" lon="11.2933743"><ele>242.2</ele><time>2026-04-24T15:56:03.212Z</time></trkpt><trkpt lat="43.6656716" lon="11.2933562"><ele>241.4</ele><time>2026-04-24T15:56:04.211Z</time></trkpt><trkpt lat="43.6657606" lon="11.2933339"><ele>240.59999999999997</ele><time>2026-04-24T15:56:05.212Z</time></trkpt><trkpt lat="43.6658531" lon="11.293307"><ele>239.79999999999998</ele><time>2026-04-24T15:56:06.212Z</time></trkpt><trkpt lat="43.6659381" lon="11.293273"><ele>239.0</ele><time>2026-04-24T15:56:07.212Z</time></trkpt><trkpt lat="43.6660287" lon="11.2932346"><ele>238.79999999999998</ele><time>2026-04-24T15:56:08.212Z</time></trkpt><trkpt lat="43.6661169" lon="11.2932037"><ele>238.59999999999997</ele><time>2026-04-24T15:56:09.212Z</time></trkpt><trkpt lat="43.6662045" lon="11.2931698"><ele>238.4</ele><time>2026-04-24T15:56:10.212Z</time></trkpt><trkpt lat="43.666295" lon="11.2931335"><ele>238.2</ele><time>2026-04-24T15:56:11.212Z</time></trkpt><trkpt lat="43.6663822" lon="11.2930985"><ele>238.0</ele><time>2026-04-24T15:56:12.212Z</time></trkpt><trkpt lat="43.6664745" lon="11.2930625"><ele>238.8</ele><time>2026-04-24T15:56:13.212Z</time></trkpt><trkpt lat="43.6665751" lon="11.2930367"><ele>239.60000000000002</ele><time>2026-04-24T15:56:14.212Z</time></trkpt><trkpt lat="43.666673" lon="11.2930131"><ele>240.39999999999998</ele><time>2026-04-24T15:56:15.212Z</time></trkpt><trkpt lat="43.666764" lon="11.2929802"><ele>241.2</ele><time>2026-04-24T15:56:16.212Z</time></trkpt><trkpt lat="43.6668438" lon="11.2929492"><ele>242.0</ele><time>2026-04-24T15:56:17.212Z</time></trkpt><trkpt lat="43.6669225" lon="11.2929244"><ele>241.7142857142857</ele><time>2026-04-24T15:56:18.212Z</time></trkpt><trkpt lat="43.6669956" lon="11.2928905"><ele>241.4285714285714</ele><time>2026-04-24T15:56:19.212Z</time></trkpt><trkpt lat="43.6670634" lon="11.2928533"><ele>241.14285714285714</ele><time>2026-04-24T15:56:20.212Z</time></trkpt><trkpt lat="43.6671322" lon="11.2928274"><ele>240.85714285714283</ele><time>2026-04-24T15:56:21.212Z</time></trkpt><trkpt lat="43.6671977" lon="11.2927993"><ele>240.57142857142856</ele><time>2026-04-24T15:56:22.212Z</time></trkpt><trkpt lat="43.6672617" lon="11.2927706"><ele>240.28571428571428</ele><time>2026-04-24T15:56:23.211Z</time></trkpt><trkpt lat="43.6673255" lon="11.2927368"><ele>240.0</ele><time>2026-04-24T15:56:24.212Z</time></trkpt><trkpt lat="43.6673913" lon="11.292714"><ele>240.0</ele><time>2026-04-24T15:56:25.211Z</time></trkpt><trkpt lat="43.6674621" lon="11.2926848"><ele>240.0</ele><time>2026-04-24T15:56:26.212Z</time></trkpt><trkpt lat="43.6675327" lon="11.292657"><ele>240.0</ele><time>2026-04-24T15:56:27.212Z</time></trkpt><trkpt lat="43.6676011" lon="11.2926278"><ele>240.0</ele><time>2026-04-24T15:56:28.212Z</time></trkpt><trkpt lat="43.6676848" lon="11.2925996"><ele>240.0</ele><time>2026-04-24T15:56:29.212Z</time></trkpt><trkpt lat="43.6677715" lon="11.2925655"><ele>240.0</ele><time>2026-04-24T15:56:30.212Z</time></trkpt><trkpt lat="43.6678718" lon="11.2925398"><ele>239.4</ele><time>2026-04-24T15:56:31.212Z</time></trkpt><trkpt lat="43.6679696" lon="11.292509"><ele>238.8</ele><time>2026-04-24T15:56:32.212Z</time></trkpt><trkpt lat="43.6680755" lon="11.2924799"><ele>238.2</ele><time>2026-04-24T15:56:33.211Z</time></trkpt><trkpt lat="43.6681918" lon="11.2924494"><ele>237.6</ele><time>2026-04-24T15:56:34.212Z</time></trkpt><trkpt lat="43.6683091" lon="11.2924175"><ele>237.0</ele><time>2026-04-24T15:56:35.211Z</time></trkpt><trkpt lat="43.668431" lon="11.2923938"><ele>237.0</ele><time>2026-04-24T15:56:36.212Z</time></trkpt><trkpt lat="43.6685503" lon="11.2923678"><ele>237.0</ele><time>2026-04-24T15:56:37.211Z</time></trkpt><trkpt lat="43.6686784" lon="11.2923498"><ele>237.0</ele><time>2026-04-24T15:56:38.212Z</time></trkpt><trkpt lat="43.6688091" lon="11.2923357"><ele>237.0</ele><time>2026-04-24T15:56:39.212Z</time></trkpt><trkpt lat="43.6689399" lon="11.2923156"><ele>238.0</ele><time>2026-04-24T15:56:40.212Z</time></trkpt><trkpt lat="43.6690835" lon="11.292287"><ele>239.0</ele><time>2026-04-24T15:56:41.212Z</time></trkpt><trkpt lat="43.6692248" lon="11.2922577"><ele>240.0</ele><time>2026-04-24T15:56:42.212Z</time></trkpt><trkpt lat="43.6693688" lon="11.2922281"><ele>241.0</ele><time>2026-04-24T15:56:43.211Z</time></trkpt><trkpt lat="43.6695203" lon="11.2921951"><ele>244.0</ele><time>2026-04-24T15:56:44.212Z</time></trkpt><trkpt lat="43.669669" lon="11.2921714"><ele>247.0</ele><time>2026-04-24T15:56:45.212Z</time></trkpt><trkpt lat="43.6698208" lon="11.2921458"><ele>250.0</ele><time>2026-04-24T15:56:46.212Z</time></trkpt><trkpt lat="43.6699726" lon="11.2921256"><ele>250.0</ele><time>2026-04-24T15:56:47.212Z</time></trkpt><trkpt lat="43.6701295" lon="11.292103"><ele>250.0</ele><time>2026-04-24T15:56:48.211Z</time></trkpt><trkpt lat="43.6702828" lon="11.2920777"><ele>250.0</ele><time>2026-04-24T15:56:49.212Z</time></trkpt><trkpt lat="43.6704332" lon="11.2920485"><ele>250.0</ele><time>2026-04-24T15:56:50.212Z</time></trkpt><trkpt lat="43.6705892" lon="11.2920076"><ele>250.0</ele><time>2026-04-24T15:56:51.212Z</time></trkpt><trkpt lat="43.6707272" lon="11.2919964"><ele>250.0</ele><time>2026-04-24T15:56:52.212Z</time></trkpt><trkpt lat="43.6708674" lon="11.2919981"><ele>250.0</ele><time>2026-04-24T15:56:53.212Z</time></trkpt><trkpt lat="43.6710089" lon="11.292012"><ele>249.5</ele><time>2026-04-24T15:56:54.212Z</time></trkpt><trkpt lat="43.6711518" lon="11.2920395"><ele>249.0</ele><time>2026-04-24T15:56:55.212Z</time></trkpt><trkpt lat="43.6712903" lon="11.2920786"><ele>248.5</ele><time>2026-04-24T15:56:56.212Z</time></trkpt><trkpt lat="43.6714264" lon="11.2921142"><ele>248.0</ele><time>2026-04-24T15:56:57.211Z</time></trkpt><trkpt lat="43.6715657" lon="11.2921449"><ele>248.0</ele><time>2026-04-24T15:56:58.212Z</time></trkpt><trkpt lat="43.6717084" lon="11.2921791"><ele>248.0</ele><time>2026-04-24T15:56:59.212Z</time></trkpt><trkpt lat="43.6718528" lon="11.2921944"><ele>248.0</ele><time>2026-04-24T15:57:00.212Z</time></trkpt><trkpt lat="43.6719956" lon="11.292191"><ele>248.0</ele><time>2026-04-24T15:57:01.212Z</time></trkpt><trkpt lat="43.6721336" lon="11.2921593"><ele>248.5</ele><time>2026-04-24T15:57:02.212Z</time></trkpt><trkpt lat="43.672274" lon="11.2921136"><ele>249.0</ele><time>2026-04-24T15:57:03.212Z</time></trkpt><trkpt lat="43.6724256" lon="11.2920685"><ele>249.5</ele><time>2026-04-24T15:57:04.212Z</time></trkpt><trkpt lat="43.6725648" lon="11.2920154"><ele>250.0</ele><time>2026-04-24T15:57:05.211Z</time></trkpt><trkpt lat="43.6727023" lon="11.2919745"><ele>250.5</ele><time>2026-04-24T15:57:06.212Z</time></trkpt><trkpt lat="43.6728543" lon="11.2919441"><ele>251.0</ele><time>2026-04-24T15:57:07.212Z</time></trkpt><trkpt lat="43.6730044" lon="11.2919359"><ele>251.5</ele><time>2026-04-24T15:57:08.212Z</time></trkpt><trkpt lat="43.673146" lon="11.2919402"><ele>252.0</ele><time>2026-04-24T15:57:09.212Z</time></trkpt><trkpt lat="43.6732926" lon="11.2919479"><ele>252.0</ele><time>2026-04-24T15:57:10.212Z</time></trkpt><trkpt lat="43.6734383" lon="11.2919524"><ele>252.0</ele><time>2026-04-24T15:57:11.211Z</time></trkpt><trkpt lat="43.673586" lon="11.2919618"><ele>252.0</ele><time>2026-04-24T15:57:12.212Z</time></trkpt><trkpt lat="43.6737344" lon="11.2919832"><ele>252.0</ele><time>2026-04-24T15:57:13.212Z</time></trkpt><trkpt lat="43.6738774" lon="11.2919945"><ele>251.75</ele><time>2026-04-24T15:57:14.212Z</time></trkpt><trkpt lat="43.6740211" lon="11.2920048"><ele>251.5</ele><time>2026-04-24T15:57:15.212Z</time></trkpt><trkpt lat="43.674154" lon="11.2920156"><ele>251.25</ele><time>2026-04-24T15:57:16.212Z</time></trkpt><trkpt lat="43.6742859" lon="11.2920184"><ele>251.0</ele><time>2026-04-24T15:57:17.212Z</time></trkpt><trkpt lat="43.6744129" lon="11.292022"><ele>249.75</ele><time>2026-04-24T15:57:18.212Z</time></trkpt><trkpt lat="43.6745471" lon="11.2920355"><ele>248.5</ele><time>2026-04-24T15:57:19.212Z</time></trkpt><trkpt lat="43.6746861" lon="11.2920519"><ele>247.25</ele><time>2026-04-24T15:57:20.212Z</time></trkpt><trkpt lat="43.6748201" lon="11.2920882"><ele>246.0</ele><time>2026-04-24T15:57:21.212Z</time></trkpt><trkpt lat="43.6749575" lon="11.2921212"><ele>246.0</ele><time>2026-04-24T15:57:22.212Z</time></trkpt><trkpt lat="43.675098" lon="11.292137"><ele>246.0</ele><time>2026-04-24T15:57:23.212Z</time></trkpt><trkpt lat="43.6752302" lon="11.2921625"><ele>246.0</ele><time>2026-04-24T15:57:24.212Z</time></trkpt><trkpt lat="43.6753622" lon="11.2921744"><ele>246.0</ele><time>2026-04-24T15:57:25.212Z</time></trkpt><trkpt lat="43.6755019" lon="11.2921862"><ele>247.0</ele><time>2026-04-24T15:57:26.211Z</time></trkpt><trkpt lat="43.6756428" lon="11.2922138"><ele>248.0</ele><time>2026-04-24T15:57:27.212Z</time></trkpt><trkpt lat="43.6757806" lon="11.2922573"><ele>249.0</ele><time>2026-04-24T15:57:28.211Z</time></trkpt><trkpt lat="43.6759201" lon="11.2923255"><ele>250.0</ele><time>2026-04-24T15:57:29.212Z</time></trkpt><trkpt lat="43.6760589" lon="11.2924058"><ele>247.0</ele><time>2026-04-24T15:57:30.212Z</time></trkpt><trkpt lat="43.6761987" lon="11.2925097"><ele>244.0</ele><time>2026-04-24T15:57:31.212Z</time></trkpt><trkpt lat="43.6763296" lon="11.2926083"><ele>241.0</ele><time>2026-04-24T15:57:32.212Z</time></trkpt><trkpt lat="43.6764677" lon="11.2926932"><ele>241.0</ele><time>2026-04-24T15:57:33.212Z</time></trkpt><trkpt lat="43.676616" lon="11.2927626"><ele>241.0</ele><time>2026-04-24T15:57:34.212Z</time></trkpt><trkpt lat="43.6767676" lon="11.2928144"><ele>241.0</ele><time>2026-04-24T15:57:35.212Z</time></trkpt><trkpt lat="43.6769317" lon="11.2928456"><ele>240.0</ele><time>2026-04-24T15:57:36.211Z</time></trkpt><trkpt lat="43.6771053" lon="11.2928493"><ele>239.0</ele><time>2026-04-24T15:57:37.212Z</time></trkpt><trkpt lat="43.6772817" lon="11.2928484"><ele>238.0</ele><time>2026-04-24T15:57:38.212Z</time></trkpt><trkpt lat="43.6774624" lon="11.2928559"><ele>238.0</ele><time>2026-04-24T15:57:39.212Z</time></trkpt><trkpt lat="43.6776529" lon="11.2928621"><ele>238.0</ele><time>2026-04-24T15:57:40.212Z</time></trkpt><trkpt lat="43.677834" lon="11.29286"><ele>238.0</ele><time>2026-04-24T15:57:41.211Z</time></trkpt><trkpt lat="43.6780131" lon="11.2928597"><ele>239.33333333333331</ele><time>2026-04-24T15:57:42.211Z</time></trkpt><trkpt lat="43.6781987" lon="11.2928672"><ele>240.66666666666669</ele><time>2026-04-24T15:57:43.211Z</time></trkpt><trkpt lat="43.6783786" lon="11.2928629"><ele>242.0</ele><time>2026-04-24T15:57:44.211Z</time></trkpt><trkpt lat="43.6785537" lon="11.292864"><ele>239.66666666666669</ele><time>2026-04-24T15:57:45.212Z</time></trkpt><trkpt lat="43.6787318" lon="11.2928662"><ele>237.33333333333331</ele><time>2026-04-24T15:57:46.212Z</time></trkpt><trkpt lat="43.6789073" lon="11.292867"><ele>235.0</ele><time>2026-04-24T15:57:47.212Z</time></trkpt><trkpt lat="43.6790831" lon="11.2928677"><ele>235.0</ele><time>2026-04-24T15:57:48.211Z</time></trkpt><trkpt lat="43.6792625" lon="11.292867"><ele>235.0</ele><time>2026-04-24T15:57:49.212Z</time></trkpt><trkpt lat="43.6794432" lon="11.2928714"><ele>235.0</ele><time>2026-04-24T15:57:50.211Z</time></trkpt><trkpt lat="43.6796161" lon="11.292869"><ele>234.33333333333331</ele><time>2026-04-24T15:57:51.211Z</time></trkpt><trkpt lat="43.6797882" lon="11.2928696"><ele>233.66666666666669</ele><time>2026-04-24T15:57:52.212Z</time></trkpt><trkpt lat="43.6799606" lon="11.2928721"><ele>233.0</ele><time>2026-04-24T15:57:53.212Z</time></trkpt><trkpt lat="43.6801364" lon="11.2928696"><ele>233.33333333333334</ele><time>2026-04-24T15:57:54.212Z</time></trkpt><trkpt lat="43.6803166" lon="11.2928706"><ele>233.66666666666669</ele><time>2026-04-24T15:57:55.212Z</time></trkpt><trkpt lat="43.6804933" lon="11.2928705"><ele>234.0</ele><time>2026-04-24T15:57:56.212Z</time></trkpt><trkpt lat="43.6806683" lon="11.2928732"><ele>234.0</ele><time>2026-04-24T15:57:57.212Z</time></trkpt><trkpt lat="43.6808466" lon="11.2928797"><ele>234.0</ele><time>2026-04-24T15:57:58.212Z</time></trkpt><trkpt lat="43.6810314" lon="11.2929086"><ele>234.0</ele><time>2026-04-24T15:57:59.212Z</time></trkpt><trkpt lat="43.6812165" lon="11.2929345"><ele>234.0</ele><time>2026-04-24T15:58:00.212Z</time></trkpt><trkpt lat="43.6813884" lon="11.2929574"><ele>234.0</ele><time>2026-04-24T15:58:01.212Z</time></trkpt><trkpt lat="43.6815539" lon="11.2929955"><ele>234.0</ele><time>2026-04-24T15:58:02.212Z</time></trkpt><trkpt lat="43.6817194" lon="11.2930264"><ele>234.0</ele><time>2026-04-24T15:58:03.212Z</time></trkpt><trkpt lat="43.681887" lon="11.2930643"><ele>234.0</ele><time>2026-04-24T15:58:04.212Z</time></trkpt><trkpt lat="43.6820525" lon="11.2931174"><ele>234.0</ele><time>2026-04-24T15:58:05.212Z</time></trkpt><trkpt lat="43.682206" lon="11.2931751"><ele>232.33333333333331</ele><time>2026-04-24T15:58:06.211Z</time></trkpt><trkpt lat="43.682365" lon="11.2932344"><ele>230.66666666666666</ele><time>2026-04-24T15:58:07.212Z</time></trkpt><trkpt lat="43.6825197" lon="11.2933029"><ele>229.0</ele><time>2026-04-24T15:58:08.211Z</time></trkpt><trkpt lat="43.6826752" lon="11.2933666"><ele>228.0</ele><time>2026-04-24T15:58:09.212Z</time></trkpt><trkpt lat="43.6828337" lon="11.2934323"><ele>227.0</ele><time>2026-04-24T15:58:10.212Z</time></trkpt><trkpt lat="43.68299" lon="11.2935013"><ele>226.0</ele><time>2026-04-24T15:58:11.211Z</time></trkpt><trkpt lat="43.6831368" lon="11.2935719"><ele>226.0</ele><time>2026-04-24T15:58:12.211Z</time></trkpt><trkpt lat="43.6832876" lon="11.2936319"><ele>226.0</ele><time>2026-04-24T15:58:13.212Z</time></trkpt><trkpt lat="43.6834288" lon="11.2936904"><ele>226.0</ele><time>2026-04-24T15:58:14.212Z</time></trkpt><trkpt lat="43.6835753" lon="11.2937415"><ele>226.0</ele><time>2026-04-24T15:58:15.212Z</time></trkpt><trkpt lat="43.6837036" lon="11.293793"><ele>226.0</ele><time>2026-04-24T15:58:16.212Z</time></trkpt><trkpt lat="43.6838205" lon="11.2938542"><ele>226.0</ele><time>2026-04-24T15:58:17.212Z</time></trkpt><trkpt lat="43.6839491" lon="11.2939236"><ele>226.0</ele><time>2026-04-24T15:58:18.211Z</time></trkpt><trkpt lat="43.684059" lon="11.2940174"><ele>226.0</ele><time>2026-04-24T15:58:19.211Z</time></trkpt><trkpt lat="43.6841658" lon="11.2941249"><ele>226.0</ele><time>2026-04-24T15:58:20.211Z</time></trkpt><trkpt lat="43.6842677" lon="11.294258"><ele>226.0</ele><time>2026-04-24T15:58:21.211Z</time></trkpt><trkpt lat="43.6843267" lon="11.2944084"><ele>226.0</ele><time>2026-04-24T15:58:22.212Z</time></trkpt><trkpt lat="43.6843813" lon="11.2945674"><ele>225.75</ele><time>2026-04-24T15:58:23.211Z</time></trkpt><trkpt lat="43.6844333" lon="11.2947328"><ele>225.5</ele><time>2026-04-24T15:58:24.211Z</time></trkpt><trkpt lat="43.684496" lon="11.2948944"><ele>225.25</ele><time>2026-04-24T15:58:25.212Z</time></trkpt><trkpt lat="43.6845676" lon="11.2950654"><ele>225.0</ele><time>2026-04-24T15:58:26.21Z</time></trkpt><trkpt lat="43.6846435" lon="11.2952267"><ele>225.0</ele><time>2026-04-24T15:58:27.212Z</time></trkpt><trkpt lat="43.6847295" lon="11.2953735"><ele>225.0</ele><time>2026-04-24T15:58:28.212Z</time></trkpt><trkpt lat="43.6848327" lon="11.2955063"><ele>225.0</ele><time>2026-04-24T15:58:29.212Z</time></trkpt><trkpt lat="43.6849533" lon="11.295619"><ele>225.0</ele><time>2026-04-24T15:58:30.212Z</time></trkpt><trkpt lat="43.685081" lon="11.29573"><ele>223.75</ele><time>2026-04-24T15:58:31.212Z</time></trkpt><trkpt lat="43.6851973" lon="11.2958407"><ele>222.5</ele><time>2026-04-24T15:58:32.212Z</time></trkpt><trkpt lat="43.6853119" lon="11.2959477"><ele>221.25</ele><time>2026-04-24T15:58:33.212Z</time></trkpt><trkpt lat="43.6854452" lon="11.2960463"><ele>220.0</ele><time>2026-04-24T15:58:34.212Z</time></trkpt><trkpt lat="43.6855757" lon="11.2961495"><ele>218.25</ele><time>2026-04-24T15:58:35.212Z</time></trkpt><trkpt lat="43.6857074" lon="11.296233"><ele>216.5</ele><time>2026-04-24T15:58:36.211Z</time></trkpt><trkpt lat="43.6858431" lon="11.2962891"><ele>214.75</ele><time>2026-04-24T15:58:37.211Z</time></trkpt><trkpt lat="43.6859814" lon="11.2963171"><ele>213.0</ele><time>2026-04-24T15:58:38.211Z</time></trkpt><trkpt lat="43.686127" lon="11.2963458"><ele>210.75</ele><time>2026-04-24T15:58:39.211Z</time></trkpt><trkpt lat="43.6862704" lon="11.2963573"><ele>208.5</ele><time>2026-04-24T15:58:40.212Z</time></trkpt><trkpt lat="43.6864085" lon="11.2963744"><ele>206.25</ele><time>2026-04-24T15:58:41.211Z</time></trkpt><trkpt lat="43.6865528" lon="11.2963849"><ele>204.0</ele><time>2026-04-24T15:58:42.212Z</time></trkpt><trkpt lat="43.6866965" lon="11.2963832"><ele>204.0</ele><time>2026-04-24T15:58:43.212Z</time></trkpt><trkpt lat="43.6868348" lon="11.2963819"><ele>204.0</ele><time>2026-04-24T15:58:44.211Z</time></trkpt><trkpt lat="43.6869755" lon="11.2963653"><ele>204.0</ele><time>2026-04-24T15:58:45.212Z</time></trkpt><trkpt lat="43.6871125" lon="11.2963409"><ele>204.0</ele><time>2026-04-24T15:58:46.212Z</time></trkpt><trkpt lat="43.6872537" lon="11.2963048"><ele>202.66666666666669</ele><time>2026-04-24T15:58:47.211Z</time></trkpt><trkpt lat="43.6873999" lon="11.2962716"><ele>201.33333333333334</ele><time>2026-04-24T15:58:48.211Z</time></trkpt><trkpt lat="43.6875535" lon="11.296234"><ele>200.0</ele><time>2026-04-24T15:58:49.212Z</time></trkpt><trkpt lat="43.6877064" lon="11.2961957"><ele>201.66666666666669</ele><time>2026-04-24T15:58:50.212Z</time></trkpt><trkpt lat="43.6878598" lon="11.2961544"><ele>203.33333333333331</ele><time>2026-04-24T15:58:51.212Z</time></trkpt><trkpt lat="43.688014" lon="11.2961111"><ele>205.0</ele><time>2026-04-24T15:58:52.212Z</time></trkpt><trkpt lat="43.6881669" lon="11.2960783"><ele>205.0</ele><time>2026-04-24T15:58:53.211Z</time></trkpt><trkpt lat="43.6883223" lon="11.2960423"><ele>205.0</ele><time>2026-04-24T15:58:54.211Z</time></trkpt><trkpt lat="43.6884776" lon="11.2960033"><ele>205.0</ele><time>2026-04-24T15:58:55.212Z</time></trkpt><trkpt lat="43.6886301" lon="11.2959845"><ele>206.66666666666666</ele><time>2026-04-24T15:58:56.211Z</time></trkpt><trkpt lat="43.6887869" lon="11.2959899"><ele>208.33333333333331</ele><time>2026-04-24T15:58:57.212Z</time></trkpt><trkpt lat="43.6889454" lon="11.2960043"><ele>210.0</ele><time>2026-04-24T15:58:58.212Z</time></trkpt><trkpt lat="43.6891034" lon="11.2960226"><ele>210.0</ele><time>2026-04-24T15:58:59.212Z</time></trkpt><trkpt lat="43.6892638" lon="11.2960378"><ele>210.0</ele><time>2026-04-24T15:59:00.212Z</time></trkpt><trkpt lat="43.689424" lon="11.2960356"><ele>210.0</ele><time>2026-04-24T15:59:01.211Z</time></trkpt><trkpt lat="43.6895772" lon="11.2960254"><ele>209.33333333333331</ele><time>2026-04-24T15:59:02.212Z</time></trkpt><trkpt lat="43.689732" lon="11.2959985"><ele>208.66666666666666</ele><time>2026-04-24T15:59:03.212Z</time></trkpt><trkpt lat="43.6898889" lon="11.2959518"><ele>208.0</ele><time>2026-04-24T15:59:04.212Z</time></trkpt><trkpt lat="43.6900447" lon="11.2958915"><ele>208.0</ele><time>2026-04-24T15:59:05.212Z</time></trkpt><trkpt lat="43.6902007" lon="11.2958267"><ele>208.0</ele><time>2026-04-24T15:59:06.211Z</time></trkpt><trkpt lat="43.6903568" lon="11.2957594"><ele>208.0</ele><time>2026-04-24T15:59:07.212Z</time></trkpt><trkpt lat="43.6905088" lon="11.2956911"><ele>206.66666666666666</ele><time>2026-04-24T15:59:08.212Z</time></trkpt><trkpt lat="43.690657" lon="11.2956168"><ele>205.33333333333331</ele><time>2026-04-24T15:59:09.212Z</time></trkpt><trkpt lat="43.6908059" lon="11.2955485"><ele>204.0</ele><time>2026-04-24T15:59:10.212Z</time></trkpt><trkpt lat="43.6909514" lon="11.2954765"><ele>203.5</ele><time>2026-04-24T15:59:11.212Z</time></trkpt><trkpt lat="43.6910961" lon="11.2954035"><ele>203.0</ele><time>2026-04-24T15:59:12.212Z</time></trkpt><trkpt lat="43.691231" lon="11.2953216"><ele>202.5</ele><time>2026-04-24T15:59:13.211Z</time></trkpt><trkpt lat="43.6913632" lon="11.2952427"><ele>202.0</ele><time>2026-04-24T15:59:14.212Z</time></trkpt><trkpt lat="43.6914905" lon="11.2951489"><ele>202.0</ele><time>2026-04-24T15:59:15.212Z</time></trkpt><trkpt lat="43.6916147" lon="11.2950512"><ele>202.0</ele><time>2026-04-24T15:59:16.212Z</time></trkpt><trkpt lat="43.6917322" lon="11.2949526"><ele>202.0</ele><time>2026-04-24T15:59:17.212Z</time></trkpt><trkpt lat="43.6918412" lon="11.2948712"><ele>202.0</ele><time>2026-04-24T15:59:18.212Z</time></trkpt><trkpt lat="43.6919542" lon="11.2948023"><ele>201.75</ele><time>2026-04-24T15:59:19.212Z</time></trkpt><trkpt lat="43.6920734" lon="11.2947808"><ele>201.5</ele><time>2026-04-24T15:59:20.212Z</time></trkpt><trkpt lat="43.6922057" lon="11.2947958"><ele>201.25</ele><time>2026-04-24T15:59:21.212Z</time></trkpt><trkpt lat="43.6923256" lon="11.2948248"><ele>201.0</ele><time>2026-04-24T15:59:22.212Z</time></trkpt><trkpt lat="43.6924419" lon="11.2948749"><ele>201.0</ele><time>2026-04-24T15:59:23.212Z</time></trkpt><trkpt lat="43.6925498" lon="11.2949273"><ele>201.0</ele><time>2026-04-24T15:59:24.212Z</time></trkpt><trkpt lat="43.6926588" lon="11.2949431"><ele>201.0</ele><time>2026-04-24T15:59:25.212Z</time></trkpt><trkpt lat="43.6927681" lon="11.2949184"><ele>201.0</ele><time>2026-04-24T15:59:26.212Z</time></trkpt><trkpt lat="43.692861" lon="11.2948635"><ele>201.0</ele><time>2026-04-24T15:59:27.211Z</time></trkpt><trkpt lat="43.6929467" lon="11.2947702"><ele>200.5</ele><time>2026-04-24T15:59:28.212Z</time></trkpt><trkpt lat="43.6929887" lon="11.2946409"><ele>200.0</ele><time>2026-04-24T15:59:29.212Z</time></trkpt><trkpt lat="43.6930171" lon="11.2944651"><ele>199.5</ele><time>2026-04-24T15:59:30.212Z</time></trkpt><trkpt lat="43.6930467" lon="11.2943076"><ele>199.0</ele><time>2026-04-24T15:59:31.212Z</time></trkpt><trkpt lat="43.6930707" lon="11.2941242"><ele>199.0</ele><time>2026-04-24T15:59:32.212Z</time></trkpt><trkpt lat="43.6931211" lon="11.2939777"><ele>199.0</ele><time>2026-04-24T15:59:33.212Z</time></trkpt><trkpt lat="43.6931957" lon="11.2938362"><ele>199.0</ele><time>2026-04-24T15:59:34.212Z</time></trkpt><trkpt lat="43.6932855" lon="11.2937088"><ele>199.0</ele><time>2026-04-24T15:59:35.212Z</time></trkpt><trkpt lat="43.6933869" lon="11.2936009"><ele>199.75</ele><time>2026-04-24T15:59:36.212Z</time></trkpt><trkpt lat="43.6934942" lon="11.2935298"><ele>200.5</ele><time>2026-04-24T15:59:37.212Z</time></trkpt><trkpt lat="43.6936057" lon="11.2934748"><ele>201.25</ele><time>2026-04-24T15:59:38.212Z</time></trkpt><trkpt lat="43.6937011" lon="11.2934001"><ele>202.0</ele><time>2026-04-24T15:59:39.212Z</time></trkpt><trkpt lat="43.6937957" lon="11.2932858"><ele>202.0</ele><time>2026-04-24T15:59:40.211Z</time></trkpt><trkpt lat="43.6938569" lon="11.2931403"><ele>202.0</ele><time>2026-04-24T15:59:41.212Z</time></trkpt><trkpt lat="43.6939449" lon="11.2930315"><ele>202.0</ele><time>2026-04-24T15:59:42.212Z</time></trkpt><trkpt lat="43.694043" lon="11.2929382"><ele>202.0</ele><time>2026-04-24T15:59:43.212Z</time></trkpt><trkpt lat="43.6941547" lon="11.2928609"><ele>203.5</ele><time>2026-04-24T15:59:44.212Z</time></trkpt><trkpt lat="43.6942839" lon="11.2928464"><ele>205.0</ele><time>2026-04-24T15:59:45.212Z</time></trkpt><trkpt lat="43.6944279" lon="11.2928476"><ele>206.5</ele><time>2026-04-24T15:59:46.211Z</time></trkpt><trkpt lat="43.6945751" lon="11.2928484"><ele>208.0</ele><time>2026-04-24T15:59:47.212Z</time></trkpt><trkpt lat="43.6947105" lon="11.2928456"><ele>208.0</ele><time>2026-04-24T15:59:48.212Z</time></trkpt><trkpt lat="43.69487" lon="11.2928533"><ele>208.0</ele><time>2026-04-24T15:59:49.212Z</time></trkpt><trkpt lat="43.6950266" lon="11.2928614"><ele>208.0</ele><time>2026-04-24T15:59:50.211Z</time></trkpt><trkpt lat="43.6951887" lon="11.2928835"><ele>207.66666666666666</ele><time>2026-04-24T15:59:51.212Z</time></trkpt><trkpt lat="43.6953437" lon="11.292917"><ele>207.33333333333331</ele><time>2026-04-24T15:59:52.211Z</time></trkpt><trkpt lat="43.6954992" lon="11.2929594"><ele>207.0</ele><time>2026-04-24T15:59:53.211Z</time></trkpt><trkpt lat="43.695656" lon="11.2930041"><ele>207.0</ele><time>2026-04-24T15:59:54.212Z</time></trkpt><trkpt lat="43.6958214" lon="11.2930667"><ele>207.0</ele><time>2026-04-24T15:59:55.212Z</time></trkpt><trkpt lat="43.6959896" lon="11.2931225"><ele>207.0</ele><time>2026-04-24T15:59:56.212Z</time></trkpt><trkpt lat="43.6961681" lon="11.2931763"><ele>205.66666666666669</ele><time>2026-04-24T15:59:57.212Z</time></trkpt><trkpt lat="43.6963495" lon="11.2932287"><ele>204.33333333333334</ele><time>2026-04-24T15:59:58.212Z</time></trkpt><trkpt lat="43.69654" lon="11.2932715"><ele>203.0</ele><time>2026-04-24T15:59:59.212Z</time></trkpt><trkpt lat="43.6967305" lon="11.293309"><ele>203.0</ele><time>2026-04-24T16:00:00.212Z</time></trkpt><trkpt lat="43.6969138" lon="11.2933431"><ele>203.0</ele><time>2026-04-24T16:00:01.212Z</time></trkpt><trkpt lat="43.6970928" lon="11.2933789"><ele>203.0</ele><time>2026-04-24T16:00:02.211Z</time></trkpt><trkpt lat="43.6972686" lon="11.2934083"><ele>202.66666666666669</ele><time>2026-04-24T16:00:03.212Z</time></trkpt><trkpt lat="43.6974381" lon="11.2934288"><ele>202.33333333333331</ele><time>2026-04-24T16:00:04.212Z</time></trkpt><trkpt lat="43.6976174" lon="11.2934358"><ele>202.0</ele><time>2026-04-24T16:00:05.212Z</time></trkpt><trkpt lat="43.6977726" lon="11.2934263"><ele>203.0</ele><time>2026-04-24T16:00:06.212Z</time></trkpt><trkpt lat="43.6979297" lon="11.2934116"><ele>204.0</ele><time>2026-04-24T16:00:07.212Z</time></trkpt><trkpt lat="43.6981008" lon="11.2934096"><ele>205.0</ele><time>2026-04-24T16:00:08.211Z</time></trkpt><trkpt lat="43.698252" lon="11.2934092"><ele>205.0</ele><time>2026-04-24T16:00:09.212Z</time></trkpt><trkpt lat="43.6984082" lon="11.2934098"><ele>205.0</ele><time>2026-04-24T16:00:10.212Z</time></trkpt><trkpt lat="43.6985721" lon="11.2933831"><ele>205.0</ele><time>2026-04-24T16:00:11.211Z</time></trkpt><trkpt lat="43.6987302" lon="11.2933656"><ele>204.33333333333331</ele><time>2026-04-24T16:00:12.212Z</time></trkpt><trkpt lat="43.6988804" lon="11.2933336"><ele>203.66666666666669</ele><time>2026-04-24T16:00:13.212Z</time></trkpt><trkpt lat="43.6990392" lon="11.2932818"><ele>203.0</ele><time>2026-04-24T16:00:14.212Z</time></trkpt><trkpt lat="43.6992038" lon="11.2932287"><ele>203.0</ele><time>2026-04-24T16:00:15.212Z</time></trkpt><trkpt lat="43.6993552" lon="11.2931877"><ele>203.0</ele><time>2026-04-24T16:00:16.212Z</time></trkpt><trkpt lat="43.6994932" lon="11.2931279"><ele>203.0</ele><time>2026-04-24T16:00:17.212Z</time></trkpt><trkpt lat="43.6996217" lon="11.293086"><ele>203.0</ele><time>2026-04-24T16:00:18.211Z</time></trkpt><trkpt lat="43.6997594" lon="11.2930436"><ele>203.0</ele><time>2026-04-24T16:00:19.212Z</time></trkpt><trkpt lat="43.6998924" lon="11.2930193"><ele>203.0</ele><time>2026-04-24T16:00:20.212Z</time></trkpt><trkpt lat="43.7000263" lon="11.2930045"><ele>203.0</ele><time>2026-04-24T16:00:21.211Z</time></trkpt><trkpt lat="43.7001715" lon="11.29299"><ele>203.0</ele><time>2026-04-24T16:00:22.212Z</time></trkpt><trkpt lat="43.7003149" lon="11.2930004"><ele>203.25</ele><time>2026-04-24T16:00:23.211Z</time></trkpt><trkpt lat="43.7004566" lon="11.2930211"><ele>203.5</ele><time>2026-04-24T16:00:24.212Z</time></trkpt><trkpt lat="43.7006007" lon="11.29304"><ele>203.75</ele><time>2026-04-24T16:00:25.211Z</time></trkpt><trkpt lat="43.7007435" lon="11.293049"><ele>204.0</ele><time>2026-04-24T16:00:26.212Z</time></trkpt><trkpt lat="43.7008793" lon="11.2930513"><ele>204.0</ele><time>2026-04-24T16:00:27.211Z</time></trkpt><trkpt lat="43.7010269" lon="11.2930726"><ele>204.0</ele><time>2026-04-24T16:00:28.212Z</time></trkpt><trkpt lat="43.7011702" lon="11.2930847"><ele>204.0</ele><time>2026-04-24T16:00:29.212Z</time></trkpt><trkpt lat="43.7013216" lon="11.2931126"><ele>204.0</ele><time>2026-04-24T16:00:30.211Z</time></trkpt><trkpt lat="43.7014686" lon="11.2931279"><ele>202.66666666666669</ele><time>2026-04-24T16:00:31.212Z</time></trkpt><trkpt lat="43.7016197" lon="11.2931475"><ele>201.33333333333334</ele><time>2026-04-24T16:00:32.212Z</time></trkpt><trkpt lat="43.7017726" lon="11.2931729"><ele>200.0</ele><time>2026-04-24T16:00:33.212Z</time></trkpt><trkpt lat="43.701919" lon="11.2931918"><ele>199.5</ele><time>2026-04-24T16:00:34.211Z</time></trkpt><trkpt lat="43.7020712" lon="11.2932109"><ele>199.0</ele><time>2026-04-24T16:00:35.211Z</time></trkpt><trkpt lat="43.7022258" lon="11.2932346"><ele>198.5</ele><time>2026-04-24T16:00:36.212Z</time></trkpt><trkpt lat="43.7023647" lon="11.2932495"><ele>198.0</ele><time>2026-04-24T16:00:37.212Z</time></trkpt><trkpt lat="43.7024997" lon="11.2932677"><ele>198.0</ele><time>2026-04-24T16:00:38.211Z</time></trkpt><trkpt lat="43.7026477" lon="11.2932747"><ele>198.0</ele><time>2026-04-24T16:00:39.212Z</time></trkpt><trkpt lat="43.7027855" lon="11.2932643"><ele>198.0</ele><time>2026-04-24T16:00:40.212Z</time></trkpt><trkpt lat="43.7029364" lon="11.2932534"><ele>198.0</ele><time>2026-04-24T16:00:41.212Z</time></trkpt><trkpt lat="43.7030894" lon="11.2932384"><ele>198.5</ele><time>2026-04-24T16:00:42.211Z</time></trkpt><trkpt lat="43.7032385" lon="11.2932212"><ele>199.0</ele><time>2026-04-24T16:00:43.212Z</time></trkpt><trkpt lat="43.7033789" lon="11.293204"><ele>199.5</ele><time>2026-04-24T16:00:44.212Z</time></trkpt><trkpt lat="43.7035199" lon="11.2931735"><ele>200.0</ele><time>2026-04-24T16:00:45.212Z</time></trkpt><trkpt lat="43.7036534" lon="11.2931392"><ele>200.25</ele><time>2026-04-24T16:00:46.212Z</time></trkpt><trkpt lat="43.7037832" lon="11.2930919"><ele>200.5</ele><time>2026-04-24T16:00:47.212Z</time></trkpt><trkpt lat="43.7039059" lon="11.2930134"><ele>200.75</ele><time>2026-04-24T16:00:48.212Z</time></trkpt><trkpt lat="43.7040189" lon="11.2929324"><ele>201.0</ele><time>2026-04-24T16:00:49.212Z</time></trkpt><trkpt lat="43.7041252" lon="11.2928534"><ele>201.0</ele><time>2026-04-24T16:00:50.212Z</time></trkpt><trkpt lat="43.7042203" lon="11.2927894"><ele>201.0</ele><time>2026-04-24T16:00:51.212Z</time></trkpt><trkpt lat="43.7042961" lon="11.2927"><ele>201.0</ele><time>2026-04-24T16:00:52.212Z</time></trkpt><trkpt lat="43.704374" lon="11.2926425"><ele>201.0</ele><time>2026-04-24T16:00:53.212Z</time></trkpt><trkpt lat="43.7044637" lon="11.2925724"><ele>201.0</ele><time>2026-04-24T16:00:54.212Z</time></trkpt><trkpt lat="43.704543" lon="11.292517"><ele>201.0</ele><time>2026-04-24T16:00:55.212Z</time></trkpt><trkpt lat="43.7046341" lon="11.2924228"><ele>201.0</ele><time>2026-04-24T16:00:56.212Z</time></trkpt><trkpt lat="43.7047146" lon="11.2923489"><ele>201.0</ele><time>2026-04-24T16:00:57.212Z</time></trkpt><trkpt lat="43.7047986" lon="11.2922665"><ele>201.0</ele><time>2026-04-24T16:00:58.212Z</time></trkpt><trkpt lat="43.7048649" lon="11.2921745"><ele>201.0</ele><time>2026-04-24T16:00:59.212Z</time></trkpt><trkpt lat="43.7049261" lon="11.2920788"><ele>200.33333333333334</ele><time>2026-04-24T16:01:00.211Z</time></trkpt><trkpt lat="43.7049798" lon="11.2920119"><ele>199.66666666666669</ele><time>2026-04-24T16:01:01.211Z</time></trkpt><trkpt lat="43.7050365" lon="11.2919413"><ele>199.0</ele><time>2026-04-24T16:01:02.212Z</time></trkpt><trkpt lat="43.7051013" lon="11.2918686"><ele>198.33333333333334</ele><time>2026-04-24T16:01:03.212Z</time></trkpt><trkpt lat="43.7051788" lon="11.2917713"><ele>197.66666666666669</ele><time>2026-04-24T16:01:04.212Z</time></trkpt><trkpt lat="43.7052661" lon="11.2916748"><ele>197.0</ele><time>2026-04-24T16:01:05.212Z</time></trkpt><trkpt lat="43.7053626" lon="11.2915469"><ele>197.0</ele><time>2026-04-24T16:01:06.211Z</time></trkpt><trkpt lat="43.7054601" lon="11.2914301"><ele>197.0</ele><time>2026-04-24T16:01:07.212Z</time></trkpt><trkpt lat="43.705555" lon="11.2912899"><ele>197.0</ele><time>2026-04-24T16:01:08.212Z</time></trkpt><trkpt lat="43.7056555" lon="11.2911638"><ele>197.0</ele><time>2026-04-24T16:01:09.212Z</time></trkpt><trkpt lat="43.7057578" lon="11.2910426"><ele>196.75</ele><time>2026-04-24T16:01:10.212Z</time></trkpt><trkpt lat="43.7058553" lon="11.2908826"><ele>196.5</ele><time>2026-04-24T16:01:11.212Z</time></trkpt><trkpt lat="43.7059605" lon="11.2907473"><ele>196.25</ele><time>2026-04-24T16:01:12.212Z</time></trkpt><trkpt lat="43.7060641" lon="11.2906087"><ele>196.0</ele><time>2026-04-24T16:01:13.212Z</time></trkpt><trkpt lat="43.7061704" lon="11.2904705"><ele>195.0</ele><time>2026-04-24T16:01:14.211Z</time></trkpt><trkpt lat="43.7062743" lon="11.2903313"><ele>194.0</ele><time>2026-04-24T16:01:15.212Z</time></trkpt><trkpt lat="43.706376" lon="11.2901915"><ele>193.0</ele><time>2026-04-24T16:01:16.211Z</time></trkpt><trkpt lat="43.7064773" lon="11.2900721"><ele>192.0</ele><time>2026-04-24T16:01:17.211Z</time></trkpt><trkpt lat="43.706572" lon="11.2899306"><ele>192.0</ele><time>2026-04-24T16:01:18.211Z</time></trkpt><trkpt lat="43.7066545" lon="11.2898025"><ele>192.0</ele><time>2026-04-24T16:01:19.212Z</time></trkpt><trkpt lat="43.7067685" lon="11.289723"><ele>192.0</ele><time>2026-04-24T16:01:20.212Z</time></trkpt><trkpt lat="43.7068758" lon="11.2896625"><ele>192.0</ele><time>2026-04-24T16:01:21.212Z</time></trkpt><trkpt lat="43.7070059" lon="11.2896241"><ele>189.75</ele><time>2026-04-24T16:01:22.211Z</time></trkpt><trkpt lat="43.7071391" lon="11.2895915"><ele>187.5</ele><time>2026-04-24T16:01:23.212Z</time></trkpt><trkpt lat="43.7072752" lon="11.2895684"><ele>185.25</ele><time>2026-04-24T16:01:24.211Z</time></trkpt><trkpt lat="43.7074162" lon="11.2895464"><ele>183.0</ele><time>2026-04-24T16:01:25.212Z</time></trkpt><trkpt lat="43.7075606" lon="11.2895321"><ele>183.0</ele><time>2026-04-24T16:01:26.211Z</time></trkpt><trkpt lat="43.707705" lon="11.2895155"><ele>183.0</ele><time>2026-04-24T16:01:27.212Z</time></trkpt><trkpt lat="43.7078538" lon="11.289485"><ele>183.0</ele><time>2026-04-24T16:01:28.212Z</time></trkpt><trkpt lat="43.7080051" lon="11.2894658"><ele>183.0</ele><time>2026-04-24T16:01:29.212Z</time></trkpt><trkpt lat="43.7081535" lon="11.2894489"><ele>183.5</ele><time>2026-04-24T16:01:30.211Z</time></trkpt><trkpt lat="43.7082984" lon="11.2894393"><ele>184.0</ele><time>2026-04-24T16:01:31.212Z</time></trkpt><trkpt lat="43.7084369" lon="11.2894238"><ele>184.5</ele><time>2026-04-24T16:01:32.212Z</time></trkpt><trkpt lat="43.7085625" lon="11.2894366"><ele>185.0</ele><time>2026-04-24T16:01:33.211Z</time></trkpt><trkpt lat="43.7087187" lon="11.2894934"><ele>185.0</ele><time>2026-04-24T16:01:34.212Z</time></trkpt><trkpt lat="43.7088671" lon="11.2895591"><ele>185.0</ele><time>2026-04-24T16:01:35.212Z</time></trkpt><trkpt lat="43.7090102" lon="11.2896375"><ele>185.0</ele><time>2026-04-24T16:01:36.212Z</time></trkpt><trkpt lat="43.709151" lon="11.289736"><ele>185.33333333333331</ele><time>2026-04-24T16:01:37.212Z</time></trkpt><trkpt lat="43.7092939" lon="11.289836"><ele>185.66666666666666</ele><time>2026-04-24T16:01:38.212Z</time></trkpt><trkpt lat="43.7094313" lon="11.289959"><ele>186.0</ele><time>2026-04-24T16:01:39.211Z</time></trkpt><trkpt lat="43.7095619" lon="11.2900806"><ele>185.33333333333334</ele><time>2026-04-24T16:01:40.212Z</time></trkpt><trkpt lat="43.709694" lon="11.290183"><ele>184.66666666666669</ele><time>2026-04-24T16:01:41.211Z</time></trkpt><trkpt lat="43.7098318" lon="11.2902707"><ele>184.0</ele><time>2026-04-24T16:01:42.212Z</time></trkpt><trkpt lat="43.7099769" lon="11.2903645"><ele>184.0</ele><time>2026-04-24T16:01:43.212Z</time></trkpt><trkpt lat="43.7101172" lon="11.2904327"><ele>184.0</ele><time>2026-04-24T16:01:44.212Z</time></trkpt><trkpt lat="43.7102578" lon="11.2904953"><ele>184.0</ele><time>2026-04-24T16:01:45.212Z</time></trkpt><trkpt lat="43.7103952" lon="11.2905487"><ele>184.0</ele><time>2026-04-24T16:01:46.211Z</time></trkpt><trkpt lat="43.7105328" lon="11.2906054"><ele>183.5</ele><time>2026-04-24T16:01:47.211Z</time></trkpt><trkpt lat="43.7106726" lon="11.2906509"><ele>183.0</ele><time>2026-04-24T16:01:48.212Z</time></trkpt><trkpt lat="43.7108124" lon="11.2906981"><ele>182.5</ele><time>2026-04-24T16:01:49.212Z</time></trkpt><trkpt lat="43.7109537" lon="11.29072"><ele>182.0</ele><time>2026-04-24T16:01:50.212Z</time></trkpt><trkpt lat="43.7110912" lon="11.2907277"><ele>182.0</ele><time>2026-04-24T16:01:51.212Z</time></trkpt><trkpt lat="43.7112395" lon="11.2907283"><ele>182.0</ele><time>2026-04-24T16:01:52.212Z</time></trkpt><trkpt lat="43.7113868" lon="11.2907212"><ele>182.0</ele><time>2026-04-24T16:01:53.212Z</time></trkpt><trkpt lat="43.7115397" lon="11.2906988"><ele>182.0</ele><time>2026-04-24T16:01:54.212Z</time></trkpt><trkpt lat="43.7116924" lon="11.2906243"><ele>181.33333333333331</ele><time>2026-04-24T16:01:55.212Z</time></trkpt><trkpt lat="43.7118419" lon="11.2905767"><ele>180.66666666666666</ele><time>2026-04-24T16:01:56.212Z</time></trkpt><trkpt lat="43.711997" lon="11.2905374"><ele>180.0</ele><time>2026-04-24T16:01:57.211Z</time></trkpt><trkpt lat="43.712146" lon="11.2905031"><ele>180.0</ele><time>2026-04-24T16:01:58.212Z</time></trkpt><trkpt lat="43.7122941" lon="11.2904623"><ele>180.0</ele><time>2026-04-24T16:01:59.212Z</time></trkpt><trkpt lat="43.7124381" lon="11.2904138"><ele>180.0</ele><time>2026-04-24T16:02:00.211Z</time></trkpt><trkpt lat="43.7125744" lon="11.2903902"><ele>180.0</ele><time>2026-04-24T16:02:01.212Z</time></trkpt><trkpt lat="43.7127099" lon="11.2903984"><ele>180.0</ele><time>2026-04-24T16:02:02.212Z</time></trkpt><trkpt lat="43.7128491" lon="11.2904323"><ele>180.0</ele><time>2026-04-24T16:02:03.211Z</time></trkpt><trkpt lat="43.7129795" lon="11.2904964"><ele>180.0</ele><time>2026-04-24T16:02:04.212Z</time></trkpt><trkpt lat="43.7131045" lon="11.2905791"><ele>180.0</ele><time>2026-04-24T16:02:05.212Z</time></trkpt><trkpt lat="43.7132379" lon="11.2906694"><ele>179.5</ele><time>2026-04-24T16:02:06.212Z</time></trkpt><trkpt lat="43.713356" lon="11.2907756"><ele>179.0</ele><time>2026-04-24T16:02:07.212Z</time></trkpt><trkpt lat="43.7134791" lon="11.2908986"><ele>178.5</ele><time>2026-04-24T16:02:08.212Z</time></trkpt><trkpt lat="43.7136002" lon="11.2909933"><ele>178.0</ele><time>2026-04-24T16:02:09.211Z</time></trkpt><trkpt lat="43.7137231" lon="11.2910785"><ele>178.0</ele><time>2026-04-24T16:02:10.212Z</time></trkpt><trkpt lat="43.713856" lon="11.291163"><ele>178.0</ele><time>2026-04-24T16:02:11.212Z</time></trkpt><trkpt lat="43.7139898" lon="11.2912239"><ele>178.0</ele><time>2026-04-24T16:02:12.212Z</time></trkpt><trkpt lat="43.7141276" lon="11.2912807"><ele>178.0</ele><time>2026-04-24T16:02:13.212Z</time></trkpt><trkpt lat="43.7142701" lon="11.291337"><ele>178.0</ele><time>2026-04-24T16:02:14.211Z</time></trkpt><trkpt lat="43.7144025" lon="11.2913855"><ele>178.0</ele><time>2026-04-24T16:02:15.212Z</time></trkpt><trkpt lat="43.714551" lon="11.2914259"><ele>178.0</ele><time>2026-04-24T16:02:16.212Z</time></trkpt><trkpt lat="43.7146928" lon="11.2914633"><ele>178.0</ele><time>2026-04-24T16:02:17.212Z</time></trkpt><trkpt lat="43.7148229" lon="11.2914927"><ele>177.5</ele><time>2026-04-24T16:02:18.212Z</time></trkpt><trkpt lat="43.7149576" lon="11.2915286"><ele>177.0</ele><time>2026-04-24T16:02:19.212Z</time></trkpt><trkpt lat="43.7150864" lon="11.2915821"><ele>176.5</ele><time>2026-04-24T16:02:20.212Z</time></trkpt><trkpt lat="43.7152106" lon="11.2916554"><ele>176.0</ele><time>2026-04-24T16:02:21.212Z</time></trkpt><trkpt lat="43.7153408" lon="11.2917369"><ele>174.5</ele><time>2026-04-24T16:02:22.212Z</time></trkpt><trkpt lat="43.7154516" lon="11.2918176"><ele>173.0</ele><time>2026-04-24T16:02:23.212Z</time></trkpt><trkpt lat="43.7155612" lon="11.2918878"><ele>171.5</ele><time>2026-04-24T16:02:24.212Z</time></trkpt><trkpt lat="43.7156781" lon="11.2919523"><ele>170.0</ele><time>2026-04-24T16:02:25.212Z</time></trkpt><trkpt lat="43.7157973" lon="11.2920105"><ele>170.0</ele><time>2026-04-24T16:02:26.212Z</time></trkpt><trkpt lat="43.7159178" lon="11.2920543"><ele>170.0</ele><time>2026-04-24T16:02:27.212Z</time></trkpt><trkpt lat="43.716051" lon="11.2920675"><ele>170.0</ele><time>2026-04-24T16:02:28.211Z</time></trkpt><trkpt lat="43.7161863" lon="11.2920721"><ele>170.0</ele><time>2026-04-24T16:02:29.212Z</time></trkpt><trkpt lat="43.7163054" lon="11.2920749"><ele>168.33333333333331</ele><time>2026-04-24T16:02:30.212Z</time></trkpt><trkpt lat="43.7164601" lon="11.2919874"><ele>166.66666666666666</ele><time>2026-04-24T16:02:31.211Z</time></trkpt><trkpt lat="43.7165985" lon="11.2919175"><ele>165.0</ele><time>2026-04-24T16:02:32.212Z</time></trkpt><trkpt lat="43.7167472" lon="11.2918663"><ele>165.0</ele><time>2026-04-24T16:02:33.212Z</time></trkpt><trkpt lat="43.7168789" lon="11.2918063"><ele>165.0</ele><time>2026-04-24T16:02:34.212Z</time></trkpt><trkpt lat="43.7170191" lon="11.2917621"><ele>165.0</ele><time>2026-04-24T16:02:35.211Z</time></trkpt><trkpt lat="43.7171571" lon="11.2917167"><ele>165.0</ele><time>2026-04-24T16:02:36.212Z</time></trkpt><trkpt lat="43.7173013" lon="11.2916804"><ele>163.25</ele><time>2026-04-24T16:02:37.212Z</time></trkpt><trkpt lat="43.7174443" lon="11.2916618"><ele>161.5</ele><time>2026-04-24T16:02:38.211Z</time></trkpt><trkpt lat="43.7175929" lon="11.291653"><ele>159.75</ele><time>2026-04-24T16:02:39.212Z</time></trkpt><trkpt lat="43.7177327" lon="11.2916561"><ele>158.0</ele><time>2026-04-24T16:02:40.211Z</time></trkpt><trkpt lat="43.7178838" lon="11.2916526"><ele>156.75</ele><time>2026-04-24T16:02:41.212Z</time></trkpt><trkpt lat="43.718017" lon="11.2916609"><ele>155.5</ele><time>2026-04-24T16:02:42.211Z</time></trkpt><trkpt lat="43.7181651" lon="11.2916693"><ele>154.25</ele><time>2026-04-24T16:02:43.212Z</time></trkpt><trkpt lat="43.7183072" lon="11.2916766"><ele>153.0</ele><time>2026-04-24T16:02:44.212Z</time></trkpt><trkpt lat="43.7184448" lon="11.2916827"><ele>151.5</ele><time>2026-04-24T16:02:45.212Z</time></trkpt><trkpt lat="43.7185832" lon="11.2916904"><ele>150.0</ele><time>2026-04-24T16:02:46.212Z</time></trkpt><trkpt lat="43.7187246" lon="11.2916899"><ele>148.5</ele><time>2026-04-24T16:02:47.212Z</time></trkpt><trkpt lat="43.7188671" lon="11.2916918"><ele>147.0</ele><time>2026-04-24T16:02:48.212Z</time></trkpt><trkpt lat="43.7190011" lon="11.2916868"><ele>147.0</ele><time>2026-04-24T16:02:49.212Z</time></trkpt><trkpt lat="43.7191344" lon="11.29167"><ele>147.0</ele><time>2026-04-24T16:02:50.212Z</time></trkpt><trkpt lat="43.7192678" lon="11.29165"><ele>147.0</ele><time>2026-04-24T16:02:51.212Z</time></trkpt><trkpt lat="43.7193887" lon="11.2916061"><ele>147.0</ele><time>2026-04-24T16:02:52.212Z</time></trkpt><trkpt lat="43.7195283" lon="11.2915411"><ele>146.25</ele><time>2026-04-24T16:02:53.212Z</time></trkpt><trkpt lat="43.7196463" lon="11.2914595"><ele>145.5</ele><time>2026-04-24T16:02:54.212Z</time></trkpt><trkpt lat="43.7197688" lon="11.2913678"><ele>144.75</ele><time>2026-04-24T16:02:55.212Z</time></trkpt><trkpt lat="43.7198761" lon="11.2912577"><ele>144.0</ele><time>2026-04-24T16:02:56.212Z</time></trkpt><trkpt lat="43.7199801" lon="11.2911456"><ele>142.5</ele><time>2026-04-24T16:02:57.212Z</time></trkpt><trkpt lat="43.7200704" lon="11.291031"><ele>141.0</ele><time>2026-04-24T16:02:58.212Z</time></trkpt><trkpt lat="43.7201578" lon="11.2909203"><ele>139.5</ele><time>2026-04-24T16:02:59.211Z</time></trkpt><trkpt lat="43.720243" lon="11.2907997"><ele>138.0</ele><time>2026-04-24T16:03:00.212Z</time></trkpt><trkpt lat="43.7203412" lon="11.290707"><ele>137.20000000000002</ele><time>2026-04-24T16:03:01.212Z</time></trkpt><trkpt lat="43.7204304" lon="11.2906183"><ele>136.4</ele><time>2026-04-24T16:03:02.212Z</time></trkpt><trkpt lat="43.7205153" lon="11.29054"><ele>135.60000000000002</ele><time>2026-04-24T16:03:03.212Z</time></trkpt><trkpt lat="43.7206192" lon="11.2905114"><ele>134.8</ele><time>2026-04-24T16:03:04.212Z</time></trkpt><trkpt lat="43.72073" lon="11.2904989"><ele>134.0</ele><time>2026-04-24T16:03:05.212Z</time></trkpt><trkpt lat="43.7208331" lon="11.2905418"><ele>134.0</ele><time>2026-04-24T16:03:06.212Z</time></trkpt><trkpt lat="43.7209303" lon="11.2905869"><ele>134.0</ele><time>2026-04-24T16:03:07.212Z</time></trkpt><trkpt lat="43.7210179" lon="11.2906521"><ele>134.0</ele><time>2026-04-24T16:03:08.212Z</time></trkpt><trkpt lat="43.7210818" lon="11.2907506"><ele>134.0</ele><time>2026-04-24T16:03:09.212Z</time></trkpt><trkpt lat="43.7210683" lon="11.2909817"><ele>134.0</ele><time>2026-04-24T16:03:10.212Z</time></trkpt><trkpt lat="43.7210651" lon="11.29117"><ele>134.0</ele><time>2026-04-24T16:03:11.212Z</time></trkpt><trkpt lat="43.7210091" lon="11.2913319"><ele>134.0</ele><time>2026-04-24T16:03:12.212Z</time></trkpt><trkpt lat="43.7209477" lon="11.2914963"><ele>134.0</ele><time>2026-04-24T16:03:13.212Z</time></trkpt><trkpt lat="43.7208962" lon="11.2916629"><ele>134.0</ele><time>2026-04-24T16:03:14.211Z</time></trkpt><trkpt lat="43.720868" lon="11.2918391"><ele>134.0</ele><time>2026-04-24T16:03:15.211Z</time></trkpt><trkpt lat="43.7208684" lon="11.292035"><ele>134.0</ele><time>2026-04-24T16:03:16.212Z</time></trkpt><trkpt lat="43.7208807" lon="11.2922147"><ele>134.0</ele><time>2026-04-24T16:03:17.212Z</time></trkpt><trkpt lat="43.720925" lon="11.2923886"><ele>133.75</ele><time>2026-04-24T16:03:18.212Z</time></trkpt><trkpt lat="43.7209984" lon="11.2925692"><ele>133.5</ele><time>2026-04-24T16:03:19.212Z</time></trkpt><trkpt lat="43.7210865" lon="11.292725"><ele>133.25</ele><time>2026-04-24T16:03:20.211Z</time></trkpt><trkpt lat="43.7211835" lon="11.2928661"><ele>133.0</ele><time>2026-04-24T16:03:21.212Z</time></trkpt><trkpt lat="43.721286" lon="11.2929978"><ele>129.75</ele><time>2026-04-24T16:03:22.212Z</time></trkpt><trkpt lat="43.7213806" lon="11.2931239"><ele>126.5</ele><time>2026-04-24T16:03:23.212Z</time></trkpt><trkpt lat="43.7214741" lon="11.2932457"><ele>123.25</ele><time>2026-04-24T16:03:24.212Z</time></trkpt><trkpt lat="43.721566" lon="11.2933659"><ele>120.0</ele><time>2026-04-24T16:03:25.212Z</time></trkpt><trkpt lat="43.7216639" lon="11.2934955"><ele>120.0</ele><time>2026-04-24T16:03:26.211Z</time></trkpt><trkpt lat="43.7217549" lon="11.2936141"><ele>120.0</ele><time>2026-04-24T16:03:27.212Z</time></trkpt><trkpt lat="43.7218446" lon="11.2937336"><ele>120.0</ele><time>2026-04-24T16:03:28.212Z</time></trkpt><trkpt lat="43.7219421" lon="11.2938396"><ele>120.0</ele><time>2026-04-24T16:03:29.212Z</time></trkpt><trkpt lat="43.7220373" lon="11.293921"><ele>118.4</ele><time>2026-04-24T16:03:30.212Z</time></trkpt><trkpt lat="43.7221399" lon="11.293984"><ele>116.8</ele><time>2026-04-24T16:03:31.212Z</time></trkpt><trkpt lat="43.7222479" lon="11.2940341"><ele>115.19999999999999</ele><time>2026-04-24T16:03:32.212Z</time></trkpt><trkpt lat="43.7223464" lon="11.294057"><ele>113.6</ele><time>2026-04-24T16:03:33.212Z</time></trkpt><trkpt lat="43.7224449" lon="11.2940679"><ele>112.0</ele><time>2026-04-24T16:03:34.212Z</time></trkpt><trkpt lat="43.7225347" lon="11.2940714"><ele>112.00000000000001</ele><time>2026-04-24T16:03:35.212Z</time></trkpt><trkpt lat="43.722624" lon="11.2940922"><ele>112.0</ele><time>2026-04-24T16:03:36.212Z</time></trkpt><trkpt lat="43.722695" lon="11.2941446"><ele>112.0</ele><time>2026-04-24T16:03:37.211Z</time></trkpt><trkpt lat="43.7227555" lon="11.2942194"><ele>112.0</ele><time>2026-04-24T16:03:38.212Z</time></trkpt><trkpt lat="43.7227948" lon="11.2943173"><ele>112.00000000000001</ele><time>2026-04-24T16:03:39.212Z</time></trkpt><trkpt lat="43.7228167" lon="11.2944415"><ele>112.0</ele><time>2026-04-24T16:03:40.212Z</time></trkpt><trkpt lat="43.7228038" lon="11.2945799"><ele>110.0</ele><time>2026-04-24T16:03:41.212Z</time></trkpt><trkpt lat="43.7227427" lon="11.2946892"><ele>107.99999999999999</ele><time>2026-04-24T16:03:42.212Z</time></trkpt><trkpt lat="43.7226622" lon="11.2947607"><ele>106.0</ele><time>2026-04-24T16:03:43.212Z</time></trkpt><trkpt lat="43.7225559" lon="11.2948065"><ele>104.0</ele><time>2026-04-24T16:03:44.211Z</time></trkpt><trkpt lat="43.7224342" lon="11.2948414"><ele>102.0</ele><time>2026-04-24T16:03:45.211Z</time></trkpt><trkpt lat="43.7222989" lon="11.2948717"><ele>102.0</ele><time>2026-04-24T16:03:46.212Z</time></trkpt><trkpt lat="43.7221712" lon="11.2949044"><ele>102.0</ele><time>2026-04-24T16:03:47.212Z</time></trkpt><trkpt lat="43.7220398" lon="11.2949293"><ele>102.0</ele><time>2026-04-24T16:03:48.212Z</time></trkpt><trkpt lat="43.7219203" lon="11.2949625"><ele>102.0</ele><time>2026-04-24T16:03:49.212Z</time></trkpt><trkpt lat="43.7217933" lon="11.2949897"><ele>103.39999999999999</ele><time>2026-04-24T16:03:50.211Z</time></trkpt><trkpt lat="43.7216778" lon="11.2950195"><ele>104.8</ele><time>2026-04-24T16:03:51.212Z</time></trkpt><trkpt lat="43.7215631" lon="11.2950482"><ele>106.2</ele><time>2026-04-24T16:03:52.212Z</time></trkpt><trkpt lat="43.7214585" lon="11.2950745"><ele>107.6</ele><time>2026-04-24T16:03:53.212Z</time></trkpt><trkpt lat="43.721354" lon="11.2950995"><ele>109.0</ele><time>2026-04-24T16:03:54.212Z</time></trkpt><trkpt lat="43.7212617" lon="11.2951284"><ele>109.00000000000001</ele><time>2026-04-24T16:03:55.212Z</time></trkpt><trkpt lat="43.7211804" lon="11.2951831"><ele>109.0</ele><time>2026-04-24T16:03:56.212Z</time></trkpt><trkpt lat="43.7211146" lon="11.2952702"><ele>109.0</ele><time>2026-04-24T16:03:57.211Z</time></trkpt><trkpt lat="43.7210726" lon="11.2953812"><ele>109.0</ele><time>2026-04-24T16:03:58.211Z</time></trkpt><trkpt lat="43.7210634" lon="11.295499"><ele>109.00000000000001</ele><time>2026-04-24T16:03:59.211Z</time></trkpt><trkpt lat="43.7210832" lon="11.2956111"><ele>109.0</ele><time>2026-04-24T16:04:00.211Z</time></trkpt><trkpt lat="43.7211181" lon="11.2956988"><ele>107.0</ele><time>2026-04-24T16:04:01.212Z</time></trkpt><trkpt lat="43.7211713" lon="11.2957789"><ele>105.0</ele><time>2026-04-24T16:04:03.212Z</time></trkpt><trkpt lat="43.721252" lon="11.2958476"><ele>103.0</ele><time>2026-04-24T16:04:05.212Z</time></trkpt><trkpt lat="43.7213502" lon="11.2958496"><ele>101.0</ele><time>2026-04-24T16:04:06.212Z</time></trkpt><trkpt lat="43.721462" lon="11.2958157"><ele>99.0</ele><time>2026-04-24T16:04:07.212Z</time></trkpt><trkpt lat="43.7215866" lon="11.2957541"><ele>99.0</ele><time>2026-04-24T16:04:08.211Z</time></trkpt><trkpt lat="43.7217186" lon="11.2956953"><ele>99.0</ele><time>2026-04-24T16:04:09.212Z</time></trkpt><trkpt lat="43.7218584" lon="11.2956184"><ele>99.0</ele><time>2026-04-24T16:04:10.212Z</time></trkpt><trkpt lat="43.7220117" lon="11.2955567"><ele>99.0</ele><time>2026-04-24T16:04:11.212Z</time></trkpt><trkpt lat="43.7221673" lon="11.295475"><ele>99.75</ele><time>2026-04-24T16:04:12.212Z</time></trkpt><trkpt lat="43.7223163" lon="11.295403"><ele>100.5</ele><time>2026-04-24T16:04:13.212Z</time></trkpt><trkpt lat="43.7224501" lon="11.2953309"><ele>101.25</ele><time>2026-04-24T16:04:14.212Z</time></trkpt><trkpt lat="43.722575" lon="11.2952556"><ele>102.0</ele><time>2026-04-24T16:04:15.212Z</time></trkpt><trkpt lat="43.7226928" lon="11.2951772"><ele>99.0</ele><time>2026-04-24T16:04:16.211Z</time></trkpt><trkpt lat="43.7228043" lon="11.2950881"><ele>96.0</ele><time>2026-04-24T16:04:17.212Z</time></trkpt><trkpt lat="43.7229017" lon="11.2949906"><ele>93.0</ele><time>2026-04-24T16:04:18.212Z</time></trkpt><trkpt lat="43.7229889" lon="11.2948844"><ele>90.0</ele><time>2026-04-24T16:04:19.212Z</time></trkpt><trkpt lat="43.7230687" lon="11.2947805"><ele>90.6</ele><time>2026-04-24T16:04:20.211Z</time></trkpt><trkpt lat="43.7231454" lon="11.2946766"><ele>91.2</ele><time>2026-04-24T16:04:21.212Z</time></trkpt><trkpt lat="43.7232209" lon="11.2945714"><ele>91.80000000000001</ele><time>2026-04-24T16:04:22.212Z</time></trkpt><trkpt lat="43.7232924" lon="11.2944639"><ele>92.4</ele><time>2026-04-24T16:04:23.212Z</time></trkpt><trkpt lat="43.7233513" lon="11.2943603"><ele>93.0</ele><time>2026-04-24T16:04:24.212Z</time></trkpt><trkpt lat="43.7234167" lon="11.2942627"><ele>93.0</ele><time>2026-04-24T16:04:25.212Z</time></trkpt><trkpt lat="43.7234761" lon="11.2941597"><ele>93.0</ele><time>2026-04-24T16:04:26.212Z</time></trkpt><trkpt lat="43.7235371" lon="11.2940663"><ele>93.0</ele><time>2026-04-24T16:04:27.211Z</time></trkpt><trkpt lat="43.7235906" lon="11.2939693"><ele>93.0</ele><time>2026-04-24T16:04:28.212Z</time></trkpt><trkpt lat="43.7236484" lon="11.2938787"><ele>93.0</ele><time>2026-04-24T16:04:29.212Z</time></trkpt><trkpt lat="43.7237012" lon="11.2937842"><ele>93.0</ele><time>2026-04-24T16:04:30.212Z</time></trkpt><trkpt lat="43.7237608" lon="11.293691"><ele>92.0</ele><time>2026-04-24T16:04:31.212Z</time></trkpt><trkpt lat="43.7238184" lon="11.2935908"><ele>91.0</ele><time>2026-04-24T16:04:32.212Z</time></trkpt><trkpt lat="43.72388" lon="11.2934814"><ele>90.0</ele><time>2026-04-24T16:04:33.212Z</time></trkpt><trkpt lat="43.7239479" lon="11.2934027"><ele>89.0</ele><time>2026-04-24T16:04:34.212Z</time></trkpt><trkpt lat="43.7240022" lon="11.2933038"><ele>88.0</ele><time>2026-04-24T16:04:35.212Z</time></trkpt><trkpt lat="43.7240582" lon="11.2932025"><ele>88.0</ele><time>2026-04-24T16:04:36.211Z</time></trkpt><trkpt lat="43.7241306" lon="11.2931401"><ele>88.0</ele><time>2026-04-24T16:04:37.212Z</time></trkpt><trkpt lat="43.7242021" lon="11.2930582"><ele>88.0</ele><time>2026-04-24T16:04:38.211Z</time></trkpt><trkpt lat="43.7242815" lon="11.2930058"><ele>88.0</ele><time>2026-04-24T16:04:39.212Z</time></trkpt><trkpt lat="43.7243545" lon="11.2929733"><ele>88.0</ele><time>2026-04-24T16:04:40.212Z</time></trkpt><trkpt lat="43.7244208" lon="11.292959"><ele>88.0</ele><time>2026-04-24T16:04:41.211Z</time></trkpt><trkpt lat="43.724498" lon="11.2929747"><ele>88.16666666666666</ele><time>2026-04-24T16:04:42.212Z</time></trkpt><trkpt lat="43.7245776" lon="11.2929781"><ele>88.33333333333333</ele><time>2026-04-24T16:04:43.212Z</time></trkpt><trkpt lat="43.7246603" lon="11.292988"><ele>88.5</ele><time>2026-04-24T16:04:44.212Z</time></trkpt><trkpt lat="43.7247495" lon="11.2929972"><ele>88.66666666666667</ele><time>2026-04-24T16:04:45.212Z</time></trkpt><trkpt lat="43.724851" lon="11.2930157"><ele>88.83333333333334</ele><time>2026-04-24T16:04:46.212Z</time></trkpt><trkpt lat="43.7249372" lon="11.2930087"><ele>89.0</ele><time>2026-04-24T16:04:47.212Z</time></trkpt><trkpt lat="43.7250092" lon="11.29302"><ele>89.0</ele><time>2026-04-24T16:04:48.212Z</time></trkpt><trkpt lat="43.7250761" lon="11.2930017"><ele>89.0</ele><time>2026-04-24T16:04:49.212Z</time></trkpt><trkpt lat="43.7251403" lon="11.2930144"><ele>89.0</ele><time>2026-04-24T16:04:50.212Z</time></trkpt><trkpt lat="43.7252601" lon="11.2929927"><ele>89.0</ele><time>2026-04-24T16:04:52.212Z</time></trkpt><trkpt lat="43.7253292" lon="11.2929578"><ele>89.0</ele><time>2026-04-24T16:04:53.212Z</time></trkpt><trkpt lat="43.7253996" lon="11.2929138"><ele>89.0</ele><time>2026-04-24T16:04:54.212Z</time></trkpt><trkpt lat="43.725466" lon="11.2928628"><ele>89.16666666666667</ele><time>2026-04-24T16:04:55.212Z</time></trkpt><trkpt lat="43.7255248" lon="11.2928148"><ele>89.33333333333334</ele><time>2026-04-24T16:04:56.212Z</time></trkpt><trkpt lat="43.7255792" lon="11.2927664"><ele>89.5</ele><time>2026-04-24T16:04:57.212Z</time></trkpt><trkpt lat="43.7257009" lon="11.2926971"><ele>89.66666666666667</ele><time>2026-04-24T16:04:59.211Z</time></trkpt><trkpt lat="43.7257695" lon="11.2926822"><ele>89.83333333333333</ele><time>2026-04-24T16:05:00.211Z</time></trkpt><trkpt lat="43.7258282" lon="11.2927231"><ele>90.0</ele><time>2026-04-24T16:05:01.211Z</time></trkpt><trkpt lat="43.7259072" lon="11.2927522"><ele>90.0</ele><time>2026-04-24T16:05:02.212Z</time></trkpt><trkpt lat="43.7259822" lon="11.2927993"><ele>90.0</ele><time>2026-04-24T16:05:03.212Z</time></trkpt><trkpt lat="43.726062" lon="11.292846"><ele>90.0</ele><time>2026-04-24T16:05:04.211Z</time></trkpt><trkpt lat="43.7261384" lon="11.2928943"><ele>90.0</ele><time>2026-04-24T16:05:05.212Z</time></trkpt><trkpt lat="43.7262163" lon="11.2929302"><ele>90.0</ele><time>2026-04-24T16:05:06.212Z</time></trkpt><trkpt lat="43.7262886" lon="11.2929733"><ele>90.0</ele><time>2026-04-24T16:05:07.212Z</time></trkpt><trkpt lat="43.7263808" lon="11.2930331"><ele>89.8</ele><time>2026-04-24T16:05:08.211Z</time></trkpt><trkpt lat="43.7264622" lon="11.2930904"><ele>89.6</ele><time>2026-04-24T16:05:09.211Z</time></trkpt><trkpt lat="43.7265485" lon="11.2931643"><ele>89.4</ele><time>2026-04-24T16:05:10.212Z</time></trkpt><trkpt lat="43.7266362" lon="11.293234"><ele>89.2</ele><time>2026-04-24T16:05:11.212Z</time></trkpt><trkpt lat="43.7267234" lon="11.2933055"><ele>89.0</ele><time>2026-04-24T16:05:12.212Z</time></trkpt><trkpt lat="43.7268051" lon="11.2933809"><ele>89.0</ele><time>2026-04-24T16:05:13.211Z</time></trkpt><trkpt lat="43.7268858" lon="11.2934597"><ele>89.0</ele><time>2026-04-24T16:05:14.211Z</time></trkpt><trkpt lat="43.7269407" lon="11.2935299"><ele>89.0</ele><time>2026-04-24T16:05:15.212Z</time></trkpt><trkpt lat="43.7269829" lon="11.293599"><ele>89.0</ele><time>2026-04-24T16:05:16.212Z</time></trkpt><trkpt lat="43.7270558" lon="11.2937053"><ele>89.0</ele><time>2026-04-24T16:05:18.212Z</time></trkpt><trkpt lat="43.7271266" lon="11.2938121"><ele>89.0</ele><time>2026-04-24T16:05:20.212Z</time></trkpt><trkpt lat="43.7271954" lon="11.2939189"><ele>89.0</ele><time>2026-04-24T16:05:22.211Z</time></trkpt><trkpt lat="43.7272457" lon="11.2939925"><ele>89.0</ele><time>2026-04-24T16:05:25.212Z</time></trkpt><trkpt lat="43.7272903" lon="11.2940788"><ele>89.0</ele><time>2026-04-24T16:06:00.212Z</time></trkpt><trkpt lat="43.7273578" lon="11.2941921"><ele>89.0</ele><time>2026-04-24T16:06:03.212Z</time></trkpt><trkpt lat="43.7274399" lon="11.2943024"><ele>89.0</ele><time>2026-04-24T16:06:05.212Z</time></trkpt><trkpt lat="43.7275039" lon="11.2944034"><ele>89.0</ele><time>2026-04-24T16:06:07.212Z</time></trkpt><trkpt lat="43.7275714" lon="11.2945097"><ele>89.0</ele><time>2026-04-24T16:06:09.212Z</time></trkpt><trkpt lat="43.7276222" lon="11.2945881"><ele>89.0</ele><time>2026-04-24T16:06:11.211Z</time></trkpt><trkpt lat="43.7276804" lon="11.2946753"><ele>89.0</ele><time>2026-04-24T16:06:13.212Z</time></trkpt><trkpt lat="43.7277288" lon="11.2947469"><ele>89.0</ele><time>2026-04-24T16:06:15.212Z</time></trkpt><trkpt lat="43.7277944" lon="11.2948405"><ele>88.75</ele><time>2026-04-24T16:06:17.212Z</time></trkpt><trkpt lat="43.7278676" lon="11.2949478"><ele>88.5</ele><time>2026-04-24T16:06:19.212Z</time></trkpt><trkpt lat="43.7279528" lon="11.2950442"><ele>88.25</ele><time>2026-04-24T16:06:21.212Z</time></trkpt><trkpt lat="43.7280539" lon="11.2951515"><ele>88.0</ele><time>2026-04-24T16:06:23.212Z</time></trkpt><trkpt lat="43.7281543" lon="11.2952374"><ele>88.0</ele><time>2026-04-24T16:06:25.212Z</time></trkpt><trkpt lat="43.7282456" lon="11.295313"><ele>88.0</ele><time>2026-04-24T16:06:27.212Z</time></trkpt><trkpt lat="43.7283974" lon="11.2953871"><ele>88.0</ele><time>2026-04-24T16:06:29.212Z</time></trkpt><trkpt lat="43.7284725" lon="11.2954302"><ele>88.0</ele><time>2026-04-24T16:06:30.212Z</time></trkpt><trkpt lat="43.7285659" lon="11.2954626"><ele>88.0</ele><time>2026-04-24T16:06:31.212Z</time></trkpt><trkpt lat="43.7286722" lon="11.2954851"><ele>87.83333333333333</ele><time>2026-04-24T16:06:32.212Z</time></trkpt><trkpt lat="43.7287646" lon="11.2955148"><ele>87.66666666666666</ele><time>2026-04-24T16:06:33.212Z</time></trkpt><trkpt lat="43.7288553" lon="11.2955391"><ele>87.5</ele><time>2026-04-24T16:06:34.212Z</time></trkpt><trkpt lat="43.7289297" lon="11.2955636"><ele>87.33333333333333</ele><time>2026-04-24T16:06:35.212Z</time></trkpt><trkpt lat="43.7290039" lon="11.2955915"><ele>87.16666666666667</ele><time>2026-04-24T16:06:36.211Z</time></trkpt><trkpt lat="43.7290821" lon="11.2956078"><ele>87.0</ele><time>2026-04-24T16:06:37.211Z</time></trkpt><trkpt lat="43.7291569" lon="11.295627"><ele>87.0</ele><time>2026-04-24T16:06:38.212Z</time></trkpt><trkpt lat="43.729232" lon="11.2956485"><ele>87.0</ele><time>2026-04-24T16:06:39.212Z</time></trkpt><trkpt lat="43.7292994" lon="11.2956696"><ele>87.0</ele><time>2026-04-24T16:06:40.212Z</time></trkpt><trkpt lat="43.7293662" lon="11.295691"><ele>87.0</ele><time>2026-04-24T16:06:43.212Z</time></trkpt><trkpt lat="43.7294301" lon="11.2957083"><ele>87.0</ele><time>2026-04-24T16:06:47.212Z</time></trkpt><trkpt lat="43.7295161" lon="11.2957344"><ele>87.0</ele><time>2026-04-24T16:06:49.212Z</time></trkpt><trkpt lat="43.7296337" lon="11.295773"><ele>87.5</ele><time>2026-04-24T16:06:51.212Z</time></trkpt><trkpt lat="43.7297121" lon="11.2957988"><ele>88.0</ele><time>2026-04-24T16:06:52.212Z</time></trkpt><trkpt lat="43.7297873" lon="11.295822"><ele>88.5</ele><time>2026-04-24T16:06:53.212Z</time></trkpt><trkpt lat="43.7298747" lon="11.2958545"><ele>89.0</ele><time>2026-04-24T16:06:54.212Z</time></trkpt><trkpt lat="43.7299756" lon="11.2958802"><ele>89.5</ele><time>2026-04-24T16:06:55.212Z</time></trkpt><trkpt lat="43.730073" lon="11.2958995"><ele>90.0</ele><time>2026-04-24T16:06:56.212Z</time></trkpt><trkpt lat="43.7301987" lon="11.2959376"><ele>89.5</ele><time>2026-04-24T16:06:57.211Z</time></trkpt><trkpt lat="43.7303232" lon="11.2959714"><ele>89.0</ele><time>2026-04-24T16:06:58.212Z</time></trkpt><trkpt lat="43.7304516" lon="11.296027"><ele>88.5</ele><time>2026-04-24T16:06:59.211Z</time></trkpt><trkpt lat="43.7305835" lon="11.2960638"><ele>88.0</ele><time>2026-04-24T16:07:00.211Z</time></trkpt><trkpt lat="43.7307197" lon="11.2961025"><ele>88.0</ele><time>2026-04-24T16:07:01.211Z</time></trkpt><trkpt lat="43.7308539" lon="11.2961342"><ele>88.0</ele><time>2026-04-24T16:07:02.212Z</time></trkpt><trkpt lat="43.7309945" lon="11.2961845"><ele>88.0</ele><time>2026-04-24T16:07:03.212Z</time></trkpt><trkpt lat="43.7311439" lon="11.2962292"><ele>88.0</ele><time>2026-04-24T16:07:04.212Z</time></trkpt><trkpt lat="43.7312938" lon="11.2962716"><ele>88.0</ele><time>2026-04-24T16:07:05.211Z</time></trkpt><trkpt lat="43.7314308" lon="11.2963106"><ele>88.0</ele><time>2026-04-24T16:07:06.211Z</time></trkpt><trkpt lat="43.7315659" lon="11.2963482"><ele>88.0</ele><time>2026-04-24T16:07:07.212Z</time></trkpt><trkpt lat="43.7317056" lon="11.2963801"><ele>88.0</ele><time>2026-04-24T16:07:08.212Z</time></trkpt><trkpt lat="43.7318563" lon="11.2964274"><ele>87.66666666666666</ele><time>2026-04-24T16:07:09.212Z</time></trkpt><trkpt lat="43.7320173" lon="11.2964865"><ele>87.33333333333333</ele><time>2026-04-24T16:07:10.212Z</time></trkpt><trkpt lat="43.7321716" lon="11.296535"><ele>87.0</ele><time>2026-04-24T16:07:11.212Z</time></trkpt><trkpt lat="43.7323294" lon="11.2965679"><ele>87.0</ele><time>2026-04-24T16:07:12.212Z</time></trkpt><trkpt lat="43.7324433" lon="11.2966151"><ele>87.0</ele><time>2026-04-24T16:07:13.212Z</time></trkpt><trkpt lat="43.7325746" lon="11.296662"><ele>87.0</ele><time>2026-04-24T16:07:14.211Z</time></trkpt><trkpt lat="43.7327285" lon="11.2967001"><ele>87.0</ele><time>2026-04-24T16:07:15.212Z</time></trkpt><trkpt lat="43.7328706" lon="11.2967227"><ele>86.75</ele><time>2026-04-24T16:07:16.212Z</time></trkpt><trkpt lat="43.7329862" lon="11.2967776"><ele>86.5</ele><time>2026-04-24T16:07:17.212Z</time></trkpt><trkpt lat="43.7331085" lon="11.296823"><ele>86.25</ele><time>2026-04-24T16:07:18.212Z</time></trkpt><trkpt lat="43.7332293" lon="11.2968684"><ele>86.0</ele><time>2026-04-24T16:07:19.212Z</time></trkpt><trkpt lat="43.7333449" lon="11.2969031"><ele>86.0</ele><time>2026-04-24T16:07:20.212Z</time></trkpt><trkpt lat="43.7334524" lon="11.2969351"><ele>86.0</ele><time>2026-04-24T16:07:21.211Z</time></trkpt><trkpt lat="43.7335566" lon="11.2969606"><ele>86.0</ele><time>2026-04-24T16:07:22.212Z</time></trkpt><trkpt lat="43.733652" lon="11.2969731"><ele>86.0</ele><time>2026-04-24T16:07:23.212Z</time></trkpt><trkpt lat="43.733781" lon="11.2969729"><ele>86.0</ele><time>2026-04-24T16:07:25.212Z</time></trkpt><trkpt lat="43.7338575" lon="11.2969748"><ele>85.83333333333334</ele><time>2026-04-24T16:07:26.212Z</time></trkpt><trkpt lat="43.7339376" lon="11.2969776"><ele>85.66666666666667</ele><time>2026-04-24T16:07:27.211Z</time></trkpt><trkpt lat="43.7340213" lon="11.296987"><ele>85.5</ele><time>2026-04-24T16:07:28.212Z</time></trkpt><trkpt lat="43.7341239" lon="11.297003"><ele>85.33333333333333</ele><time>2026-04-24T16:07:29.211Z</time></trkpt><trkpt lat="43.7342169" lon="11.29702"><ele>85.16666666666666</ele><time>2026-04-24T16:07:30.212Z</time></trkpt><trkpt lat="43.7342911" lon="11.2970462"><ele>85.0</ele><time>2026-04-24T16:07:31.212Z</time></trkpt><trkpt lat="43.7343613" lon="11.2970956"><ele>85.2</ele><time>2026-04-24T16:07:32.212Z</time></trkpt><trkpt lat="43.7344309" lon="11.2971839"><ele>85.4</ele><time>2026-04-24T16:07:34.212Z</time></trkpt><trkpt lat="43.734427" lon="11.2973097"><ele>85.6</ele><time>2026-04-24T16:07:36.212Z</time></trkpt><trkpt lat="43.7343698" lon="11.2974504"><ele>85.8</ele><time>2026-04-24T16:07:38.212Z</time></trkpt><trkpt lat="43.7343125" lon="11.2975139"><ele>86.0</ele><time>2026-04-24T16:07:39.212Z</time></trkpt><trkpt lat="43.734245" lon="11.2975811"><ele>86.0</ele><time>2026-04-24T16:07:40.212Z</time></trkpt><trkpt lat="43.7341666" lon="11.2976492"><ele>86.0</ele><time>2026-04-24T16:07:41.212Z</time></trkpt><trkpt lat="43.734085" lon="11.2977026"><ele>86.0</ele><time>2026-04-24T16:07:42.212Z</time></trkpt><trkpt lat="43.734005" lon="11.2977328"><ele>86.0</ele><time>2026-04-24T16:07:43.212Z</time></trkpt><trkpt lat="43.7339275" lon="11.2977481"><ele>86.0</ele><time>2026-04-24T16:07:44.212Z</time></trkpt><trkpt lat="43.7338553" lon="11.2977593"><ele>86.0</ele><time>2026-04-24T16:07:45.211Z</time></trkpt><trkpt lat="43.7337921" lon="11.2977838"><ele>86.0</ele><time>2026-04-24T16:07:46.212Z</time></trkpt><trkpt lat="43.7337354" lon="11.2978337"><ele>86.0</ele><time>2026-04-24T16:07:47.212Z</time></trkpt><trkpt lat="43.7336899" lon="11.297989"><ele>86.0</ele><time>2026-04-24T16:07:49.212Z</time></trkpt><trkpt lat="43.7337103" lon="11.2980725"><ele>86.0</ele><time>2026-04-24T16:07:50.211Z</time></trkpt><trkpt lat="43.7337558" lon="11.2981338"><ele>86.0</ele><time>2026-04-24T16:07:51.212Z</time></trkpt><trkpt lat="43.7338253" lon="11.2981582"><ele>86.0</ele><time>2026-04-24T16:07:52.212Z</time></trkpt><trkpt lat="43.7339432" lon="11.2982277"><ele>86.0</ele><time>2026-04-24T16:07:54.212Z</time></trkpt><trkpt lat="43.7340174" lon="11.2981999"><ele>86.0</ele><time>2026-04-24T16:07:55.212Z</time></trkpt><trkpt lat="43.7340898" lon="11.2980575"><ele>86.0</ele><time>2026-04-24T16:07:56.212Z</time></trkpt><trkpt lat="43.7341642" lon="11.2978951"><ele>86.0</ele><time>2026-04-24T16:07:57.212Z</time></trkpt><trkpt lat="43.7342362" lon="11.2977851"><ele>86.0</ele><time>2026-04-24T16:07:58.212Z</time></trkpt><trkpt lat="43.7343133" lon="11.2976948"><ele>87.0</ele><time>2026-04-24T16:07:59.212Z</time></trkpt><trkpt lat="43.7343893" lon="11.2976165"><ele>88.0</ele><time>2026-04-24T16:08:00.211Z</time></trkpt><trkpt lat="43.7344671" lon="11.2975522"><ele>89.0</ele><time>2026-04-24T16:08:01.211Z</time></trkpt><trkpt lat="43.7345496" lon="11.2975061"><ele>90.0</ele><time>2026-04-24T16:08:02.212Z</time></trkpt><trkpt lat="43.7346274" lon="11.2974766"><ele>91.0</ele><time>2026-04-24T16:08:03.211Z</time></trkpt><trkpt lat="43.734709" lon="11.297446"><ele>92.0</ele><time>2026-04-24T16:08:04.212Z</time></trkpt><trkpt lat="43.7347858" lon="11.2974088"><ele>92.0</ele><time>2026-04-24T16:08:05.212Z</time></trkpt><trkpt lat="43.7348464" lon="11.2973073"><ele>92.0</ele><time>2026-04-24T16:08:06.212Z</time></trkpt><trkpt lat="43.7349057" lon="11.2972037"><ele>92.0</ele><time>2026-04-24T16:08:07.212Z</time></trkpt><trkpt lat="43.734966" lon="11.2971149"><ele>92.0</ele><time>2026-04-24T16:08:08.212Z</time></trkpt><trkpt lat="43.7350366" lon="11.2970337"><ele>92.0</ele><time>2026-04-24T16:08:09.212Z</time></trkpt><trkpt lat="43.7351057" lon="11.2969646"><ele>91.0</ele><time>2026-04-24T16:08:10.211Z</time></trkpt><trkpt lat="43.7351917" lon="11.2969057"><ele>90.0</ele><time>2026-04-24T16:08:11.212Z</time></trkpt><trkpt lat="43.7352759" lon="11.2968454"><ele>89.0</ele><time>2026-04-24T16:08:12.212Z</time></trkpt><trkpt lat="43.7353583" lon="11.2967862"><ele>88.0</ele><time>2026-04-24T16:08:13.212Z</time></trkpt><trkpt lat="43.7354398" lon="11.2967231"><ele>87.0</ele><time>2026-04-24T16:08:14.212Z</time></trkpt><trkpt lat="43.7355178" lon="11.2966634"><ele>87.0</ele><time>2026-04-24T16:08:15.211Z</time></trkpt><trkpt lat="43.7356196" lon="11.2966491"><ele>87.0</ele><time>2026-04-24T16:08:16.212Z</time></trkpt><trkpt lat="43.7357094" lon="11.2966299"><ele>87.0</ele><time>2026-04-24T16:08:17.212Z</time></trkpt><trkpt lat="43.7358052" lon="11.2966143"><ele>87.0</ele><time>2026-04-24T16:08:18.211Z</time></trkpt><trkpt lat="43.7359022" lon="11.2965957"><ele>87.0</ele><time>2026-04-24T16:08:19.212Z</time></trkpt><trkpt lat="43.7360089" lon="11.2966148"><ele>86.8</ele><time>2026-04-24T16:08:20.212Z</time></trkpt><trkpt lat="43.7361073" lon="11.2966276"><ele>86.6</ele><time>2026-04-24T16:08:21.212Z</time></trkpt><trkpt lat="43.7362019" lon="11.2966495"><ele>86.39999999999999</ele><time>2026-04-24T16:08:22.212Z</time></trkpt><trkpt lat="43.7362943" lon="11.2966755"><ele>86.19999999999999</ele><time>2026-04-24T16:08:23.212Z</time></trkpt><trkpt lat="43.7363801" lon="11.2967364"><ele>86.0</ele><time>2026-04-24T16:08:24.212Z</time></trkpt><trkpt lat="43.7365153" lon="11.2968226"><ele>86.0</ele><time>2026-04-24T16:08:25.211Z</time></trkpt><trkpt lat="43.7366333" lon="11.2968925"><ele>86.0</ele><time>2026-04-24T16:08:26.212Z</time></trkpt><trkpt lat="43.7367452" lon="11.2969689"><ele>86.0</ele><time>2026-04-24T16:08:27.212Z</time></trkpt><trkpt lat="43.7368643" lon="11.2970466"><ele>86.0</ele><time>2026-04-24T16:08:28.212Z</time></trkpt><trkpt lat="43.7369766" lon="11.297117"><ele>86.0</ele><time>2026-04-24T16:08:29.211Z</time></trkpt><trkpt lat="43.7370967" lon="11.2971923"><ele>86.0</ele><time>2026-04-24T16:08:30.212Z</time></trkpt><trkpt lat="43.7372161" lon="11.2972519"><ele>86.0</ele><time>2026-04-24T16:08:31.212Z</time></trkpt><trkpt lat="43.7373239" lon="11.2972981"><ele>86.0</ele><time>2026-04-24T16:08:32.211Z</time></trkpt><trkpt lat="43.7374064" lon="11.2973456"><ele>86.0</ele><time>2026-04-24T16:08:33.211Z</time></trkpt><trkpt lat="43.7374671" lon="11.2973788"><ele>86.0</ele><time>2026-04-24T16:08:34.212Z</time></trkpt><trkpt lat="43.7375273" lon="11.2974145"><ele>86.0</ele><time>2026-04-24T16:08:35.212Z</time></trkpt><trkpt lat="43.7376512" lon="11.2974727"><ele>86.0</ele><time>2026-04-24T16:08:37.212Z</time></trkpt><trkpt lat="43.7377733" lon="11.297531"><ele>86.0</ele><time>2026-04-24T16:08:39.212Z</time></trkpt><trkpt lat="43.737835" lon="11.2975678"><ele>85.66666666666667</ele><time>2026-04-24T16:08:40.212Z</time></trkpt><trkpt lat="43.7379322" lon="11.2976299"><ele>85.33333333333334</ele><time>2026-04-24T16:08:42.212Z</time></trkpt><trkpt lat="43.7379659" lon="11.2977188"><ele>85.0</ele><time>2026-04-24T16:08:45.212Z</time></trkpt><trkpt lat="43.7379401" lon="11.2978104"><ele>84.66666666666667</ele><time>2026-04-24T16:08:47.212Z</time></trkpt><trkpt lat="43.737929" lon="11.297909"><ele>84.33333333333333</ele><time>2026-04-24T16:08:49.211Z</time></trkpt><trkpt lat="43.7379003" lon="11.297992"><ele>84.0</ele><time>2026-04-24T16:08:51.212Z</time></trkpt><trkpt lat="43.7378192" lon="11.298047"><ele>84.0</ele><time>2026-04-24T16:08:54.212Z</time></trkpt><trkpt lat="43.7377252" lon="11.2980573"><ele>84.0</ele><time>2026-04-24T16:08:57.212Z</time></trkpt><trkpt lat="43.7376547" lon="11.29813"><ele>84.0</ele><time>2026-04-24T16:09:00.212Z</time></trkpt><trkpt lat="43.7376046" lon="11.2982193"><ele>84.0</ele><time>2026-04-24T16:09:02.212Z</time></trkpt><trkpt lat="43.7375568" lon="11.2983045"><ele>84.0</ele><time>2026-04-24T16:09:04.212Z</time></trkpt><trkpt lat="43.7375118" lon="11.2983749"><ele>84.0</ele><time>2026-04-24T16:09:06.212Z</time></trkpt><trkpt lat="43.7374614" lon="11.2984531"><ele>84.66666666666667</ele><time>2026-04-24T16:09:09.212Z</time></trkpt><trkpt lat="43.7374687" lon="11.2985813"><ele>85.33333333333333</ele><time>2026-04-24T16:09:14.211Z</time></trkpt><trkpt lat="43.7375015" lon="11.2986664"><ele>86.0</ele><time>2026-04-24T16:09:16.211Z</time></trkpt><trkpt lat="43.7375363" lon="11.2987642"><ele>86.66666666666666</ele><time>2026-04-24T16:09:18.212Z</time></trkpt><trkpt lat="43.7375566" lon="11.298852"><ele>87.33333333333333</ele><time>2026-04-24T16:09:20.212Z</time></trkpt><trkpt lat="43.7375864" lon="11.2989605"><ele>88.0</ele><time>2026-04-24T16:09:23.212Z</time></trkpt><trkpt lat="43.7375873" lon="11.2990539"><ele>88.42857142857143</ele><time>2026-04-24T16:09:26.212Z</time></trkpt><trkpt lat="43.7376028" lon="11.2991442"><ele>88.85714285714286</ele><time>2026-04-24T16:09:31.212Z</time></trkpt><trkpt lat="43.7376143" lon="11.2992606"><ele>89.28571428571428</ele><time>2026-04-24T16:09:34.212Z</time></trkpt><trkpt lat="43.7376493" lon="11.2993511"><ele>89.71428571428572</ele><time>2026-04-24T16:09:36.211Z</time></trkpt><trkpt lat="43.7377301" lon="11.2993875"><ele>90.14285714285714</ele><time>2026-04-24T16:10:27.212Z</time></trkpt><trkpt lat="43.737771" lon="11.2994644"><ele>90.57142857142857</ele><time>2026-04-24T16:10:47.192Z</time></trkpt><trkpt lat="43.7378076" lon="11.2995361"><ele>91.0</ele><time>2026-04-24T16:10:54.212Z</time></trkpt><trkpt lat="43.7377499" lon="11.2994959"><ele>85.0</ele><time>2026-04-24T16:11:41.212Z</time></trkpt><trkpt lat="43.7377024" lon="11.2994027"><ele>91.0</ele><time>2026-04-24T16:13:19.212Z</time></trkpt><trkpt lat="43.7377617" lon="11.2994353"><ele>85.0</ele><time>2026-04-24T16:17:30.221Z</time></trkpt><trkpt lat="43.7378118" lon="11.2994939"><ele>85.0</ele><time>2026-04-24T16:17:34.212Z</time></trkpt></trkseg><trkseg><trkpt lat="43.7377475" lon="11.299402"><ele>85.42857142857143</ele><time>2026-04-24T16:36:24.206Z</time></trkpt><trkpt lat="43.7377095" lon="11.2994797"><ele>85.85714285714285</ele><time>2026-04-24T16:37:03.201Z</time></trkpt><trkpt lat="43.7376767" lon="11.2995888"><ele>86.28571428571428</ele><time>2026-04-24T16:37:05.201Z</time></trkpt><trkpt lat="43.737673" lon="11.2996759"><ele>86.71428571428572</ele><time>2026-04-24T16:37:10.201Z</time></trkpt><trkpt lat="43.7377105" lon="11.2997481"><ele>87.14285714285714</ele><time>2026-04-24T16:37:14.201Z</time></trkpt><trkpt lat="43.7377589" lon="11.2998074"><ele>87.57142857142857</ele><time>2026-04-24T16:37:17.201Z</time></trkpt><trkpt lat="43.7378055" lon="11.2998765"><ele>88.0</ele><time>2026-04-24T16:37:20.201Z</time></trkpt><trkpt lat="43.7378209" lon="11.2999991"><ele>88.0</ele><time>2026-04-24T16:37:23.2Z</time></trkpt><trkpt lat="43.7378125" lon="11.3001354"><ele>88.0</ele><time>2026-04-24T16:37:26.2Z</time></trkpt><trkpt lat="43.7377989" lon="11.3002322"><ele>88.0</ele><time>2026-04-24T16:37:28.201Z</time></trkpt><trkpt lat="43.7377897" lon="11.3003547"><ele>88.0</ele><time>2026-04-24T16:37:30.201Z</time></trkpt><trkpt lat="43.737771" lon="11.3004906"><ele>88.0</ele><time>2026-04-24T16:37:32.201Z</time></trkpt><trkpt lat="43.7377676" lon="11.3006229"><ele>88.80000000000001</ele><time>2026-04-24T16:37:34.201Z</time></trkpt><trkpt lat="43.737748" lon="11.3007369"><ele>89.6</ele><time>2026-04-24T16:37:36.201Z</time></trkpt><trkpt lat="43.7377074" lon="11.3008451"><ele>90.4</ele><time>2026-04-24T16:37:38.2Z</time></trkpt><trkpt lat="43.7376565" lon="11.3009582"><ele>91.19999999999999</ele><time>2026-04-24T16:37:40.2Z</time></trkpt><trkpt lat="43.7376077" lon="11.3010705"><ele>92.0</ele><time>2026-04-24T16:37:42.201Z</time></trkpt><trkpt lat="43.7375638" lon="11.3011881"><ele>95.6</ele><time>2026-04-24T16:37:44.201Z</time></trkpt><trkpt lat="43.7375096" lon="11.3013127"><ele>99.19999999999999</ele><time>2026-04-24T16:37:46.201Z</time></trkpt><trkpt lat="43.7374561" lon="11.3014455"><ele>102.8</ele><time>2026-04-24T16:37:48.201Z</time></trkpt><trkpt lat="43.7374096" lon="11.3015761"><ele>106.4</ele><time>2026-04-24T16:37:50.201Z</time></trkpt><trkpt lat="43.7373676" lon="11.3016795"><ele>110.0</ele><time>2026-04-24T16:37:52.201Z</time></trkpt><trkpt lat="43.7373428" lon="11.3017713"><ele>111.83333333333333</ele><time>2026-04-24T16:37:54.201Z</time></trkpt><trkpt lat="43.7372826" lon="11.3018561"><ele>113.66666666666666</ele><time>2026-04-24T16:37:57.201Z</time></trkpt><trkpt lat="43.7372322" lon="11.3019378"><ele>115.5</ele><time>2026-04-24T16:38:00.201Z</time></trkpt><trkpt lat="43.73727" lon="11.3020086"><ele>117.33333333333334</ele><time>2026-04-24T16:38:03.201Z</time></trkpt><trkpt lat="43.7373395" lon="11.3020352"><ele>119.16666666666667</ele><time>2026-04-24T16:38:12.201Z</time></trkpt><trkpt lat="43.7374009" lon="11.301954"><ele>121.0</ele><time>2026-04-24T16:38:15.201Z</time></trkpt><trkpt lat="43.7374595" lon="11.3019974"><ele>121.00000000000001</ele><time>2026-04-24T16:38:18.201Z</time></trkpt><trkpt lat="43.7373961" lon="11.3020293"><ele>121.0</ele><time>2026-04-24T16:38:21.201Z</time></trkpt><trkpt lat="43.7373299" lon="11.3020555"><ele>121.0</ele><time>2026-04-24T16:38:35.201Z</time></trkpt><trkpt lat="43.7373076" lon="11.3021799"><ele>121.0</ele><time>2026-04-24T16:38:39.2Z</time></trkpt><trkpt lat="43.7372688" lon="11.3022835"><ele>121.00000000000001</ele><time>2026-04-24T16:38:42.201Z</time></trkpt><trkpt lat="43.7372237" lon="11.3023739"><ele>121.0</ele><time>2026-04-24T16:38:45.201Z</time></trkpt><trkpt lat="43.7371814" lon="11.3024652"><ele>121.66666666666667</ele><time>2026-04-24T16:38:48.201Z</time></trkpt><trkpt lat="43.7371175" lon="11.3024875"><ele>122.33333333333334</ele><time>2026-04-24T16:38:51.2Z</time></trkpt><trkpt lat="43.7370374" lon="11.3024608"><ele>123.0</ele><time>2026-04-24T16:38:55.201Z</time></trkpt><trkpt lat="43.7369509" lon="11.3024336"><ele>123.66666666666666</ele><time>2026-04-24T16:38:58.2Z</time></trkpt><trkpt lat="43.7368776" lon="11.3024241"><ele>124.33333333333333</ele><time>2026-04-24T16:39:02.201Z</time></trkpt><trkpt lat="43.7368168" lon="11.302494"><ele>125.0</ele><time>2026-04-24T16:39:07.2Z</time></trkpt><trkpt lat="43.7368328" lon="11.3026072"><ele>125.33333333333333</ele><time>2026-04-24T16:39:10.2Z</time></trkpt><trkpt lat="43.7368449" lon="11.3027208"><ele>125.66666666666666</ele><time>2026-04-24T16:39:12.201Z</time></trkpt><trkpt lat="43.7368593" lon="11.3028588"><ele>126.0</ele><time>2026-04-24T16:39:14.2Z</time></trkpt><trkpt lat="43.7368575" lon="11.3029942"><ele>126.33333333333334</ele><time>2026-04-24T16:39:16.201Z</time></trkpt><trkpt lat="43.7368501" lon="11.3031171"><ele>126.66666666666667</ele><time>2026-04-24T16:39:18.201Z</time></trkpt><trkpt lat="43.7368365" lon="11.3032097"><ele>127.0</ele><time>2026-04-24T16:39:20.201Z</time></trkpt><trkpt lat="43.7367958" lon="11.3032867"><ele>127.33333333333334</ele><time>2026-04-24T16:39:22.201Z</time></trkpt><trkpt lat="43.7367459" lon="11.3033488"><ele>127.66666666666667</ele><time>2026-04-24T16:39:24.201Z</time></trkpt><trkpt lat="43.7366867" lon="11.3034145"><ele>128.0</ele><time>2026-04-24T16:39:26.201Z</time></trkpt><trkpt lat="43.7366168" lon="11.3034827"><ele>128.33333333333334</ele><time>2026-04-24T16:39:28.2Z</time></trkpt><trkpt lat="43.7365439" lon="11.3035493"><ele>128.66666666666666</ele><time>2026-04-24T16:39:30.201Z</time></trkpt><trkpt lat="43.7364737" lon="11.3036044"><ele>129.0</ele><time>2026-04-24T16:39:32.201Z</time></trkpt><trkpt lat="43.7364072" lon="11.3036592"><ele>129.0</ele><time>2026-04-24T16:39:34.2Z</time></trkpt><trkpt lat="43.7363461" lon="11.3037089"><ele>129.0</ele><time>2026-04-24T16:39:36.2Z</time></trkpt><trkpt lat="43.736291" lon="11.3037737"><ele>129.0</ele><time>2026-04-24T16:39:38.201Z</time></trkpt><trkpt lat="43.7362495" lon="11.3038663"><ele>129.0</ele><time>2026-04-24T16:39:40.201Z</time></trkpt><trkpt lat="43.7362284" lon="11.3039847"><ele>129.0</ele><time>2026-04-24T16:39:42.201Z</time></trkpt><trkpt lat="43.7362165" lon="11.3041137"><ele>129.0</ele><time>2026-04-24T16:39:44.201Z</time></trkpt><trkpt lat="43.7362031" lon="11.3042433"><ele>128.8</ele><time>2026-04-24T16:39:46.201Z</time></trkpt><trkpt lat="43.7361921" lon="11.3043777"><ele>128.60000000000002</ele><time>2026-04-24T16:39:48.201Z</time></trkpt><trkpt lat="43.7361864" lon="11.3045013"><ele>128.4</ele><time>2026-04-24T16:39:50.201Z</time></trkpt><trkpt lat="43.7361779" lon="11.3046327"><ele>128.20000000000002</ele><time>2026-04-24T16:39:52.201Z</time></trkpt><trkpt lat="43.7361767" lon="11.3047694"><ele>128.0</ele><time>2026-04-24T16:39:54.201Z</time></trkpt><trkpt lat="43.7361709" lon="11.3049189"><ele>128.0</ele><time>2026-04-24T16:39:56.2Z</time></trkpt><trkpt lat="43.7361608" lon="11.3050606"><ele>128.0</ele><time>2026-04-24T16:39:58.201Z</time></trkpt><trkpt lat="43.7361299" lon="11.3051951"><ele>128.0</ele><time>2026-04-24T16:40:00.201Z</time></trkpt><trkpt lat="43.7360953" lon="11.3052954"><ele>128.0</ele><time>2026-04-24T16:40:02.2Z</time></trkpt><trkpt lat="43.7360638" lon="11.3054131"><ele>128.0</ele><time>2026-04-24T16:40:04.201Z</time></trkpt><trkpt lat="43.7360338" lon="11.3055401"><ele>127.80000000000001</ele><time>2026-04-24T16:40:06.201Z</time></trkpt><trkpt lat="43.7360019" lon="11.305664"><ele>127.60000000000001</ele><time>2026-04-24T16:40:08.2Z</time></trkpt><trkpt lat="43.7359812" lon="11.3057916"><ele>127.39999999999999</ele><time>2026-04-24T16:40:10.201Z</time></trkpt><trkpt lat="43.7359532" lon="11.3059137"><ele>127.19999999999999</ele><time>2026-04-24T16:40:12.201Z</time></trkpt><trkpt lat="43.7359198" lon="11.3060289"><ele>127.0</ele><time>2026-04-24T16:40:14.2Z</time></trkpt><trkpt lat="43.7358924" lon="11.3061497"><ele>127.00000000000001</ele><time>2026-04-24T16:40:16.201Z</time></trkpt><trkpt lat="43.7358649" lon="11.3062553"><ele>127.0</ele><time>2026-04-24T16:40:18.201Z</time></trkpt><trkpt lat="43.7358354" lon="11.3063582"><ele>127.0</ele><time>2026-04-24T16:40:20.201Z</time></trkpt><trkpt lat="43.7357967" lon="11.3064649"><ele>127.0</ele><time>2026-04-24T16:40:22.201Z</time></trkpt><trkpt lat="43.7357366" lon="11.3065041"><ele>127.00000000000001</ele><time>2026-04-24T16:40:24.201Z</time></trkpt><trkpt lat="43.7356778" lon="11.3065372"><ele>127.0</ele><time>2026-04-24T16:40:27.201Z</time></trkpt><trkpt lat="43.7356373" lon="11.3066571"><ele>127.39999999999999</ele><time>2026-04-24T16:40:30.2Z</time></trkpt><trkpt lat="43.7356074" lon="11.3067535"><ele>127.79999999999998</ele><time>2026-04-24T16:40:32.201Z</time></trkpt><trkpt lat="43.7355777" lon="11.3068589"><ele>128.2</ele><time>2026-04-24T16:40:34.201Z</time></trkpt><trkpt lat="43.7355476" lon="11.3069673"><ele>128.6</ele><time>2026-04-24T16:40:36.201Z</time></trkpt><trkpt lat="43.7355154" lon="11.3071106"><ele>129.0</ele><time>2026-04-24T16:40:38.2Z</time></trkpt><trkpt lat="43.7354736" lon="11.3072478"><ele>129.4</ele><time>2026-04-24T16:40:40.201Z</time></trkpt><trkpt lat="43.7354241" lon="11.3073741"><ele>129.8</ele><time>2026-04-24T16:40:42.2Z</time></trkpt><trkpt lat="43.7353858" lon="11.3075223"><ele>130.2</ele><time>2026-04-24T16:40:44.201Z</time></trkpt><trkpt lat="43.7353549" lon="11.3076834"><ele>130.6</ele><time>2026-04-24T16:40:46.201Z</time></trkpt><trkpt lat="43.735323" lon="11.3078199"><ele>131.0</ele><time>2026-04-24T16:40:48.201Z</time></trkpt><trkpt lat="43.7353011" lon="11.3079481"><ele>131.0</ele><time>2026-04-24T16:40:50.201Z</time></trkpt><trkpt lat="43.7352661" lon="11.3080669"><ele>131.0</ele><time>2026-04-24T16:40:52.201Z</time></trkpt><trkpt lat="43.7352328" lon="11.3081929"><ele>131.0</ele><time>2026-04-24T16:40:54.201Z</time></trkpt><trkpt lat="43.7351965" lon="11.3083405"><ele>131.0</ele><time>2026-04-24T16:40:56.201Z</time></trkpt><trkpt lat="43.7351508" lon="11.3084708"><ele>131.0</ele><time>2026-04-24T16:40:58.201Z</time></trkpt><trkpt lat="43.7351161" lon="11.3085802"><ele>131.33333333333331</ele><time>2026-04-24T16:41:00.201Z</time></trkpt><trkpt lat="43.7350947" lon="11.3086799"><ele>131.66666666666666</ele><time>2026-04-24T16:41:02.201Z</time></trkpt><trkpt lat="43.7350705" lon="11.3087793"><ele>132.0</ele><time>2026-04-24T16:41:04.201Z</time></trkpt><trkpt lat="43.7350483" lon="11.3088867"><ele>132.33333333333334</ele><time>2026-04-24T16:41:06.201Z</time></trkpt><trkpt lat="43.735021" lon="11.308997"><ele>132.66666666666669</ele><time>2026-04-24T16:41:08.201Z</time></trkpt><trkpt lat="43.7349904" lon="11.3091029"><ele>133.0</ele><time>2026-04-24T16:41:10.201Z</time></trkpt><trkpt lat="43.734968" lon="11.3091942"><ele>133.0</ele><time>2026-04-24T16:41:12.201Z</time></trkpt><trkpt lat="43.7349478" lon="11.3092798"><ele>133.0</ele><time>2026-04-24T16:41:14.201Z</time></trkpt><trkpt lat="43.7349285" lon="11.309372"><ele>133.0</ele><time>2026-04-24T16:41:16.201Z</time></trkpt><trkpt lat="43.7349051" lon="11.3094798"><ele>133.0</ele><time>2026-04-24T16:41:18.201Z</time></trkpt><trkpt lat="43.7348807" lon="11.3095844"><ele>133.0</ele><time>2026-04-24T16:41:20.201Z</time></trkpt><trkpt lat="43.7348513" lon="11.3096965"><ele>133.0</ele><time>2026-04-24T16:41:22.201Z</time></trkpt><trkpt lat="43.7348302" lon="11.3097994"><ele>133.42857142857142</ele><time>2026-04-24T16:41:24.201Z</time></trkpt><trkpt lat="43.734812" lon="11.3098948"><ele>133.85714285714286</ele><time>2026-04-24T16:41:26.201Z</time></trkpt><trkpt lat="43.7347927" lon="11.3099829"><ele>134.28571428571428</ele><time>2026-04-24T16:41:28.2Z</time></trkpt><trkpt lat="43.73477" lon="11.3100792"><ele>134.71428571428572</ele><time>2026-04-24T16:41:30.201Z</time></trkpt><trkpt lat="43.7347468" lon="11.3101745"><ele>135.14285714285714</ele><time>2026-04-24T16:41:32.2Z</time></trkpt><trkpt lat="43.7347286" lon="11.3102637"><ele>135.57142857142856</ele><time>2026-04-24T16:41:34.201Z</time></trkpt><trkpt lat="43.7346945" lon="11.3103896"><ele>136.0</ele><time>2026-04-24T16:41:37.201Z</time></trkpt><trkpt lat="43.734671" lon="11.3104902"><ele>135.57142857142856</ele><time>2026-04-24T16:41:39.201Z</time></trkpt><trkpt lat="43.7346463" lon="11.3105898"><ele>135.14285714285714</ele><time>2026-04-24T16:41:41.201Z</time></trkpt><trkpt lat="43.7346271" lon="11.3106764"><ele>134.71428571428572</ele><time>2026-04-24T16:41:43.201Z</time></trkpt><trkpt lat="43.7346139" lon="11.310764"><ele>134.28571428571428</ele><time>2026-04-24T16:41:45.201Z</time></trkpt><trkpt lat="43.7346189" lon="11.3108697"><ele>133.85714285714286</ele><time>2026-04-24T16:41:48.201Z</time></trkpt><trkpt lat="43.7346807" lon="11.3109094"><ele>133.42857142857142</ele><time>2026-04-24T16:41:52.201Z</time></trkpt><trkpt lat="43.7347662" lon="11.3109307"><ele>133.0</ele><time>2026-04-24T16:41:55.201Z</time></trkpt><trkpt lat="43.7348457" lon="11.3109593"><ele>133.0</ele><time>2026-04-24T16:41:57.201Z</time></trkpt><trkpt lat="43.734932" lon="11.3110011"><ele>133.0</ele><time>2026-04-24T16:42:00.2Z</time></trkpt><trkpt lat="43.735009" lon="11.3110277"><ele>133.0</ele><time>2026-04-24T16:42:02.201Z</time></trkpt><trkpt lat="43.7350704" lon="11.3110484"><ele>133.0</ele><time>2026-04-24T16:42:04.2Z</time></trkpt><trkpt lat="43.7351505" lon="11.3110825"><ele>133.0</ele><time>2026-04-24T16:42:07.2Z</time></trkpt><trkpt lat="43.7352183" lon="11.3111098"><ele>133.0</ele><time>2026-04-24T16:42:10.201Z</time></trkpt><trkpt lat="43.7352984" lon="11.3111288"><ele>131.0</ele><time>2026-04-24T16:42:14.201Z</time></trkpt><trkpt lat="43.7353658" lon="11.3111448"><ele>129.0</ele><time>2026-04-24T16:42:18.201Z</time></trkpt><trkpt lat="43.7354424" lon="11.3111763"><ele>127.0</ele><time>2026-04-24T16:42:21.2Z</time></trkpt><trkpt lat="43.7355347" lon="11.3112135"><ele>125.0</ele><time>2026-04-24T16:42:24.201Z</time></trkpt><trkpt lat="43.7355974" lon="11.3112396"><ele>123.00000000000001</ele><time>2026-04-24T16:42:26.201Z</time></trkpt><trkpt lat="43.7356845" lon="11.3112717"><ele>121.0</ele><time>2026-04-24T16:42:29.201Z</time></trkpt><trkpt lat="43.735776" lon="11.3113008"><ele>121.00000000000001</ele><time>2026-04-24T16:42:32.201Z</time></trkpt><trkpt lat="43.7358381" lon="11.3113261"><ele>121.0</ele><time>2026-04-24T16:42:34.201Z</time></trkpt><trkpt lat="43.7359047" lon="11.3113517"><ele>121.0</ele><time>2026-04-24T16:42:37.201Z</time></trkpt><trkpt lat="43.735982" lon="11.3113776"><ele>121.0</ele><time>2026-04-24T16:42:41.201Z</time></trkpt><trkpt lat="43.7360656" lon="11.3114117"><ele>121.00000000000001</ele><time>2026-04-24T16:42:44.201Z</time></trkpt><trkpt lat="43.7361563" lon="11.3114431"><ele>121.0</ele><time>2026-04-24T16:42:47.2Z</time></trkpt><trkpt lat="43.7362199" lon="11.3114705"><ele>118.33333333333334</ele><time>2026-04-24T16:42:49.201Z</time></trkpt><trkpt lat="43.7362829" lon="11.311498"><ele>115.66666666666667</ele><time>2026-04-24T16:42:51.201Z</time></trkpt><trkpt lat="43.7363502" lon="11.3115221"><ele>113.0</ele><time>2026-04-24T16:42:53.201Z</time></trkpt><trkpt lat="43.7364249" lon="11.3115467"><ele>110.33333333333334</ele><time>2026-04-24T16:42:55.201Z</time></trkpt><trkpt lat="43.7365003" lon="11.3115864"><ele>107.66666666666667</ele><time>2026-04-24T16:42:57.2Z</time></trkpt><trkpt lat="43.7365731" lon="11.3116216"><ele>105.0</ele><time>2026-04-24T16:42:59.2Z</time></trkpt><trkpt lat="43.7366609" lon="11.3116536"><ele>105.0</ele><time>2026-04-24T16:43:01.201Z</time></trkpt><trkpt lat="43.736762" lon="11.311694"><ele>105.0</ele><time>2026-04-24T16:43:03.2Z</time></trkpt><trkpt lat="43.7368625" lon="11.3117397"><ele>105.0</ele><time>2026-04-24T16:43:05.201Z</time></trkpt><trkpt lat="43.7369596" lon="11.3117775"><ele>105.0</ele><time>2026-04-24T16:43:07.201Z</time></trkpt><trkpt lat="43.7370604" lon="11.3118142"><ele>105.0</ele><time>2026-04-24T16:43:09.201Z</time></trkpt><trkpt lat="43.7371544" lon="11.3117905"><ele>104.5</ele><time>2026-04-24T16:43:11.201Z</time></trkpt><trkpt lat="43.7372082" lon="11.3116908"><ele>104.0</ele><time>2026-04-24T16:43:13.201Z</time></trkpt><trkpt lat="43.7372432" lon="11.3115899"><ele>103.5</ele><time>2026-04-24T16:43:17.201Z</time></trkpt><trkpt lat="43.737264" lon="11.3114715"><ele>103.0</ele><time>2026-04-24T16:43:20.201Z</time></trkpt><trkpt lat="43.7372868" lon="11.3113545"><ele>102.5</ele><time>2026-04-24T16:43:23.201Z</time></trkpt><trkpt lat="43.737319" lon="11.31125"><ele>102.0</ele><time>2026-04-24T16:43:26.201Z</time></trkpt><trkpt lat="43.7373509" lon="11.3111267"><ele>101.66666666666667</ele><time>2026-04-24T16:43:29.201Z</time></trkpt><trkpt lat="43.7373692" lon="11.3110375"><ele>101.33333333333334</ele><time>2026-04-24T16:43:31.201Z</time></trkpt><trkpt lat="43.7373967" lon="11.3109263"><ele>101.0</ele><time>2026-04-24T16:43:34.201Z</time></trkpt><trkpt lat="43.7374208" lon="11.3108285"><ele>100.66666666666667</ele><time>2026-04-24T16:43:36.201Z</time></trkpt><trkpt lat="43.7374421" lon="11.3107272"><ele>100.33333333333334</ele><time>2026-04-24T16:43:38.201Z</time></trkpt><trkpt lat="43.7374533" lon="11.3106111"><ele>100.0</ele><time>2026-04-24T16:43:40.201Z</time></trkpt><trkpt lat="43.7374616" lon="11.3105017"><ele>99.83333333333334</ele><time>2026-04-24T16:43:42.201Z</time></trkpt><trkpt lat="43.7374822" lon="11.3104081"><ele>99.66666666666667</ele><time>2026-04-24T16:43:44.201Z</time></trkpt><trkpt lat="43.7375044" lon="11.3102893"><ele>99.5</ele><time>2026-04-24T16:43:46.2Z</time></trkpt><trkpt lat="43.7375151" lon="11.310152"><ele>99.33333333333334</ele><time>2026-04-24T16:43:48.2Z</time></trkpt><trkpt lat="43.7375184" lon="11.3100451"><ele>99.16666666666667</ele><time>2026-04-24T16:43:50.201Z</time></trkpt><trkpt lat="43.737525" lon="11.3099488"><ele>99.0</ele><time>2026-04-24T16:43:52.201Z</time></trkpt><trkpt lat="43.7375367" lon="11.3098612"><ele>99.0</ele><time>2026-04-24T16:43:54.201Z</time></trkpt><trkpt lat="43.7375861" lon="11.3097938"><ele>99.0</ele><time>2026-04-24T16:43:56.201Z</time></trkpt><trkpt lat="43.7376491" lon="11.3097431"><ele>99.0</ele><time>2026-04-24T16:43:58.2Z</time></trkpt><trkpt lat="43.7377206" lon="11.3096695"><ele>99.0</ele><time>2026-04-24T16:44:01.201Z</time></trkpt><trkpt lat="43.7377855" lon="11.3096029"><ele>99.0</ele><time>2026-04-24T16:44:04.2Z</time></trkpt><trkpt lat="43.7378618" lon="11.3095309"><ele>99.0</ele><time>2026-04-24T16:44:07.201Z</time></trkpt><trkpt lat="43.7379204" lon="11.3094798"><ele>98.66666666666667</ele><time>2026-04-24T16:44:09.201Z</time></trkpt><trkpt lat="43.737987" lon="11.3094234"><ele>98.33333333333334</ele><time>2026-04-24T16:44:11.201Z</time></trkpt><trkpt lat="43.738063" lon="11.3093625"><ele>98.0</ele><time>2026-04-24T16:44:13.201Z</time></trkpt><trkpt lat="43.7381469" lon="11.309297"><ele>97.66666666666667</ele><time>2026-04-24T16:44:15.2Z</time></trkpt><trkpt lat="43.7382145" lon="11.3092373"><ele>97.33333333333334</ele><time>2026-04-24T16:44:17.201Z</time></trkpt><trkpt lat="43.7382825" lon="11.3092735"><ele>97.0</ele><time>2026-04-24T16:44:21.201Z</time></trkpt><trkpt lat="43.7383289" lon="11.3093894"><ele>97.00000000000001</ele><time>2026-04-24T16:44:27.201Z</time></trkpt><trkpt lat="43.7383744" lon="11.3095585"><ele>97.0</ele><time>2026-04-24T16:44:29.201Z</time></trkpt><trkpt lat="43.7383934" lon="11.3096519"><ele>97.0</ele><time>2026-04-24T16:44:30.201Z</time></trkpt><trkpt lat="43.7384119" lon="11.3097512"><ele>97.0</ele><time>2026-04-24T16:44:31.2Z</time></trkpt><trkpt lat="43.7384289" lon="11.3098452"><ele>97.00000000000001</ele><time>2026-04-24T16:44:32.2Z</time></trkpt><trkpt lat="43.7384508" lon="11.3099404"><ele>97.0</ele><time>2026-04-24T16:44:33.201Z</time></trkpt><trkpt lat="43.7384763" lon="11.3100301"><ele>97.33333333333334</ele><time>2026-04-24T16:44:34.2Z</time></trkpt><trkpt lat="43.7385033" lon="11.3101268"><ele>97.66666666666667</ele><time>2026-04-24T16:44:35.201Z</time></trkpt><trkpt lat="43.7385295" lon="11.3102232"><ele>98.0</ele><time>2026-04-24T16:44:36.201Z</time></trkpt><trkpt lat="43.7385558" lon="11.3103155"><ele>98.33333333333334</ele><time>2026-04-24T16:44:37.201Z</time></trkpt><trkpt lat="43.738571" lon="11.310415"><ele>98.66666666666667</ele><time>2026-04-24T16:44:38.201Z</time></trkpt><trkpt lat="43.7385829" lon="11.3105162"><ele>99.0</ele><time>2026-04-24T16:44:39.201Z</time></trkpt><trkpt lat="43.738599" lon="11.3106289"><ele>101.80000000000001</ele><time>2026-04-24T16:44:40.201Z</time></trkpt><trkpt lat="43.738612" lon="11.3107435"><ele>104.60000000000001</ele><time>2026-04-24T16:44:41.201Z</time></trkpt><trkpt lat="43.7386211" lon="11.310865"><ele>107.4</ele><time>2026-04-24T16:44:42.2Z</time></trkpt><trkpt lat="43.7386261" lon="11.3109881"><ele>110.2</ele><time>2026-04-24T16:44:43.201Z</time></trkpt><trkpt lat="43.738636" lon="11.3111159"><ele>113.0</ele><time>2026-04-24T16:44:44.2Z</time></trkpt><trkpt lat="43.7386504" lon="11.3112486"><ele>112.99999999999999</ele><time>2026-04-24T16:44:45.201Z</time></trkpt><trkpt lat="43.7386495" lon="11.3113588"><ele>113.0</ele><time>2026-04-24T16:44:46.201Z</time></trkpt><trkpt lat="43.7386526" lon="11.3114754"><ele>113.0</ele><time>2026-04-24T16:44:47.201Z</time></trkpt><trkpt lat="43.7386578" lon="11.3116013"><ele>113.0</ele><time>2026-04-24T16:44:48.201Z</time></trkpt><trkpt lat="43.7386597" lon="11.3117197"><ele>112.99999999999999</ele><time>2026-04-24T16:44:49.2Z</time></trkpt><trkpt lat="43.73867" lon="11.3118537"><ele>113.0</ele><time>2026-04-24T16:44:50.201Z</time></trkpt><trkpt lat="43.7386735" lon="11.3119761"><ele>113.66666666666666</ele><time>2026-04-24T16:44:51.201Z</time></trkpt><trkpt lat="43.7386723" lon="11.3120776"><ele>114.33333333333333</ele><time>2026-04-24T16:44:52.201Z</time></trkpt><trkpt lat="43.7386947" lon="11.3121931"><ele>115.0</ele><time>2026-04-24T16:44:53.201Z</time></trkpt><trkpt lat="43.7386999" lon="11.3123149"><ele>115.66666666666666</ele><time>2026-04-24T16:44:54.201Z</time></trkpt><trkpt lat="43.7387053" lon="11.3124467"><ele>116.33333333333333</ele><time>2026-04-24T16:44:55.201Z</time></trkpt><trkpt lat="43.7387049" lon="11.3125649"><ele>117.0</ele><time>2026-04-24T16:44:56.201Z</time></trkpt><trkpt lat="43.7387068" lon="11.3126755"><ele>117.33333333333333</ele><time>2026-04-24T16:44:57.201Z</time></trkpt><trkpt lat="43.7387105" lon="11.3127946"><ele>117.66666666666666</ele><time>2026-04-24T16:44:58.201Z</time></trkpt><trkpt lat="43.7387086" lon="11.3129124"><ele>118.0</ele><time>2026-04-24T16:44:59.2Z</time></trkpt><trkpt lat="43.7387079" lon="11.3130282"><ele>118.33333333333333</ele><time>2026-04-24T16:45:00.201Z</time></trkpt><trkpt lat="43.7387126" lon="11.3131477"><ele>118.66666666666666</ele><time>2026-04-24T16:45:01.201Z</time></trkpt><trkpt lat="43.7387132" lon="11.3132663"><ele>119.0</ele><time>2026-04-24T16:45:02.2Z</time></trkpt><trkpt lat="43.738716" lon="11.3133941"><ele>119.99999999999999</ele><time>2026-04-24T16:45:03.201Z</time></trkpt><trkpt lat="43.7387188" lon="11.3135271"><ele>121.0</ele><time>2026-04-24T16:45:04.2Z</time></trkpt><trkpt lat="43.738718" lon="11.3136314"><ele>122.0</ele><time>2026-04-24T16:45:05.201Z</time></trkpt><trkpt lat="43.7387046" lon="11.3137438"><ele>123.0</ele><time>2026-04-24T16:45:06.201Z</time></trkpt><trkpt lat="43.7386979" lon="11.313853"><ele>123.99999999999999</ele><time>2026-04-24T16:45:07.2Z</time></trkpt><trkpt lat="43.7386914" lon="11.3139401"><ele>125.0</ele><time>2026-04-24T16:45:08.201Z</time></trkpt><trkpt lat="43.7386854" lon="11.3140277"><ele>125.6</ele><time>2026-04-24T16:45:09.2Z</time></trkpt><trkpt lat="43.7386796" lon="11.3141788"><ele>126.2</ele><time>2026-04-24T16:45:11.2Z</time></trkpt><trkpt lat="43.7386789" lon="11.3143316"><ele>126.80000000000001</ele><time>2026-04-24T16:45:13.2Z</time></trkpt><trkpt lat="43.7386851" lon="11.3145006"><ele>127.4</ele><time>2026-04-24T16:45:15.201Z</time></trkpt><trkpt lat="43.7386876" lon="11.3145925"><ele>128.0</ele><time>2026-04-24T16:45:16.201Z</time></trkpt><trkpt lat="43.7386907" lon="11.3146814"><ele>128.4</ele><time>2026-04-24T16:45:17.201Z</time></trkpt><trkpt lat="43.7386977" lon="11.3148444"><ele>128.8</ele><time>2026-04-24T16:45:19.201Z</time></trkpt><trkpt lat="43.7386968" lon="11.3150048"><ele>129.2</ele><time>2026-04-24T16:45:21.201Z</time></trkpt><trkpt lat="43.7386934" lon="11.3151695"><ele>129.6</ele><time>2026-04-24T16:45:23.201Z</time></trkpt><trkpt lat="43.7386886" lon="11.3152572"><ele>130.0</ele><time>2026-04-24T16:45:24.201Z</time></trkpt><trkpt lat="43.7386882" lon="11.315347"><ele>130.0</ele><time>2026-04-24T16:45:25.201Z</time></trkpt><trkpt lat="43.7386824" lon="11.3154951"><ele>130.0</ele><time>2026-04-24T16:45:27.201Z</time></trkpt><trkpt lat="43.7386838" lon="11.315673"><ele>130.0</ele><time>2026-04-24T16:45:29.201Z</time></trkpt><trkpt lat="43.7386895" lon="11.3157629"><ele>130.0</ele><time>2026-04-24T16:45:30.2Z</time></trkpt><trkpt lat="43.7386911" lon="11.3159057"><ele>130.0</ele><time>2026-04-24T16:45:32.201Z</time></trkpt><trkpt lat="43.7387021" lon="11.3160301"><ele>130.2857142857143</ele><time>2026-04-24T16:45:34.201Z</time></trkpt><trkpt lat="43.7387227" lon="11.3161136"><ele>130.57142857142858</ele><time>2026-04-24T16:45:37.2Z</time></trkpt><trkpt lat="43.738787" lon="11.3161491"><ele>130.85714285714286</ele><time>2026-04-24T16:45:41.201Z</time></trkpt><trkpt lat="43.7388592" lon="11.3161698"><ele>131.14285714285717</ele><time>2026-04-24T16:45:44.201Z</time></trkpt><trkpt lat="43.7389489" lon="11.3161775"><ele>131.42857142857144</ele><time>2026-04-24T16:45:47.2Z</time></trkpt><trkpt lat="43.7390158" lon="11.3161816"><ele>131.71428571428572</ele><time>2026-04-24T16:45:49.201Z</time></trkpt><trkpt lat="43.7390955" lon="11.316185"><ele>132.0</ele><time>2026-04-24T16:45:51.201Z</time></trkpt><trkpt lat="43.7391656" lon="11.3161602"><ele>132.0</ele><time>2026-04-24T16:45:53.201Z</time></trkpt><trkpt lat="43.7392348" lon="11.3160776"><ele>132.0</ele><time>2026-04-24T16:45:56.201Z</time></trkpt><trkpt lat="43.7393158" lon="11.3160065"><ele>132.0</ele><time>2026-04-24T16:45:59.2Z</time></trkpt><trkpt lat="43.7393801" lon="11.3159707"><ele>132.0</ele><time>2026-04-24T16:46:01.201Z</time></trkpt><trkpt lat="43.7394533" lon="11.3159328"><ele>132.0</ele><time>2026-04-24T16:46:03.2Z</time></trkpt><trkpt lat="43.7395564" lon="11.3158934"><ele>132.0</ele><time>2026-04-24T16:46:05.201Z</time></trkpt><trkpt lat="43.7396238" lon="11.3158562"><ele>122.0</ele><time>2026-04-24T16:46:07.201Z</time></trkpt><trkpt lat="43.7396238" lon="11.3158562"><ele>122.0</ele><time>2026-04-24T16:46:07.201Z</time></trkpt></trkseg></trk></gpx>